Darstellungsparameter: Aktuell verwendete Einstellungen:
Skalierung der Graphiken ... ?
xyx+y,   Skalierungsfaktor:      Skalierung: Modus: x, Faktor: 1
Darstellungszeitraum ... ?
Vom - - bis: - -   Zeitraum: 22.01.2019 - 11.02.2019
Min/Max/Avg-Anzeige ... ?
Zeige MMA aktuell
Zeige MMA Monat
Zeige MMA alles
Zeige --A aktuell
Zeige --A Monat
Zeige --A alles
Keine MMA-Anzeige
MMA:
Average (ber die Originaldaten)
MMA-Basis: 17.01.2019 - 19.02.2019
Quicknavigation für Darstellung... ?
Tage:      1T, 2T, 3T, 5T -1T -2T -3T -5T +1T +2T +3T +5T
Wochen: 1W, 2W, 3W -1W -2W -3W +1W +2W +3W
Monate: 1M, 3M, 6M -1M -3M -6M +1M +3M +6M
Jahre:    1J, 3J, 5J, 10J -1J -3J -5J -10J +1J +3J +5J +10J
Nutze für die Darstellung ... ?
Originaldaten oder Mittelwerte auf ...
Stundenbasis Tagesbasis Wochenbasis
Monatsbasis Jahresbasis      Datenbasis: Original-Daten
Darstellen als:
Statistik (Auto) Statistik J:M      Darstellung:
Zur Graphik,    zurück zur Übersicht aller Sensoren.
 
Tabellarische Datenbersicht: ?
 
Sensor: Nr:Datum:Temp:Feuchte:Taupunkt:
Aussen-T/F 1 22-01-2019 00:00:00 -7.3 C 93 % -8.23 C
2 22-01-2019 00:05:00 -7.3 C 94 % -8.1 C
3 22-01-2019 00:10:00 -7.3 C 94 % -8.1 C
4 22-01-2019 00:15:00 -7.3 C 94 % -8.1 C
5 22-01-2019 00:20:00 -7.4 C 93 % -8.33 C
6 22-01-2019 00:25:00 -7.5 C 93 % -8.43 C
7 22-01-2019 00:30:00 -7.6 C 93 % -8.53 C
8 22-01-2019 00:35:00 -7.6 C 93 % -8.53 C
9 22-01-2019 00:40:00 -7.7 C 93 % -8.63 C
10 22-01-2019 00:45:00 -7.7 C 93 % -8.63 C
11 22-01-2019 00:50:00 -7.7 C 93 % -8.63 C
12 22-01-2019 00:55:00 -7.7 C 93 % -8.63 C
13 22-01-2019 01:00:00 -7.8 C 93 % -8.73 C
14 22-01-2019 01:05:00 -7.8 C 93 % -8.73 C
15 22-01-2019 01:10:00 -7.8 C 93 % -8.73 C
16 22-01-2019 01:15:00 -7.8 C 93 % -8.73 C
17 22-01-2019 01:20:00 -7.8 C 93 % -8.73 C
18 22-01-2019 01:25:00 -7.8 C 93 % -8.73 C
19 22-01-2019 01:30:00 -7.7 C 94 % -8.49 C
20 22-01-2019 01:35:00 -7.7 C 94 % -8.49 C
21 22-01-2019 01:40:00 -7.8 C 93 % -8.73 C
22 22-01-2019 01:45:00 -7.9 C 93 % -8.83 C
23 22-01-2019 01:50:00 -7.9 C 93 % -8.83 C
24 22-01-2019 01:55:00 -7.9 C 93 % -8.83 C
25 22-01-2019 02:00:00 -8 C 93 % -8.93 C
Sensor: Nr:Datum:Temp:Feuchte:Taupunkt:
Aussen-T/F 26 22-01-2019 02:05:00 -8.1 C 93 % -9.03 C
27 22-01-2019 02:10:00 -8.1 C 93 % -9.03 C
28 22-01-2019 02:15:00 -8.1 C 93 % -9.03 C
29 22-01-2019 02:20:00 -8.2 C 93 % -9.13 C
30 22-01-2019 02:25:00 -8 C 93 % -8.93 C
31 22-01-2019 02:30:00 -7.9 C 93 % -8.83 C
32 22-01-2019 02:35:00 -8 C 93 % -8.93 C
33 22-01-2019 02:40:00 -8.1 C 93 % -9.03 C
34 22-01-2019 02:45:00 -8.1 C 93 % -9.03 C
35 22-01-2019 02:50:00 -8.1 C 93 % -9.03 C
36 22-01-2019 02:55:00 -8.2 C 93 % -9.13 C
37 22-01-2019 03:00:00 -8.2 C 93 % -9.13 C
38 22-01-2019 03:05:00 -8.2 C 93 % -9.13 C
39 22-01-2019 03:10:00 -8.2 C 93 % -9.13 C
40 22-01-2019 03:15:00 -8.2 C 93 % -9.13 C
41 22-01-2019 03:20:00 -8.2 C 93 % -9.13 C
42 22-01-2019 03:25:00 -8.2 C 93 % -9.13 C
43 22-01-2019 03:30:00 -8.2 C 93 % -9.13 C
44 22-01-2019 03:35:00 -8.3 C 93 % -9.23 C
45 22-01-2019 03:40:00 -8.3 C 93 % -9.23 C
46 22-01-2019 03:45:00 -8.4 C 93 % -9.33 C
47 22-01-2019 03:50:00 -8.4 C 93 % -9.33 C
48 22-01-2019 03:55:00 -8.5 C 93 % -9.43 C
49 22-01-2019 04:00:00 -8.5 C 93 % -9.43 C
50 22-01-2019 04:05:00 -8.4 C 93 % -9.33 C
Sensor: Nr:Datum:Temp:Feuchte:Taupunkt:
Aussen-T/F 51 22-01-2019 04:10:00 -8.4 C 93 % -9.33 C
52 22-01-2019 04:15:00 -8.4 C 93 % -9.33 C
53 22-01-2019 04:20:00 -8.5 C 93 % -9.43 C
54 22-01-2019 04:25:00 -8.6 C 93 % -9.52 C
55 22-01-2019 04:30:00 -8.6 C 93 % -9.52 C
56 22-01-2019 04:35:00 -8.7 C 93 % -9.62 C
57 22-01-2019 04:40:00 -8.7 C 93 % -9.62 C
58 22-01-2019 04:45:00 -8.7 C 93 % -9.62 C
59 22-01-2019 04:50:00 -8.7 C 93 % -9.62 C
60 22-01-2019 04:55:00 -8.7 C 93 % -9.62 C
61 22-01-2019 05:00:00 -8.6 C 93 % -9.52 C
62 22-01-2019 05:05:00 -8.6 C 93 % -9.52 C
63 22-01-2019 05:10:00 -8.5 C 93 % -9.43 C
64 22-01-2019 05:15:00 -8.4 C 94 % -9.19 C
65 22-01-2019 05:20:00 -8.3 C 93 % -9.23 C
66 22-01-2019 05:25:00 -8.3 C 93 % -9.23 C
67 22-01-2019 05:30:00 -8.4 C 93 % -9.33 C
68 22-01-2019 05:35:00 -8.4 C 93 % -9.33 C
69 22-01-2019 05:40:00 -8.6 C 93 % -9.52 C
70 22-01-2019 05:45:00 -8.7 C 93 % -9.62 C
71 22-01-2019 05:50:00 -8.7 C 93 % -9.62 C
72 22-01-2019 05:55:00 -8.7 C 93 % -9.62 C
73 22-01-2019 06:00:00 -8.7 C 93 % -9.62 C
74 22-01-2019 06:05:00 -8.7 C 93 % -9.62 C
75 22-01-2019 06:10:00 -8.7 C 93 % -9.62 C
Sensor: Nr:Datum:Temp:Feuchte:Taupunkt:
Aussen-T/F 76 22-01-2019 06:15:00 -8.7 C 93 % -9.62 C
77 22-01-2019 06:20:00 -8.7 C 93 % -9.62 C
78 22-01-2019 06:25:00 -8.7 C 93 % -9.62 C
79 22-01-2019 06:30:00 -8.7 C 93 % -9.62 C
80 22-01-2019 06:35:00 -8.8 C 93 % -9.72 C
81 22-01-2019 06:40:00 -8.8 C 93 % -9.72 C
82 22-01-2019 06:45:00 -8.8 C 93 % -9.72 C
83 22-01-2019 06:50:00 -8.8 C 93 % -9.72 C
84 22-01-2019 06:55:00 -8.8 C 93 % -9.72 C
85 22-01-2019 07:00:00 -8.7 C 93 % -9.62 C
86 22-01-2019 07:05:00 -8.7 C 93 % -9.62 C
87 22-01-2019 07:10:00 -8.6 C 93 % -9.52 C
88 22-01-2019 07:15:00 -8.7 C 93 % -9.62 C
89 22-01-2019 07:20:00 -8.7 C 93 % -9.62 C
90 22-01-2019 07:25:00 -8.7 C 93 % -9.62 C
91 22-01-2019 07:30:00 -8.7 C 93 % -9.62 C
92 22-01-2019 07:35:00 -8.7 C 93 % -9.62 C
93 22-01-2019 07:40:00 -8.7 C 93 % -9.62 C
94 22-01-2019 07:45:00 -8.6 C 93 % -9.52 C
95 22-01-2019 07:50:00 -8.5 C 93 % -9.43 C
96 22-01-2019 07:55:00 -8.5 C 93 % -9.43 C
97 22-01-2019 08:00:00 -8.6 C 93 % -9.52 C
98 22-01-2019 08:05:00 -8.6 C 93 % -9.52 C
99 22-01-2019 08:10:00 -8.6 C 93 % -9.52 C
100 22-01-2019 08:15:00 -8.6 C 93 % -9.52 C
Sensor: Nr:Datum:Temp:Feuchte:Taupunkt:
Aussen-T/F 101 22-01-2019 08:20:00 -8.3 C 94 % -9.09 C
102 22-01-2019 08:25:00 -8.1 C 94 % -8.89 C
103 22-01-2019 08:30:00 -8.1 C 94 % -8.89 C
104 22-01-2019 08:35:00 -8 C 94 % -8.79 C
105 22-01-2019 08:40:00 -7.9 C 94 % -8.69 C
106 22-01-2019 08:45:00 -7.9 C 93 % -8.83 C
107 22-01-2019 08:50:00 -7.9 C 93 % -8.83 C
108 22-01-2019 08:55:00 -7.8 C 94 % -8.59 C
109 22-01-2019 09:00:00 -7.8 C 94 % -8.59 C
110 22-01-2019 09:05:00 -7.7 C 94 % -8.49 C
111 22-01-2019 09:10:00 -7.6 C 94 % -8.4 C
112 22-01-2019 09:15:00 -7.5 C 94 % -8.3 C
113 22-01-2019 09:20:00 -7.4 C 94 % -8.2 C
114 22-01-2019 09:25:00 -7.3 C 94 % -8.1 C
115 22-01-2019 09:30:00 -7.3 C 94 % -8.1 C
116 22-01-2019 09:35:00 -7.2 C 94 % -8 C
117 22-01-2019 09:40:00 -7.2 C 94 % -8 C
118 22-01-2019 09:45:00 -7.1 C 94 % -7.9 C
119 22-01-2019 09:50:00 -7 C 94 % -7.8 C
120 22-01-2019 09:55:00 -6.9 C 94 % -7.7 C
121 22-01-2019 10:00:00 -6.8 C 94 % -7.6 C
122 22-01-2019 10:05:00 -6.8 C 94 % -7.6 C
123 22-01-2019 10:10:00 -6.7 C 94 % -7.5 C
124 22-01-2019 10:15:00 -6.6 C 94 % -7.4 C
125 22-01-2019 10:20:00 -6.5 C 94 % -7.3 C
Sensor: Nr:Datum:Temp:Feuchte:Taupunkt:
Aussen-T/F 126 22-01-2019 10:25:00 -6.4 C 94 % -7.2 C
127 22-01-2019 10:30:00 -6.3 C 94 % -7.1 C
128 22-01-2019 10:35:00 -6.2 C 94 % -7.01 C
129 22-01-2019 10:40:00 -6.1 C 94 % -6.91 C
130 22-01-2019 10:45:00 -5.9 C 95 % -6.57 C
131 22-01-2019 10:50:00 -5.8 C 95 % -6.47 C
132 22-01-2019 10:55:00 -5.7 C 95 % -6.37 C
133 22-01-2019 11:00:00 -5.6 C 95 % -6.27 C
134 22-01-2019 11:05:00 -5.5 C 95 % -6.17 C
135 22-01-2019 11:10:00 -5.4 C 95 % -6.07 C
136 22-01-2019 11:15:00 -5.3 C 95 % -5.97 C
137 22-01-2019 11:20:00 -5.2 C 95 % -5.87 C
138 22-01-2019 11:25:00 -5.1 C 95 % -5.77 C
139 22-01-2019 11:30:00 -4.9 C 95 % -5.58 C
140 22-01-2019 11:35:00 -4.8 C 95 % -5.48 C
141 22-01-2019 11:40:00 -4.7 C 95 % -5.38 C
142 22-01-2019 11:45:00 -4.6 C 95 % -5.28 C
143 22-01-2019 11:50:00 -4.5 C 95 % -5.18 C
144 22-01-2019 11:55:00 -4.3 C 95 % -4.98 C
145 22-01-2019 12:00:00 -4.2 C 95 % -4.88 C
146 22-01-2019 12:05:00 -4.1 C 95 % -4.78 C
147 22-01-2019 12:10:00 -3.8 C 95 % -4.48 C
148 22-01-2019 12:15:00 -3.6 C 95 % -4.28 C
149 22-01-2019 12:20:00 -3.4 C 95 % -4.08 C
150 22-01-2019 12:25:00 -3.3 C 95 % -3.98 C
Sensor: Nr:Datum:Temp:Feuchte:Taupunkt:
Aussen-T/F 151 22-01-2019 12:30:00 -3.1 C 95 % -3.79 C
152 22-01-2019 12:35:00 -2.9 C 95 % -3.59 C
153 22-01-2019 12:40:00 -2.7 C 95 % -3.39 C
154 22-01-2019 12:45:00 -2.5 C 95 % -3.19 C
155 22-01-2019 12:50:00 -2.3 C 95 % -2.99 C
156 22-01-2019 12:55:00 -2.2 C 95 % -2.89 C
157 22-01-2019 13:00:00 -2 C 94 % -2.83 C
158 22-01-2019 13:05:00 -1.8 C 94 % -2.64 C
159 22-01-2019 13:10:00 -1.7 C 93 % -2.68 C
160 22-01-2019 13:15:00 -1.7 C 93 % -2.68 C
161 22-01-2019 13:20:00 -1.6 C 92 % -2.73 C
162 22-01-2019 13:25:00 -1.4 C 92 % -2.53 C
163 22-01-2019 13:30:00 -1.3 C 91 % -2.58 C
164 22-01-2019 13:35:00 -1.3 C 92 % -2.43 C
165 22-01-2019 13:40:00 -1.2 C 91 % -2.48 C
166 22-01-2019 13:45:00 -1.2 C 91 % -2.48 C
167 22-01-2019 13:50:00 -1.2 C 90 % -2.63 C
168 22-01-2019 13:55:00 -1.1 C 90 % -2.53 C
169 22-01-2019 14:00:00 -1.1 C 89 % -2.68 C
170 22-01-2019 14:05:00 -1.1 C 89 % -2.68 C
171 22-01-2019 14:10:00 -0.9 C 89 % -2.48 C
172 22-01-2019 14:15:00 -0.9 C 89 % -2.48 C
173 22-01-2019 14:20:00 -0.9 C 89 % -2.48 C
174 22-01-2019 14:25:00 -0.9 C 89 % -2.48 C
175 22-01-2019 14:30:00 -0.9 C 88 % -2.63 C
Sensor: Nr:Datum:Temp:Feuchte:Taupunkt:
Aussen-T/F 176 22-01-2019 14:35:00 -0.8 C 89 % -2.38 C
177 22-01-2019 14:40:00 -0.8 C 88 % -2.53 C
178 22-01-2019 14:45:00 -0.8 C 88 % -2.53 C
179 22-01-2019 14:50:00 -0.8 C 88 % -2.53 C
180 22-01-2019 14:55:00 -0.8 C 87 % -2.69 C
181 22-01-2019 15:00:00 -0.8 C 88 % -2.53 C
182 22-01-2019 15:05:00 -0.9 C 87 % -2.79 C
183 22-01-2019 15:10:00 -0.9 C 87 % -2.79 C
184 22-01-2019 15:15:00 -1 C 87 % -2.88 C
185 22-01-2019 15:20:00 -0.9 C 88 % -2.63 C
186 22-01-2019 15:25:00 -1 C 88 % -2.73 C
187 22-01-2019 15:30:00 -1 C 88 % -2.73 C
188 22-01-2019 15:35:00 -1 C 88 % -2.73 C
189 22-01-2019 15:40:00 -1.1 C 87 % -2.98 C
190 22-01-2019 15:45:00 -1.1 C 87 % -2.98 C
191 22-01-2019 15:50:00 -1.1 C 88 % -2.83 C
192 22-01-2019 15:55:00 -1.1 C 88 % -2.83 C
193 22-01-2019 16:00:00 -1.1 C 87 % -2.98 C
194 22-01-2019 16:05:00 -1.1 C 88 % -2.83 C
195 22-01-2019 16:10:00 -1.1 C 87 % -2.98 C
196 22-01-2019 16:15:00 -1.2 C 87 % -3.08 C
197 22-01-2019 16:20:00 -1.2 C 87 % -3.08 C
198 22-01-2019 16:25:00 -1.2 C 87 % -3.08 C
199 22-01-2019 16:30:00 -1.2 C 87 % -3.08 C
200 22-01-2019 16:35:00 -1.3 C 87 % -3.18 C
Sensor: Nr:Datum:Temp:Feuchte:Taupunkt:
Aussen-T/F 201 22-01-2019 16:40:00 -1.3 C 87 % -3.18 C
202 22-01-2019 16:45:00 -1.3 C 87 % -3.18 C
203 22-01-2019 16:50:00 -1.3 C 87 % -3.18 C
204 22-01-2019 16:55:00 -1.4 C 87 % -3.28 C
205 22-01-2019 17:00:00 -1.5 C 88 % -3.22 C
206 22-01-2019 17:05:00 -1.6 C 87 % -3.48 C
207 22-01-2019 17:10:00 -1.8 C 87 % -3.67 C
208 22-01-2019 17:15:00 -1.9 C 87 % -3.77 C
209 22-01-2019 17:20:00 -2.1 C 88 % -3.82 C
210 22-01-2019 17:25:00 -2.2 C 88 % -3.91 C
211 22-01-2019 17:30:00 -2.3 C 88 % -4.01 C
212 22-01-2019 17:35:00 -2.4 C 89 % -3.96 C
213 22-01-2019 17:40:00 -2.6 C 89 % -4.16 C
214 22-01-2019 17:45:00 -2.7 C 89 % -4.26 C
215 22-01-2019 17:50:00 -2.8 C 89 % -4.36 C
216 22-01-2019 17:55:00 -2.8 C 89 % -4.36 C
217 22-01-2019 18:00:00 -2.9 C 90 % -4.31 C
218 22-01-2019 18:05:00 -2.9 C 90 % -4.31 C
219 22-01-2019 18:10:00 -2.9 C 90 % -4.31 C
220 22-01-2019 18:15:00 -2.9 C 90 % -4.31 C
221 22-01-2019 18:20:00 -2.9 C 91 % -4.16 C
222 22-01-2019 18:25:00 -2.9 C 91 % -4.16 C
223 22-01-2019 18:30:00 -2.9 C 91 % -4.16 C
224 22-01-2019 18:35:00 -2.9 C 91 % -4.16 C
225 22-01-2019 18:40:00 -2.8 C 91 % -4.06 C
Sensor: Nr:Datum:Temp:Feuchte:Taupunkt:
Aussen-T/F 226 22-01-2019 18:45:00 -2.8 C 91 % -4.06 C
227 22-01-2019 18:50:00 -2.8 C 91 % -4.06 C
228 22-01-2019 18:55:00 -2.8 C 91 % -4.06 C
229 22-01-2019 19:00:00 -2.8 C 91 % -4.06 C
230 22-01-2019 19:05:00 -2.9 C 91 % -4.16 C
231 22-01-2019 19:10:00 -2.9 C 91 % -4.16 C
232 22-01-2019 19:15:00 -3 C 91 % -4.26 C
233 22-01-2019 19:20:00 -3.1 C 91 % -4.36 C
234 22-01-2019 19:25:00 -3.1 C 91 % -4.36 C
235 22-01-2019 19:30:00 -3.2 C 91 % -4.46 C
236 22-01-2019 19:35:00 -3.2 C 91 % -4.46 C
237 22-01-2019 19:40:00 -3.2 C 91 % -4.46 C
238 22-01-2019 19:45:00 -3.3 C 91 % -4.56 C
239 22-01-2019 19:50:00 -3.3 C 91 % -4.56 C
240 22-01-2019 19:55:00 -3.3 C 91 % -4.56 C
241 22-01-2019 20:00:00 -3.3 C 92 % -4.41 C
242 22-01-2019 20:05:00 -3.2 C 92 % -4.31 C
243 22-01-2019 20:10:00 -3.2 C 92 % -4.31 C
244 22-01-2019 20:15:00 -3.2 C 92 % -4.31 C
245 22-01-2019 20:20:00 -3.2 C 92 % -4.31 C
246 22-01-2019 20:25:00 -3.1 C 92 % -4.21 C
247 22-01-2019 20:30:00 -3.1 C 92 % -4.21 C
248 22-01-2019 20:35:00 -3.1 C 92 % -4.21 C
249 22-01-2019 20:40:00 -3.1 C 92 % -4.21 C
250 22-01-2019 20:45:00 -3.1 C 92 % -4.21 C
Sensor: Nr:Datum:Temp:Feuchte:Taupunkt:
Aussen-T/F 251 22-01-2019 20:50:00 -3 C 93 % -3.97 C
252 22-01-2019 20:55:00 -2.9 C 93 % -3.87 C
253 22-01-2019 21:00:00 -2.9 C 92 % -4.01 C
254 22-01-2019 21:05:00 -2.8 C 92 % -3.92 C
255 22-01-2019 21:10:00 -2.8 C 92 % -3.92 C
256 22-01-2019 21:15:00 -2.8 C 92 % -3.92 C
257 22-01-2019 21:20:00 -2.7 C 92 % -3.82 C
258 22-01-2019 21:25:00 -2.7 C 93 % -3.67 C
259 22-01-2019 21:30:00 -2.7 C 93 % -3.67 C
260 22-01-2019 21:35:00 -2.7 C 93 % -3.67 C
261 22-01-2019 21:40:00 -2.6 C 93 % -3.57 C
262 22-01-2019 21:45:00 -2.6 C 93 % -3.57 C
263 22-01-2019 21:50:00 -2.5 C 93 % -3.47 C
264 22-01-2019 21:55:00 -2.5 C 93 % -3.47 C
265 22-01-2019 22:00:00 -2.4 C 93 % -3.37 C
266 22-01-2019 22:05:00 -2.4 C 93 % -3.37 C
267 22-01-2019 22:10:00 -2.4 C 93 % -3.37 C
268 22-01-2019 22:15:00 -2.4 C 93 % -3.37 C
269 22-01-2019 22:20:00 -2.4 C 93 % -3.37 C
270 22-01-2019 22:25:00 -2.4 C 92 % -3.52 C
271 22-01-2019 22:30:00 -2.4 C 92 % -3.52 C
272 22-01-2019 22:35:00 -2.4 C 92 % -3.52 C
273 22-01-2019 22:40:00 -2.4 C 92 % -3.52 C
274 22-01-2019 22:45:00 -2.3 C 93 % -3.28 C
275 22-01-2019 22:50:00 -2.3 C 92 % -3.42 C
Sensor: Nr:Datum:Temp:Feuchte:Taupunkt:
Aussen-T/F 276 22-01-2019 22:55:00 -2.3 C 92 % -3.42 C
277 22-01-2019 23:00:00 -2.2 C 92 % -3.32 C
278 22-01-2019 23:05:00 -2.2 C 92 % -3.32 C
279 22-01-2019 23:10:00 -2.2 C 92 % -3.32 C
280 22-01-2019 23:15:00 -2.2 C 92 % -3.32 C
281 22-01-2019 23:20:00 -2.2 C 92 % -3.32 C
282 22-01-2019 23:25:00 -2.1 C 92 % -3.22 C
283 22-01-2019 23:30:00 -2.1 C 92 % -3.22 C
284 22-01-2019 23:35:00 -2.1 C 92 % -3.22 C
285 22-01-2019 23:40:00 -2 C 92 % -3.12 C
286 22-01-2019 23:45:00 -1.9 C 92 % -3.02 C
287 22-01-2019 23:50:00 -1.9 C 91 % -3.17 C
288 22-01-2019 23:55:00 -1.8 C 91 % -3.07 C
289 23-01-2019 00:00:00 -1.8 C 91 % -3.07 C
290 23-01-2019 00:05:00 -1.8 C 90 % -3.22 C
291 23-01-2019 00:10:00 -1.7 C 90 % -3.12 C
292 23-01-2019 00:15:00 -1.7 C 89 % -3.27 C
293 23-01-2019 00:20:00 -1.7 C 89 % -3.27 C
294 23-01-2019 00:25:00 -1.6 C 88 % -3.32 C
295 23-01-2019 00:30:00 -1.6 C 88 % -3.32 C
296 23-01-2019 00:35:00 -1.6 C 88 % -3.32 C
297 23-01-2019 00:40:00 -1.6 C 88 % -3.32 C
298 23-01-2019 00:45:00 -1.6 C 88 % -3.32 C
299 23-01-2019 00:50:00 -1.6 C 89 % -3.17 C
300 23-01-2019 00:55:00 -1.6 C 89 % -3.17 C
Sensor: Nr:Datum:Temp:Feuchte:Taupunkt:
Aussen-T/F 301 23-01-2019 01:00:00 -1.6 C 89 % -3.17 C
302 23-01-2019 01:05:00 -1.6 C 89 % -3.17 C
303 23-01-2019 01:10:00 -1.6 C 89 % -3.17 C
304 23-01-2019 01:15:00 -1.6 C 89 % -3.17 C
305 23-01-2019 01:20:00 -1.6 C 89 % -3.17 C
306 23-01-2019 01:25:00 -1.6 C 90 % -3.02 C
307 23-01-2019 01:30:00 -1.6 C 90 % -3.02 C
308 23-01-2019 01:35:00 -1.6 C 90 % -3.02 C
309 23-01-2019 01:40:00 -1.7 C 90 % -3.12 C
310 23-01-2019 01:45:00 -1.7 C 90 % -3.12 C
311 23-01-2019 01:50:00 -1.7 C 90 % -3.12 C
312 23-01-2019 01:55:00 -1.7 C 91 % -2.97 C
313 23-01-2019 02:00:00 -1.7 C 91 % -2.97 C
314 23-01-2019 02:05:00 -1.7 C 91 % -2.97 C
315 23-01-2019 02:10:00 -1.7 C 91 % -2.97 C
316 23-01-2019 02:15:00 -1.7 C 91 % -2.97 C
317 23-01-2019 02:20:00 -1.7 C 91 % -2.97 C
318 23-01-2019 02:25:00 -1.7 C 91 % -2.97 C
319 23-01-2019 02:30:00 -1.7 C 91 % -2.97 C
320 23-01-2019 02:35:00 -1.7 C 91 % -2.97 C
321 23-01-2019 02:40:00 -1.7 C 91 % -2.97 C
322 23-01-2019 02:45:00 -1.7 C 91 % -2.97 C
323 23-01-2019 02:50:00 -1.7 C 91 % -2.97 C
324 23-01-2019 02:55:00 -1.7 C 92 % -2.83 C
325 23-01-2019 03:00:00 -1.7 C 92 % -2.83 C
Sensor: Nr:Datum:Temp:Feuchte:Taupunkt:
Aussen-T/F 326 23-01-2019 03:05:00 -1.7 C 92 % -2.83 C
327 23-01-2019 03:10:00 -1.7 C 92 % -2.83 C
328 23-01-2019 03:15:00 -1.8 C 92 % -2.92 C
329 23-01-2019 03:20:00 -1.8 C 92 % -2.92 C
330 23-01-2019 03:25:00 -1.8 C 92 % -2.92 C
331 23-01-2019 03:30:00 -1.8 C 92 % -2.92 C
332 23-01-2019 03:35:00 -1.8 C 92 % -2.92 C
333 23-01-2019 03:40:00 -1.8 C 92 % -2.92 C
334 23-01-2019 03:45:00 -1.8 C 93 % -2.78 C
335 23-01-2019 03:50:00 -1.8 C 93 % -2.78 C
336 23-01-2019 03:55:00 -1.8 C 92 % -2.92 C
337 23-01-2019 04:00:00 -1.8 C 93 % -2.78 C
338 23-01-2019 04:05:00 -1.8 C 93 % -2.78 C
339 23-01-2019 04:10:00 -1.8 C 93 % -2.78 C
340 23-01-2019 04:15:00 -1.8 C 93 % -2.78 C
341 23-01-2019 04:20:00 -1.8 C 93 % -2.78 C
342 23-01-2019 04:25:00 -1.8 C 93 % -2.78 C
343 23-01-2019 04:30:00 -1.8 C 93 % -2.78 C
344 23-01-2019 04:35:00 -1.8 C 93 % -2.78 C
345 23-01-2019 04:40:00 -1.8 C 93 % -2.78 C
346 23-01-2019 04:45:00 -1.8 C 93 % -2.78 C
347 23-01-2019 04:50:00 -1.9 C 93 % -2.88 C
348 23-01-2019 04:55:00 -1.9 C 93 % -2.88 C
349 23-01-2019 05:00:00 -1.9 C 93 % -2.88 C
350 23-01-2019 05:05:00 -1.9 C 93 % -2.88 C
Sensor: Nr:Datum:Temp:Feuchte:Taupunkt:
Aussen-T/F 351 23-01-2019 05:10:00 -1.9 C 93 % -2.88 C
352 23-01-2019 05:15:00 -2 C 93 % -2.98 C
353 23-01-2019 05:20:00 -2 C 93 % -2.98 C
354 23-01-2019 05:25:00 -2 C 93 % -2.98 C
355 23-01-2019 05:30:00 -2.1 C 94 % -2.93 C
356 23-01-2019 05:35:00 -2.1 C 93 % -3.08 C
357 23-01-2019 05:40:00 -2.1 C 93 % -3.08 C
358 23-01-2019 05:45:00 -2.1 C 93 % -3.08 C
359 23-01-2019 05:50:00 -2.1 C 94 % -2.93 C
360 23-01-2019 05:55:00 -2.1 C 94 % -2.93 C
361 23-01-2019 06:00:00 -2.1 C 94 % -2.93 C
362 23-01-2019 06:05:00 -2.1 C 94 % -2.93 C
363 23-01-2019 06:10:00 -2.2 C 94 % -3.03 C
364 23-01-2019 06:15:00 -2.2 C 94 % -3.03 C
365 23-01-2019 06:20:00 -2.2 C 94 % -3.03 C
366 23-01-2019 06:25:00 -2.2 C 94 % -3.03 C
367 23-01-2019 06:30:00 -2.2 C 94 % -3.03 C
368 23-01-2019 06:35:00 -2.2 C 94 % -3.03 C
369 23-01-2019 06:40:00 -2.2 C 94 % -3.03 C
370 23-01-2019 06:45:00 -2.2 C 94 % -3.03 C
371 23-01-2019 06:50:00 -2.2 C 94 % -3.03 C
372 23-01-2019 06:55:00 -2.2 C 94 % -3.03 C
373 23-01-2019 07:00:00 -2.2 C 94 % -3.03 C
374 23-01-2019 07:05:00 -2.2 C 94 % -3.03 C
375 23-01-2019 07:10:00 -2.2 C 94 % -3.03 C
Sensor: Nr:Datum:Temp:Feuchte:Taupunkt:
Aussen-T/F 376 23-01-2019 07:15:00 -2.3 C 94 % -3.13 C
377 23-01-2019 07:20:00 -2.3 C 94 % -3.13 C
378 23-01-2019 07:25:00 -2.3 C 94 % -3.13 C
379 23-01-2019 07:30:00 -2.3 C 94 % -3.13 C
380 23-01-2019 07:35:00 -2.3 C 94 % -3.13 C
381 23-01-2019 07:40:00 -2.3 C 94 % -3.13 C
382 23-01-2019 07:45:00 -2.4 C 94 % -3.23 C
383 23-01-2019 07:50:00 -2.4 C 94 % -3.23 C
384 23-01-2019 07:55:00 -2.4 C 94 % -3.23 C
385 23-01-2019 08:00:00 -2.4 C 94 % -3.23 C
386 23-01-2019 08:05:00 -2.4 C 94 % -3.23 C
387 23-01-2019 08:10:00 -2.4 C 94 % -3.23 C
388 23-01-2019 08:15:00 -2.4 C 94 % -3.23 C
389 23-01-2019 08:20:00 -2.4 C 94 % -3.23 C
390 23-01-2019 08:25:00 -2.4 C 94 % -3.23 C
391 23-01-2019 08:30:00 -2.4 C 94 % -3.23 C
392 23-01-2019 08:35:00 -2.4 C 94 % -3.23 C
393 23-01-2019 08:40:00 -2.4 C 94 % -3.23 C
394 23-01-2019 08:45:00 -2.4 C 94 % -3.23 C
395 23-01-2019 08:50:00 -2.4 C 94 % -3.23 C
396 23-01-2019 08:55:00 -2.4 C 94 % -3.23 C
397 23-01-2019 09:00:00 -2.4 C 94 % -3.23 C
398 23-01-2019 09:05:00 -2.4 C 94 % -3.23 C
399 23-01-2019 09:10:00 -2.4 C 94 % -3.23 C
400 23-01-2019 09:15:00 -2.3 C 94 % -3.13 C
Sensor: Nr:Datum:Temp:Feuchte:Taupunkt:
Aussen-T/F 401 23-01-2019 09:20:00 -2.3 C 94 % -3.13 C
402 23-01-2019 09:25:00 -2.3 C 95 % -2.99 C
403 23-01-2019 09:30:00 -2.3 C 95 % -2.99 C
404 23-01-2019 09:35:00 -2.3 C 95 % -2.99 C
405 23-01-2019 09:40:00 -2.2 C 95 % -2.89 C
406 23-01-2019 09:45:00 -2.2 C 95 % -2.89 C
407 23-01-2019 09:50:00 -2.1 C 95 % -2.79 C
408 23-01-2019 09:55:00 -2.1 C 95 % -2.79 C
409 23-01-2019 10:00:00 -2 C 95 % -2.69 C
410 23-01-2019 10:05:00 -1.9 C 94 % -2.73 C
411 23-01-2019 10:10:00 -1.9 C 94 % -2.73 C
412 23-01-2019 10:15:00 -1.8 C 94 % -2.64 C
413 23-01-2019 10:20:00 -1.8 C 94 % -2.64 C
414 23-01-2019 10:25:00 -1.8 C 94 % -2.64 C
415 23-01-2019 10:30:00 -1.7 C 94 % -2.54 C
416 23-01-2019 10:35:00 -1.7 C 94 % -2.54 C
417 23-01-2019 10:40:00 -1.7 C 94 % -2.54 C
418 23-01-2019 10:45:00 -1.7 C 94 % -2.54 C
419 23-01-2019 10:50:00 -1.6 C 94 % -2.44 C
420 23-01-2019 10:55:00 -1.5 C 94 % -2.34 C
421 23-01-2019 11:00:00 -1.4 C 94 % -2.24 C
422 23-01-2019 11:05:00 -1.4 C 93 % -2.38 C
423 23-01-2019 11:10:00 -1.4 C 93 % -2.38 C
424 23-01-2019 11:15:00 -1.3 C 93 % -2.28 C
425 23-01-2019 11:20:00 -1.3 C 92 % -2.43 C
Sensor: Nr:Datum:Temp:Feuchte:Taupunkt:
Aussen-T/F 426 23-01-2019 11:25:00 -1.3 C 92 % -2.43 C
427 23-01-2019 11:30:00 -1.3 C 92 % -2.43 C
428 23-01-2019 11:35:00 -1.2 C 92 % -2.33 C
429 23-01-2019 11:40:00 -1.2 C 92 % -2.33 C
430 23-01-2019 11:45:00 -1.1 C 91 % -2.38 C
431 23-01-2019 11:50:00 -1.1 C 91 % -2.38 C
432 23-01-2019 11:55:00 -1 C 90 % -2.43 C
433 23-01-2019 12:00:00 -0.9 C 90 % -2.33 C
434 23-01-2019 12:05:00 -0.8 C 90 % -2.23 C
435 23-01-2019 12:10:00 -0.8 C 89 % -2.38 C
436 23-01-2019 12:15:00 -0.8 C 88 % -2.53 C
437 23-01-2019 12:20:00 -0.8 C 88 % -2.53 C
438 23-01-2019 12:25:00 -0.8 C 87 % -2.69 C
439 23-01-2019 12:30:00 -0.7 C 87 % -2.59 C
440 23-01-2019 12:35:00 -0.7 C 87 % -2.59 C
441 23-01-2019 12:40:00 -0.7 C 87 % -2.59 C
442 23-01-2019 12:45:00 -0.7 C 85 % -2.9 C
443 23-01-2019 12:50:00 -0.7 C 85 % -2.9 C
444 23-01-2019 12:55:00 -0.7 C 86 % -2.74 C
445 23-01-2019 13:00:00 -0.7 C 86 % -2.74 C
446 23-01-2019 13:05:00 -0.7 C 86 % -2.74 C
447 23-01-2019 13:10:00 -0.7 C 86 % -2.74 C
448 23-01-2019 13:15:00 -0.7 C 86 % -2.74 C
449 23-01-2019 13:20:00 -0.7 C 85 % -2.9 C
450 23-01-2019 13:25:00 -0.7 C 85 % -2.9 C
Sensor: Nr:Datum:Temp:Feuchte:Taupunkt:
Aussen-T/F 451 23-01-2019 13:30:00 -0.7 C 84 % -3.06 C
452 23-01-2019 13:35:00 -0.7 C 85 % -2.9 C
453 23-01-2019 13:40:00 -0.7 C 84 % -3.06 C
454 23-01-2019 13:45:00 -0.7 C 84 % -3.06 C
455 23-01-2019 13:50:00 -0.7 C 85 % -2.9 C
456 23-01-2019 13:55:00 -0.7 C 84 % -3.06 C
457 23-01-2019 14:00:00 -0.7 C 84 % -3.06 C
458 23-01-2019 14:05:00 -0.6 C 84 % -2.96 C
459 23-01-2019 14:10:00 -0.7 C 84 % -3.06 C
460 23-01-2019 14:15:00 -0.7 C 83 % -3.22 C
461 23-01-2019 14:20:00 -0.7 C 84 % -3.06 C
462 23-01-2019 14:25:00 -0.7 C 84 % -3.06 C
463 23-01-2019 14:30:00 -0.7 C 84 % -3.06 C
464 23-01-2019 14:35:00 -0.7 C 83 % -3.22 C
465 23-01-2019 14:40:00 -0.7 C 83 % -3.22 C
466 23-01-2019 14:45:00 -0.8 C 83 % -3.32 C
467 23-01-2019 14:50:00 -0.8 C 83 % -3.32 C
468 23-01-2019 14:55:00 -0.8 C 84 % -3.16 C
469 23-01-2019 15:00:00 -0.8 C 83 % -3.32 C
470 23-01-2019 15:05:00 -0.8 C 84 % -3.16 C
471 23-01-2019 15:10:00 -0.8 C 83 % -3.32 C
472 23-01-2019 15:15:00 -0.8 C 84 % -3.16 C
473 23-01-2019 15:20:00 -0.8 C 83 % -3.32 C
474 23-01-2019 15:25:00 -0.8 C 82 % -3.48 C
475 23-01-2019 15:30:00 -0.8 C 83 % -3.32 C
Sensor: Nr:Datum:Temp:Feuchte:Taupunkt:
Aussen-T/F 476 23-01-2019 15:35:00 -0.8 C 83 % -3.32 C
477 23-01-2019 15:40:00 -0.8 C 83 % -3.32 C
478 23-01-2019 15:45:00 -0.8 C 83 % -3.32 C
479 23-01-2019 15:50:00 -0.8 C 82 % -3.48 C
480 23-01-2019 15:55:00 -0.8 C 83 % -3.32 C
481 23-01-2019 16:00:00 -0.8 C 83 % -3.32 C
482 23-01-2019 16:05:00 -0.8 C 83 % -3.32 C
483 23-01-2019 16:10:00 -0.8 C 83 % -3.32 C
484 23-01-2019 16:15:00 -0.8 C 84 % -3.16 C
485 23-01-2019 16:20:00 -0.8 C 84 % -3.16 C
486 23-01-2019 16:25:00 -0.8 C 84 % -3.16 C
487 23-01-2019 16:30:00 -0.8 C 84 % -3.16 C
488 23-01-2019 16:35:00 -0.8 C 84 % -3.16 C
489 23-01-2019 16:40:00 -0.9 C 84 % -3.26 C
490 23-01-2019 16:45:00 -0.9 C 83 % -3.42 C
491 23-01-2019 16:50:00 -0.9 C 84 % -3.26 C
492 23-01-2019 16:55:00 -0.9 C 84 % -3.26 C
493 23-01-2019 17:00:00 -0.9 C 85 % -3.1 C
494 23-01-2019 17:05:00 -1 C 85 % -3.2 C
495 23-01-2019 17:10:00 -1.1 C 85 % -3.29 C
496 23-01-2019 17:15:00 -1.1 C 85 % -3.29 C
497 23-01-2019 17:20:00 -1.1 C 86 % -3.14 C
498 23-01-2019 17:25:00 -1.1 C 86 % -3.14 C
499 23-01-2019 17:30:00 -1.2 C 85 % -3.39 C
500 23-01-2019 17:35:00 -1.2 C 85 % -3.39 C
Sensor: Nr:Datum:Temp:Feuchte:Taupunkt:
Aussen-T/F 501 23-01-2019 17:40:00 -1.2 C 85 % -3.39 C
502 23-01-2019 17:45:00 -1.2 C 85 % -3.39 C
503 23-01-2019 17:50:00 -1.2 C 86 % -3.24 C
504 23-01-2019 17:55:00 -1.3 C 86 % -3.33 C
505 23-01-2019 18:00:00 -1.3 C 87 % -3.18 C
506 23-01-2019 18:05:00 -1.3 C 87 % -3.18 C
507 23-01-2019 18:10:00 -1.3 C 87 % -3.18 C
508 23-01-2019 18:15:00 -1.3 C 87 % -3.18 C
509 23-01-2019 18:20:00 -1.3 C 87 % -3.18 C
510 23-01-2019 18:25:00 -1.4 C 86 % -3.43 C
511 23-01-2019 18:30:00 -1.4 C 87 % -3.28 C
512 23-01-2019 18:35:00 -1.4 C 87 % -3.28 C
513 23-01-2019 18:40:00 -1.4 C 87 % -3.28 C
514 23-01-2019 18:45:00 -1.4 C 87 % -3.28 C
515 23-01-2019 18:50:00 -1.5 C 87 % -3.38 C
516 23-01-2019 18:55:00 -1.5 C 87 % -3.38 C
517 23-01-2019 19:00:00 -1.5 C 87 % -3.38 C
518 23-01-2019 19:05:00 -1.5 C 87 % -3.38 C
519 23-01-2019 19:10:00 -1.6 C 87 % -3.48 C
520 23-01-2019 19:15:00 -1.6 C 86 % -3.63 C
521 23-01-2019 19:20:00 -1.5 C 85 % -3.69 C
522 23-01-2019 19:25:00 -1.4 C 85 % -3.59 C
523 23-01-2019 19:30:00 -1.4 C 86 % -3.43 C
524 23-01-2019 19:35:00 -1.4 C 86 % -3.43 C
525 23-01-2019 19:40:00 -1.4 C 86 % -3.43 C
Sensor: Nr:Datum:Temp:Feuchte:Taupunkt:
Aussen-T/F 526 23-01-2019 19:45:00 -1.5 C 86 % -3.53 C
527 23-01-2019 19:50:00 -1.5 C 87 % -3.38 C
528 23-01-2019 19:55:00 -1.6 C 87 % -3.48 C
529 23-01-2019 20:00:00 -1.6 C 87 % -3.48 C
530 23-01-2019 20:05:00 -1.6 C 87 % -3.48 C
531 23-01-2019 20:10:00 -1.6 C 87 % -3.48 C
532 23-01-2019 20:15:00 -1.6 C 88 % -3.32 C
533 23-01-2019 20:20:00 -1.7 C 88 % -3.42 C
534 23-01-2019 20:25:00 -1.7 C 88 % -3.42 C
535 23-01-2019 20:30:00 -1.7 C 88 % -3.42 C
536 23-01-2019 20:35:00 -1.7 C 88 % -3.42 C
537 23-01-2019 20:40:00 -1.8 C 88 % -3.52 C
538 23-01-2019 20:45:00 -1.8 C 88 % -3.52 C
539 23-01-2019 20:50:00 -1.8 C 89 % -3.37 C
540 23-01-2019 20:55:00 -1.8 C 88 % -3.52 C
541 23-01-2019 21:00:00 -1.8 C 88 % -3.52 C
542 23-01-2019 21:05:00 -1.8 C 88 % -3.52 C
543 23-01-2019 21:10:00 -1.8 C 88 % -3.52 C
544 23-01-2019 21:15:00 -1.8 C 88 % -3.52 C
545 23-01-2019 21:20:00 -1.8 C 88 % -3.52 C
546 23-01-2019 21:25:00 -1.8 C 88 % -3.52 C
547 23-01-2019 21:30:00 -1.8 C 88 % -3.52 C
548 23-01-2019 21:35:00 -1.8 C 88 % -3.52 C
549 23-01-2019 21:40:00 -1.8 C 89 % -3.37 C
550 23-01-2019 21:45:00 -1.8 C 89 % -3.37 C
Sensor: Nr:Datum:Temp:Feuchte:Taupunkt:
Aussen-T/F 551 23-01-2019 21:50:00 -1.9 C 89 % -3.47 C
552 23-01-2019 21:55:00 -1.9 C 89 % -3.47 C
553 23-01-2019 22:00:00 -1.9 C 88 % -3.62 C
554 23-01-2019 22:05:00 -1.9 C 88 % -3.62 C
555 23-01-2019 22:10:00 -1.9 C 88 % -3.62 C
556 23-01-2019 22:15:00 -1.9 C 88 % -3.62 C
557 23-01-2019 22:20:00 -1.9 C 88 % -3.62 C
558 23-01-2019 22:25:00 -1.8 C 89 % -3.37 C
559 23-01-2019 22:30:00 -1.8 C 88 % -3.52 C
560 23-01-2019 22:35:00 -1.8 C 89 % -3.37 C
561 23-01-2019 22:40:00 -1.9 C 89 % -3.47 C
562 23-01-2019 22:45:00 -1.9 C 89 % -3.47 C
563 23-01-2019 22:50:00 -1.9 C 89 % -3.47 C
564 23-01-2019 22:55:00 -1.9 C 89 % -3.47 C
565 23-01-2019 23:00:00 -1.9 C 89 % -3.47 C
566 23-01-2019 23:05:00 -1.9 C 89 % -3.47 C
567 23-01-2019 23:10:00 -1.8 C 89 % -3.37 C
568 23-01-2019 23:15:00 -1.9 C 89 % -3.47 C
569 23-01-2019 23:20:00 -1.9 C 89 % -3.47 C
570 23-01-2019 23:25:00 -1.9 C 89 % -3.47 C
571 23-01-2019 23:30:00 -1.9 C 89 % -3.47 C
572 23-01-2019 23:35:00 -1.8 C 89 % -3.37 C
573 23-01-2019 23:40:00 -1.9 C 89 % -3.47 C
574 23-01-2019 23:45:00 -1.9 C 89 % -3.47 C
575 23-01-2019 23:50:00 -1.9 C 89 % -3.47 C
Sensor: Nr:Datum:Temp:Feuchte:Taupunkt:
Aussen-T/F 576 23-01-2019 23:55:00 -1.9 C 89 % -3.47 C
577 24-01-2019 00:00:00 -1.9 C 89 % -3.47 C
578 24-01-2019 00:05:00 -1.9 C 89 % -3.47 C
579 24-01-2019 00:10:00 -1.9 C 89 % -3.47 C
580 24-01-2019 00:15:00 -1.8 C 89 % -3.37 C
581 24-01-2019 00:20:00 -1.9 C 88 % -3.62 C
582 24-01-2019 00:25:00 -1.8 C 88 % -3.52 C
583 24-01-2019 00:30:00 -1.8 C 88 % -3.52 C
584 24-01-2019 00:35:00 -1.8 C 88 % -3.52 C
585 24-01-2019 00:40:00 -1.8 C 88 % -3.52 C
586 24-01-2019 00:45:00 -1.8 C 87 % -3.67 C
587 24-01-2019 00:50:00 -1.8 C 87 % -3.67 C
588 24-01-2019 00:55:00 -1.8 C 86 % -3.83 C
589 24-01-2019 01:00:00 -1.7 C 86 % -3.73 C
590 24-01-2019 01:05:00 -1.7 C 85 % -3.88 C
591 24-01-2019 01:10:00 -1.7 C 85 % -3.88 C
592 24-01-2019 01:15:00 -1.7 C 84 % -4.04 C
593 24-01-2019 01:20:00 -1.7 C 83 % -4.2 C
594 24-01-2019 01:25:00 -1.6 C 83 % -4.1 C
595 24-01-2019 01:30:00 -1.6 C 83 % -4.1 C
596 24-01-2019 01:35:00 -1.6 C 83 % -4.1 C
597 24-01-2019 01:40:00 -1.6 C 82 % -4.26 C
598 24-01-2019 01:45:00 -1.6 C 82 % -4.26 C
599 24-01-2019 01:50:00 -1.6 C 82 % -4.26 C
600 24-01-2019 01:55:00 -1.6 C 82 % -4.26 C
Sensor: Nr:Datum:Temp:Feuchte:Taupunkt:
Aussen-T/F 601 24-01-2019 02:00:00 -1.6 C 82 % -4.26 C
602 24-01-2019 02:05:00 -1.6 C 82 % -4.26 C
603 24-01-2019 02:10:00 -1.6 C 82 % -4.26 C
604 24-01-2019 02:15:00 -1.6 C 83 % -4.1 C
605 24-01-2019 02:20:00 -1.6 C 83 % -4.1 C
606 24-01-2019 02:25:00 -1.7 C 82 % -4.36 C
607 24-01-2019 02:30:00 -1.7 C 82 % -4.36 C
608 24-01-2019 02:35:00 -1.7 C 82 % -4.36 C
609 24-01-2019 02:40:00 -1.7 C 82 % -4.36 C
610 24-01-2019 02:45:00 -1.7 C 82 % -4.36 C
611 24-01-2019 02:50:00 -1.7 C 82 % -4.36 C
612 24-01-2019 02:55:00 -1.7 C 82 % -4.36 C
613 24-01-2019 03:00:00 -1.7 C 83 % -4.2 C
614 24-01-2019 03:05:00 -1.7 C 82 % -4.36 C
615 24-01-2019 03:10:00 -1.7 C 82 % -4.36 C
616 24-01-2019 03:15:00 -1.7 C 83 % -4.2 C
617 24-01-2019 03:20:00 -1.7 C 83 % -4.2 C
618 24-01-2019 03:25:00 -1.7 C 82 % -4.36 C
619 24-01-2019 03:30:00 -1.7 C 82 % -4.36 C
620 24-01-2019 03:35:00 -1.7 C 83 % -4.2 C
621 24-01-2019 03:40:00 -1.7 C 83 % -4.2 C
622 24-01-2019 03:45:00 -1.8 C 83 % -4.3 C
623 24-01-2019 03:50:00 -1.8 C 83 % -4.3 C
624 24-01-2019 03:55:00 -1.8 C 83 % -4.3 C
625 24-01-2019 04:00:00 -1.8 C 83 % -4.3 C
Sensor: Nr:Datum:Temp:Feuchte:Taupunkt:
Aussen-T/F 626 24-01-2019 04:05:00 -1.8 C 82 % -4.46 C
627 24-01-2019 04:10:00 -1.8 C 83 % -4.3 C
628 24-01-2019 04:15:00 -1.8 C 83 % -4.3 C
629 24-01-2019 04:20:00 -1.8 C 83 % -4.3 C
630 24-01-2019 04:25:00 -1.8 C 83 % -4.3 C
631 24-01-2019 04:30:00 -1.8 C 83 % -4.3 C
632 24-01-2019 04:35:00 -1.8 C 82 % -4.46 C
633 24-01-2019 04:40:00 -1.9 C 83 % -4.4 C
634 24-01-2019 04:45:00 -1.9 C 83 % -4.4 C
635 24-01-2019 04:50:00 -1.9 C 83 % -4.4 C
636 24-01-2019 04:55:00 -1.9 C 83 % -4.4 C
637 24-01-2019 05:00:00 -1.9 C 83 % -4.4 C
638 24-01-2019 05:05:00 -1.9 C 83 % -4.4 C
639 24-01-2019 05:10:00 -1.9 C 83 % -4.4 C
640 24-01-2019 05:15:00 -1.9 C 83 % -4.4 C
641 24-01-2019 05:20:00 -1.9 C 83 % -4.4 C
642 24-01-2019 05:25:00 -1.9 C 83 % -4.4 C
643 24-01-2019 05:30:00 -1.9 C 82 % -4.56 C
644 24-01-2019 05:35:00 -1.9 C 83 % -4.4 C
645 24-01-2019 05:40:00 -1.9 C 82 % -4.56 C
646 24-01-2019 05:45:00 -1.9 C 83 % -4.4 C
647 24-01-2019 05:50:00 -1.9 C 82 % -4.56 C
648 24-01-2019 05:55:00 -1.9 C 82 % -4.56 C
649 24-01-2019 06:00:00 -1.9 C 83 % -4.4 C
650 24-01-2019 06:05:00 -1.9 C 83 % -4.4 C
Sensor: Nr:Datum:Temp:Feuchte:Taupunkt:
Aussen-T/F 651 24-01-2019 06:10:00 -2 C 83 % -4.49 C
652 24-01-2019 06:15:00 -2 C 84 % -4.34 C
653 24-01-2019 06:20:00 -2 C 84 % -4.34 C
654 24-01-2019 06:25:00 -2 C 84 % -4.34 C
655 24-01-2019 06:30:00 -2 C 83 % -4.49 C
656 24-01-2019 06:35:00 -2.1 C 83 % -4.59 C
657 24-01-2019 06:40:00 -2.1 C 83 % -4.59 C
658 24-01-2019 06:45:00 -2 C 83 % -4.49 C
659 24-01-2019 06:50:00 -2.1 C 83 % -4.59 C
660 24-01-2019 06:55:00 -2.1 C 83 % -4.59 C
661 24-01-2019 07:00:00 -2.1 C 83 % -4.59 C
662 24-01-2019 07:05:00 -2.1 C 83 % -4.59 C
663 24-01-2019 07:10:00 -2.1 C 83 % -4.59 C
664 24-01-2019 07:15:00 -2.1 C 83 % -4.59 C
665 24-01-2019 07:20:00 -2.1 C 83 % -4.59 C
666 24-01-2019 07:25:00 -2.1 C 83 % -4.59 C
667 24-01-2019 07:30:00 -2.1 C 84 % -4.43 C
668 24-01-2019 07:35:00 -2.1 C 83 % -4.59 C
669 24-01-2019 07:40:00 -2.1 C 83 % -4.59 C
670 24-01-2019 07:45:00 -2.1 C 84 % -4.43 C
671 24-01-2019 07:50:00 -2.1 C 83 % -4.59 C
672 24-01-2019 07:55:00 -2.1 C 84 % -4.43 C
673 24-01-2019 08:00:00 -2.1 C 83 % -4.59 C
674 24-01-2019 08:05:00 -2.1 C 84 % -4.43 C
675 24-01-2019 08:10:00 -2.1 C 84 % -4.43 C
Sensor: Nr:Datum:Temp:Feuchte:Taupunkt:
Aussen-T/F 676 24-01-2019 08:15:00 -2.1 C 84 % -4.43 C
677 24-01-2019 08:20:00 -2.2 C 83 % -4.69 C
678 24-01-2019 08:25:00 -2.2 C 84 % -4.53 C
679 24-01-2019 08:30:00 -2.2 C 83 % -4.69 C
680 24-01-2019 08:35:00 -2.2 C 83 % -4.69 C
681 24-01-2019 08:40:00 -2.2 C 84 % -4.53 C
682 24-01-2019 08:45:00 -2.2 C 84 % -4.53 C
683 24-01-2019 08:50:00 -2.2 C 84 % -4.53 C
684 24-01-2019 08:55:00 -2.2 C 84 % -4.53 C
685 24-01-2019 09:00:00 -2.2 C 84 % -4.53 C
686 24-01-2019 09:05:00 -2.2 C 84 % -4.53 C
687 24-01-2019 09:10:00 -2.2 C 83 % -4.69 C
688 24-01-2019 09:15:00 -2.2 C 84 % -4.53 C
689 24-01-2019 09:20:00 -2.2 C 83 % -4.69 C
690 24-01-2019 09:25:00 -2.2 C 83 % -4.69 C
691 24-01-2019 09:30:00 -2.2 C 83 % -4.69 C
692 24-01-2019 09:35:00 -2.1 C 83 % -4.59 C
693 24-01-2019 09:40:00 -2.1 C 83 % -4.59 C
694 24-01-2019 09:45:00 -2.1 C 84 % -4.43 C
695 24-01-2019 09:50:00 -2 C 83 % -4.49 C
696 24-01-2019 09:55:00 -2 C 83 % -4.49 C
697 24-01-2019 10:00:00 -2 C 83 % -4.49 C
698 24-01-2019 10:05:00 -1.9 C 83 % -4.4 C
699 24-01-2019 10:10:00 -1.9 C 83 % -4.4 C
700 24-01-2019 10:15:00 -1.9 C 83 % -4.4 C
Sensor: Nr:Datum:Temp:Feuchte:Taupunkt:
Aussen-T/F 701 24-01-2019 10:20:00 -1.9 C 83 % -4.4 C
702 24-01-2019 10:25:00 -1.9 C 83 % -4.4 C
703 24-01-2019 10:30:00 -1.9 C 83 % -4.4 C
704 24-01-2019 10:35:00 -1.9 C 84 % -4.24 C
705 24-01-2019 10:40:00 -1.9 C 84 % -4.24 C
706 24-01-2019 10:45:00 -1.9 C 85 % -4.08 C
707 24-01-2019 10:50:00 -1.9 C 85 % -4.08 C
708 24-01-2019 10:55:00 -1.9 C 85 % -4.08 C
709 24-01-2019 11:00:00 -1.9 C 86 % -3.92 C
710 24-01-2019 11:05:00 -1.9 C 87 % -3.77 C
711 24-01-2019 11:10:00 -1.9 C 87 % -3.77 C
712 24-01-2019 11:15:00 -2 C 88 % -3.72 C
713 24-01-2019 11:20:00 -2.1 C 88 % -3.82 C
714 24-01-2019 11:25:00 -2.1 C 89 % -3.66 C
715 24-01-2019 11:30:00 -2.1 C 89 % -3.66 C
716 24-01-2019 11:35:00 -2.1 C 89 % -3.66 C
717 24-01-2019 11:40:00 -2.1 C 89 % -3.66 C
718 24-01-2019 11:45:00 -2.2 C 89 % -3.76 C
719 24-01-2019 11:50:00 -2.2 C 90 % -3.61 C
720 24-01-2019 11:55:00 -2.1 C 90 % -3.52 C
721 24-01-2019 12:00:00 -2.1 C 90 % -3.52 C
722 24-01-2019 12:05:00 -2.1 C 90 % -3.52 C
723 24-01-2019 12:10:00 -2.1 C 89 % -3.66 C
724 24-01-2019 12:15:00 -2.1 C 89 % -3.66 C
725 24-01-2019 12:20:00 -2 C 89 % -3.57 C
Sensor: Nr:Datum:Temp:Feuchte:Taupunkt:
Aussen-T/F 726 24-01-2019 12:25:00 -1.9 C 89 % -3.47 C
727 24-01-2019 12:30:00 -1.8 C 88 % -3.52 C
728 24-01-2019 12:35:00 -1.8 C 88 % -3.52 C
729 24-01-2019 12:40:00 -1.7 C 88 % -3.42 C
730 24-01-2019 12:45:00 -1.6 C 88 % -3.32 C
731 24-01-2019 12:50:00 -1.6 C 88 % -3.32 C
732 24-01-2019 12:55:00 -1.6 C 87 % -3.48 C
733 24-01-2019 13:00:00 -1.6 C 87 % -3.48 C
734 24-01-2019 13:05:00 -1.5 C 88 % -3.22 C
735 24-01-2019 13:10:00 -1.4 C 87 % -3.28 C
736 24-01-2019 13:15:00 -1.4 C 86 % -3.43 C
737 24-01-2019 13:20:00 -1.4 C 86 % -3.43 C
738 24-01-2019 13:25:00 -1.3 C 85 % -3.49 C
739 24-01-2019 13:30:00 -1.3 C 85 % -3.49 C
740 24-01-2019 13:35:00 -1.3 C 84 % -3.65 C
741 24-01-2019 13:40:00 -1.3 C 84 % -3.65 C
742 24-01-2019 13:45:00 -1.2 C 84 % -3.55 C
743 24-01-2019 13:50:00 -1.2 C 84 % -3.55 C
744 24-01-2019 13:55:00 -1.2 C 83 % -3.71 C
745 24-01-2019 14:00:00 -1.2 C 83 % -3.71 C
746 24-01-2019 14:05:00 -1.2 C 83 % -3.71 C
747 24-01-2019 14:10:00 -1.1 C 83 % -3.61 C
748 24-01-2019 14:15:00 -1.2 C 82 % -3.87 C
749 24-01-2019 14:20:00 -1.2 C 82 % -3.87 C
750 24-01-2019 14:25:00 -1.3 C 83 % -3.81 C
Sensor: Nr:Datum:Temp:Feuchte:Taupunkt:
Aussen-T/F 751 24-01-2019 14:30:00 -1.3 C 82 % -3.97 C
752 24-01-2019 14:35:00 -1.3 C 83 % -3.81 C
753 24-01-2019 14:40:00 -1.2 C 83 % -3.71 C
754 24-01-2019 14:45:00 -1.2 C 82 % -3.87 C
755 24-01-2019 14:50:00 -1.2 C 81 % -4.04 C
756 24-01-2019 14:55:00 -1.2 C 81 % -4.04 C
757 24-01-2019 15:00:00 -1.2 C 81 % -4.04 C
758 24-01-2019 15:05:00 -1.3 C 80 % -4.3 C
759 24-01-2019 15:10:00 -1.3 C 80 % -4.3 C
760 24-01-2019 15:15:00 -1.4 C 79 % -4.56 C
761 24-01-2019 15:20:00 -1.4 C 80 % -4.4 C
762 24-01-2019 15:25:00 -1.4 C 80 % -4.4 C
763 24-01-2019 15:30:00 -1.4 C 80 % -4.4 C
764 24-01-2019 15:35:00 -1.3 C 80 % -4.3 C
765 24-01-2019 15:40:00 -1.3 C 80 % -4.3 C
766 24-01-2019 15:45:00 -1.3 C 80 % -4.3 C
767 24-01-2019 15:50:00 -1.3 C 80 % -4.3 C
768 24-01-2019 15:55:00 -1.3 C 79 % -4.46 C
769 24-01-2019 16:00:00 -1.3 C 79 % -4.46 C
770 24-01-2019 16:05:00 -1.4 C 79 % -4.56 C
771 24-01-2019 16:10:00 -1.4 C 80 % -4.4 C
772 24-01-2019 16:15:00 -1.4 C 80 % -4.4 C
773 24-01-2019 16:20:00 -1.4 C 80 % -4.4 C
774 24-01-2019 16:25:00 -1.4 C 80 % -4.4 C
775 24-01-2019 16:30:00 -1.4 C 81 % -4.23 C
Sensor: Nr:Datum:Temp:Feuchte:Taupunkt:
Aussen-T/F 776 24-01-2019 16:35:00 -1.5 C 81 % -4.33 C
777 24-01-2019 16:40:00 -1.6 C 81 % -4.43 C
778 24-01-2019 16:45:00 -1.6 C 81 % -4.43 C
779 24-01-2019 16:50:00 -1.6 C 82 % -4.26 C
780 24-01-2019 16:55:00 -1.7 C 82 % -4.36 C
781 24-01-2019 17:00:00 -1.7 C 83 % -4.2 C
782 24-01-2019 17:05:00 -1.7 C 83 % -4.2 C
783 24-01-2019 17:10:00 -1.7 C 83 % -4.2 C
784 24-01-2019 17:15:00 -1.7 C 82 % -4.36 C
785 24-01-2019 17:20:00 -1.7 C 83 % -4.2 C
786 24-01-2019 17:25:00 -1.8 C 81 % -4.62 C
787 24-01-2019 17:30:00 -1.8 C 81 % -4.62 C
788 24-01-2019 17:35:00 -1.8 C 81 % -4.62 C
789 24-01-2019 17:40:00 -1.8 C 80 % -4.79 C
790 24-01-2019 17:45:00 -1.8 C 80 % -4.79 C
791 24-01-2019 17:50:00 -1.8 C 80 % -4.79 C
792 24-01-2019 17:55:00 -1.8 C 80 % -4.79 C
793 24-01-2019 18:00:00 -1.9 C 80 % -4.88 C
794 24-01-2019 18:05:00 -1.9 C 81 % -4.72 C
795 24-01-2019 18:10:00 -1.9 C 80 % -4.88 C
796 24-01-2019 18:15:00 -1.9 C 82 % -4.56 C
797 24-01-2019 18:20:00 -1.9 C 81 % -4.72 C
798 24-01-2019 18:25:00 -1.9 C 82 % -4.56 C
799 24-01-2019 18:30:00 -1.9 C 82 % -4.56 C
800 24-01-2019 18:35:00 -2 C 81 % -4.82 C
Sensor: Nr:Datum:Temp:Feuchte:Taupunkt:
Aussen-T/F 801 24-01-2019 18:40:00 -2 C 80 % -4.98 C
802 24-01-2019 18:45:00 -1.9 C 81 % -4.72 C
803 24-01-2019 18:50:00 -1.9 C 81 % -4.72 C
804 24-01-2019 18:55:00 -1.9 C 82 % -4.56 C
805 24-01-2019 19:00:00 -2 C 81 % -4.82 C
806 24-01-2019 19:05:00 -2 C 81 % -4.82 C
807 24-01-2019 19:10:00 -2 C 81 % -4.82 C
808 24-01-2019 19:15:00 -2 C 82 % -4.65 C
809 24-01-2019 19:20:00 -2 C 83 % -4.49 C
810 24-01-2019 19:25:00 -2.1 C 83 % -4.59 C
811 24-01-2019 19:30:00 -2.1 C 83 % -4.59 C
812 24-01-2019 19:35:00 -2.1 C 83 % -4.59 C
813 24-01-2019 19:40:00 -2.1 C 84 % -4.43 C
814 24-01-2019 19:45:00 -2.2 C 84 % -4.53 C
815 24-01-2019 19:50:00 -2.2 C 84 % -4.53 C
816 24-01-2019 19:55:00 -2.2 C 84 % -4.53 C
817 24-01-2019 20:00:00 -2.3 C 84 % -4.63 C
818 24-01-2019 20:05:00 -2.3 C 84 % -4.63 C
819 24-01-2019 20:10:00 -2.3 C 84 % -4.63 C
820 24-01-2019 20:15:00 -2.3 C 85 % -4.47 C
821 24-01-2019 20:20:00 -2.3 C 85 % -4.47 C
822 24-01-2019 20:25:00 -2.4 C 84 % -4.73 C
823 24-01-2019 20:30:00 -2.5 C 84 % -4.83 C
824 24-01-2019 20:35:00 -2.6 C 84 % -4.92 C
825 24-01-2019 20:40:00 -2.7 C 84 % -5.02 C
Sensor: Nr:Datum:Temp:Feuchte:Taupunkt:
Aussen-T/F 826 24-01-2019 20:45:00 -2.7 C 85 % -4.87 C
827 24-01-2019 20:50:00 -2.7 C 85 % -4.87 C
828 24-01-2019 20:55:00 -2.7 C 85 % -4.87 C
829 24-01-2019 21:00:00 -2.7 C 86 % -4.71 C
830 24-01-2019 21:05:00 -2.7 C 86 % -4.71 C
831 24-01-2019 21:10:00 -2.7 C 86 % -4.71 C
832 24-01-2019 21:15:00 -2.7 C 86 % -4.71 C
833 24-01-2019 21:20:00 -2.6 C 87 % -4.46 C
834 24-01-2019 21:25:00 -2.6 C 87 % -4.46 C
835 24-01-2019 21:30:00 -2.6 C 86 % -4.61 C
836 24-01-2019 21:35:00 -2.6 C 86 % -4.61 C
837 24-01-2019 21:40:00 -2.6 C 86 % -4.61 C
838 24-01-2019 21:45:00 -2.6 C 86 % -4.61 C
839 24-01-2019 21:50:00 -2.6 C 86 % -4.61 C
840 24-01-2019 21:55:00 -2.6 C 87 % -4.46 C
841 24-01-2019 22:00:00 -2.6 C 86 % -4.61 C
842 24-01-2019 22:05:00 -2.6 C 86 % -4.61 C
843 24-01-2019 22:10:00 -2.6 C 86 % -4.61 C
844 24-01-2019 22:15:00 -2.6 C 86 % -4.61 C
845 24-01-2019 22:20:00 -2.6 C 86 % -4.61 C
846 24-01-2019 22:25:00 -2.6 C 86 % -4.61 C
847 24-01-2019 22:30:00 -2.5 C 86 % -4.51 C
848 24-01-2019 22:35:00 -2.5 C 87 % -4.36 C
849 24-01-2019 22:40:00 -2.5 C 87 % -4.36 C
850 24-01-2019 22:45:00 -2.5 C 87 % -4.36 C
Sensor: Nr:Datum:Temp:Feuchte:Taupunkt:
Aussen-T/F 851 24-01-2019 22:50:00 -2.4 C 87 % -4.26 C
852 24-01-2019 22:55:00 -2.4 C 87 % -4.26 C
853 24-01-2019 23:00:00 -2.4 C 87 % -4.26 C
854 24-01-2019 23:05:00 -2.4 C 87 % -4.26 C
855 24-01-2019 23:10:00 -2.4 C 87 % -4.26 C
856 24-01-2019 23:15:00 -2.4 C 87 % -4.26 C
857 24-01-2019 23:20:00 -2.4 C 87 % -4.26 C
858 24-01-2019 23:25:00 -2.4 C 87 % -4.26 C
859 24-01-2019 23:30:00 -2.4 C 87 % -4.26 C
860 24-01-2019 23:35:00 -2.4 C 87 % -4.26 C
861 24-01-2019 23:40:00 -2.4 C 88 % -4.11 C
862 24-01-2019 23:45:00 -2.4 C 87 % -4.26 C
863 24-01-2019 23:50:00 -2.4 C 87 % -4.26 C
864 24-01-2019 23:55:00 -2.4 C 87 % -4.26 C
865 25-01-2019 00:00:00 -2.4 C 87 % -4.26 C
866 25-01-2019 00:05:00 -2.4 C 87 % -4.26 C
867 25-01-2019 00:10:00 -2.4 C 87 % -4.26 C
868 25-01-2019 00:15:00 -2.4 C 87 % -4.26 C
869 25-01-2019 00:20:00 -2.4 C 87 % -4.26 C
870 25-01-2019 00:25:00 -2.4 C 87 % -4.26 C
871 25-01-2019 00:30:00 -2.4 C 87 % -4.26 C
872 25-01-2019 00:35:00 -2.4 C 86 % -4.42 C
873 25-01-2019 00:40:00 -2.4 C 86 % -4.42 C
874 25-01-2019 00:45:00 -2.3 C 86 % -4.32 C
875 25-01-2019 00:50:00 -2.3 C 86 % -4.32 C
Sensor: Nr:Datum:Temp:Feuchte:Taupunkt:
Aussen-T/F 876 25-01-2019 00:55:00 -2.3 C 86 % -4.32 C
877 25-01-2019 01:00:00 -2.3 C 86 % -4.32 C
878 25-01-2019 01:05:00 -2.3 C 86 % -4.32 C
879 25-01-2019 01:10:00 -2.2 C 86 % -4.22 C
880 25-01-2019 01:15:00 -2.2 C 86 % -4.22 C
881 25-01-2019 01:20:00 -2.2 C 86 % -4.22 C
882 25-01-2019 01:25:00 -2.2 C 86 % -4.22 C
883 25-01-2019 01:30:00 -2.1 C 86 % -4.12 C
884 25-01-2019 01:35:00 -2.1 C 86 % -4.12 C
885 25-01-2019 01:40:00 -2.1 C 86 % -4.12 C
886 25-01-2019 01:45:00 -2 C 86 % -4.02 C
887 25-01-2019 01:50:00 -2 C 86 % -4.02 C
888 25-01-2019 01:55:00 -1.9 C 86 % -3.92 C
889 25-01-2019 02:00:00 -1.9 C 86 % -3.92 C
890 25-01-2019 02:05:00 -1.9 C 86 % -3.92 C
891 25-01-2019 02:10:00 -1.9 C 86 % -3.92 C
892 25-01-2019 02:15:00 -1.8 C 86 % -3.83 C
893 25-01-2019 02:20:00 -1.8 C 87 % -3.67 C
894 25-01-2019 02:25:00 -1.8 C 86 % -3.83 C
895 25-01-2019 02:30:00 -1.8 C 87 % -3.67 C
896 25-01-2019 02:35:00 -1.8 C 86 % -3.83 C
897 25-01-2019 02:40:00 -1.8 C 87 % -3.67 C
898 25-01-2019 02:45:00 -1.8 C 87 % -3.67 C
899 25-01-2019 02:50:00 -1.7 C 87 % -3.57 C
900 25-01-2019 02:55:00 -1.7 C 87 % -3.57 C
Sensor: Nr:Datum:Temp:Feuchte:Taupunkt:
Aussen-T/F 901 25-01-2019 03:00:00 -1.7 C 87 % -3.57 C
902 25-01-2019 03:05:00 -1.7 C 87 % -3.57 C
903 25-01-2019 03:10:00 -1.7 C 87 % -3.57 C
904 25-01-2019 03:15:00 -1.7 C 87 % -3.57 C
905 25-01-2019 03:20:00 -1.7 C 88 % -3.42 C
906 25-01-2019 03:25:00 -1.7 C 88 % -3.42 C
907 25-01-2019 03:30:00 -1.7 C 88 % -3.42 C
908 25-01-2019 03:35:00 -1.7 C 88 % -3.42 C
909 25-01-2019 03:40:00 -1.7 C 88 % -3.42 C
910 25-01-2019 03:45:00 -1.7 C 88 % -3.42 C
911 25-01-2019 03:50:00 -1.7 C 88 % -3.42 C
912 25-01-2019 03:55:00 -1.7 C 88 % -3.42 C
913 25-01-2019 04:00:00 -1.6 C 88 % -3.32 C
914 25-01-2019 04:05:00 -1.6 C 88 % -3.32 C
915 25-01-2019 04:10:00 -1.6 C 88 % -3.32 C
916 25-01-2019 04:15:00 -1.6 C 88 % -3.32 C
917 25-01-2019 04:20:00 -1.6 C 88 % -3.32 C
918 25-01-2019 04:25:00 -1.6 C 88 % -3.32 C
919 25-01-2019 04:30:00 -1.6 C 88 % -3.32 C
920 25-01-2019 04:35:00 -1.6 C 89 % -3.17 C
921 25-01-2019 04:40:00 -1.5 C 89 % -3.07 C
922 25-01-2019 04:45:00 -1.5 C 89 % -3.07 C
923 25-01-2019 04:50:00 -1.5 C 89 % -3.07 C
924 25-01-2019 04:55:00 -1.5 C 89 % -3.07 C
925 25-01-2019 05:00:00 -1.4 C 89 % -2.97 C
Sensor: Nr:Datum:Temp:Feuchte:Taupunkt:
Aussen-T/F 926 25-01-2019 05:05:00 -1.4 C 89 % -2.97 C
927 25-01-2019 05:10:00 -1.4 C 89 % -2.97 C
928 25-01-2019 05:15:00 -1.4 C 89 % -2.97 C
929 25-01-2019 05:20:00 -1.4 C 89 % -2.97 C
930 25-01-2019 05:25:00 -1.4 C 89 % -2.97 C
931 25-01-2019 05:30:00 -1.4 C 89 % -2.97 C
932 25-01-2019 05:35:00 -1.4 C 89 % -2.97 C
933 25-01-2019 05:40:00 -1.4 C 89 % -2.97 C
934 25-01-2019 05:45:00 -1.4 C 90 % -2.82 C
935 25-01-2019 05:50:00 -1.4 C 90 % -2.82 C
936 25-01-2019 05:55:00 -1.4 C 90 % -2.82 C
937 25-01-2019 06:00:00 -1.3 C 90 % -2.73 C
938 25-01-2019 06:05:00 -1.3 C 90 % -2.73 C
939 25-01-2019 06:10:00 -1.3 C 90 % -2.73 C
940 25-01-2019 06:15:00 -1.3 C 90 % -2.73 C
941 25-01-2019 06:20:00 -1.3 C 90 % -2.73 C
942 25-01-2019 06:25:00 -1.3 C 90 % -2.73 C
943 25-01-2019 06:30:00 -1.3 C 90 % -2.73 C
944 25-01-2019 06:35:00 -1.3 C 90 % -2.73 C
945 25-01-2019 06:40:00 -1.3 C 90 % -2.73 C
946 25-01-2019 06:45:00 -1.3 C 90 % -2.73 C
947 25-01-2019 06:50:00 -1.3 C 90 % -2.73 C
948 25-01-2019 06:55:00 -1.3 C 90 % -2.73 C
949 25-01-2019 07:00:00 -1.3 C 90 % -2.73 C
950 25-01-2019 07:05:00 -1.3 C 90 % -2.73 C
Sensor: Nr:Datum:Temp:Feuchte:Taupunkt:
Aussen-T/F 951 25-01-2019 07:10:00 -1.3 C 90 % -2.73 C
952 25-01-2019 07:15:00 -1.3 C 90 % -2.73 C
953 25-01-2019 07:20:00 -1.3 C 90 % -2.73 C
954 25-01-2019 07:25:00 -1.2 C 90 % -2.63 C
955 25-01-2019 07:30:00 -1.2 C 90 % -2.63 C
956 25-01-2019 07:35:00 -1.2 C 90 % -2.63 C
957 25-01-2019 07:40:00 -1.2 C 90 % -2.63 C
958 25-01-2019 07:45:00 -1.2 C 91 % -2.48 C
959 25-01-2019 07:50:00 -1.2 C 91 % -2.48 C
960 25-01-2019 07:55:00 -1.2 C 91 % -2.48 C
961 25-01-2019 08:00:00 -1.2 C 91 % -2.48 C
962 25-01-2019 08:05:00 -1.2 C 91 % -2.48 C
963 25-01-2019 08:10:00 -1.2 C 91 % -2.48 C
964 25-01-2019 08:15:00 -1.2 C 91 % -2.48 C
965 25-01-2019 08:20:00 -1.2 C 91 % -2.48 C
966 25-01-2019 08:25:00 -1.1 C 91 % -2.38 C
967 25-01-2019 08:30:00 -1.1 C 91 % -2.38 C
968 25-01-2019 08:35:00 -1.1 C 91 % -2.38 C
969 25-01-2019 08:40:00 -1 C 91 % -2.28 C
970 25-01-2019 08:45:00 -1 C 91 % -2.28 C
971 25-01-2019 08:50:00 -1 C 91 % -2.28 C
972 25-01-2019 08:55:00 -0.9 C 91 % -2.18 C
973 25-01-2019 09:00:00 -0.9 C 91 % -2.18 C
974 25-01-2019 09:05:00 -0.9 C 91 % -2.18 C
975 25-01-2019 09:10:00 -0.9 C 91 % -2.18 C
Sensor: Nr:Datum:Temp:Feuchte:Taupunkt:
Aussen-T/F 976 25-01-2019 09:15:00 -0.8 C 91 % -2.08 C
977 25-01-2019 09:20:00 -0.8 C 91 % -2.08 C
978 25-01-2019 09:25:00 -0.8 C 91 % -2.08 C
979 25-01-2019 09:30:00 -0.8 C 91 % -2.08 C
980 25-01-2019 09:35:00 -0.7 C 91 % -1.98 C
981 25-01-2019 09:40:00 -0.7 C 91 % -1.98 C
982 25-01-2019 09:45:00 -0.6 C 91 % -1.88 C
983 25-01-2019 09:50:00 -0.6 C 91 % -1.88 C
984 25-01-2019 09:55:00 -0.5 C 91 % -1.78 C
985 25-01-2019 10:00:00 -0.5 C 91 % -1.78 C
986 25-01-2019 10:05:00 -0.4 C 91 % -1.69 C
987 25-01-2019 10:10:00 -0.4 C 91 % -1.69 C
988 25-01-2019 10:15:00 -0.3 C 91 % -1.59 C
989 25-01-2019 10:20:00 -0.3 C 91 % -1.59 C
990 25-01-2019 10:25:00 -0.2 C 91 % -1.49 C
991 25-01-2019 10:30:00 -0.2 C 91 % -1.49 C
992 25-01-2019 10:35:00 -0.1 C 91 % -1.39 C
993 25-01-2019 10:40:00 -0.1 C 91 % -1.39 C
994 25-01-2019 10:45:00 0 C 92 % -1.14 C
995 25-01-2019 10:50:00 0 C 91 % -1.29 C
996 25-01-2019 10:55:00 0.1 C 91 % -1.19 C
997 25-01-2019 11:00:00 0.1 C 91 % -1.19 C
998 25-01-2019 11:05:00 0.2 C 91 % -1.09 C
999 25-01-2019 11:10:00 0.3 C 91 % -0.99 C
1000 25-01-2019 11:15:00 0.4 C 91 % -0.89 C
Sensor: Nr:Datum:Temp:Feuchte:Taupunkt:
Aussen-T/F 1001 25-01-2019 11:20:00 0.4 C 90 % -1.04 C
1002 25-01-2019 11:25:00 0.5 C 90 % -0.95 C
1003 25-01-2019 11:30:00 0.7 C 90 % -0.75 C
1004 25-01-2019 11:35:00 0.8 C 90 % -0.65 C
1005 25-01-2019 11:40:00 0.9 C 90 % -0.55 C
1006 25-01-2019 11:45:00 1 C 89 % -0.6 C
1007 25-01-2019 11:50:00 1.1 C 89 % -0.51 C
1008 25-01-2019 11:55:00 1.2 C 88 % -0.56 C
1009 25-01-2019 12:00:00 1.2 C 88 % -0.56 C
1010 25-01-2019 12:05:00 1.2 C 88 % -0.56 C
1011 25-01-2019 12:10:00 1.3 C 88 % -0.46 C
1012 25-01-2019 12:15:00 1.4 C 88 % -0.36 C
1013 25-01-2019 12:20:00 1.5 C 87 % -0.42 C
1014 25-01-2019 12:25:00 1.6 C 87 % -0.32 C
1015 25-01-2019 12:30:00 1.7 C 86 % -0.38 C
1016 25-01-2019 12:35:00 1.7 C 86 % -0.38 C
1017 25-01-2019 12:40:00 1.8 C 86 % -0.29 C
1018 25-01-2019 12:45:00 1.9 C 86 % -0.19 C
1019 25-01-2019 12:50:00 2.1 C 85 % -0.15 C
1020 25-01-2019 12:55:00 2.2 C 84 % -0.22 C
1021 25-01-2019 13:00:00 2.3 C 84 % -0.12 C
1022 25-01-2019 13:05:00 2.3 C 83 % -0.28 C
1023 25-01-2019 13:10:00 2.4 C 82 % -0.35 C
1024 25-01-2019 13:15:00 2.5 C 81 % -0.42 C
1025 25-01-2019 13:20:00 2.6 C 81 % -0.32 C
Sensor: Nr:Datum:Temp:Feuchte:Taupunkt:
Aussen-T/F 1026 25-01-2019 13:25:00 2.6 C 80 % -0.49 C
1027 25-01-2019 13:30:00 2.6 C 81 % -0.32 C
1028 25-01-2019 13:35:00 2.6 C 80 % -0.49 C
1029 25-01-2019 13:40:00 2.4 C 81 % -0.52 C
1030 25-01-2019 13:45:00 2.4 C 81 % -0.52 C
1031 25-01-2019 13:50:00 2.4 C 81 % -0.52 C
1032 25-01-2019 13:55:00 2.4 C 80 % -0.69 C
1033 25-01-2019 14:00:00 2.3 C 80 % -0.79 C
1034 25-01-2019 14:05:00 2.3 C 81 % -0.62 C
1035 25-01-2019 14:10:00 2.3 C 81 % -0.62 C
1036 25-01-2019 14:15:00 2.3 C 81 % -0.62 C
1037 25-01-2019 14:20:00 2.3 C 81 % -0.62 C
1038 25-01-2019 14:25:00 2.2 C 81 % -0.71 C
1039 25-01-2019 14:30:00 2.2 C 81 % -0.71 C
1040 25-01-2019 14:35:00 2.2 C 81 % -0.71 C
1041 25-01-2019 14:40:00 2.2 C 81 % -0.71 C
1042 25-01-2019 14:45:00 2.2 C 82 % -0.55 C
1043 25-01-2019 14:50:00 2.2 C 81 % -0.71 C
1044 25-01-2019 14:55:00 2.2 C 81 % -0.71 C
1045 25-01-2019 15:00:00 2.2 C 82 % -0.55 C
1046 25-01-2019 15:05:00 2.2 C 82 % -0.55 C
1047 25-01-2019 15:10:00 2.2 C 82 % -0.55 C
1048 25-01-2019 15:15:00 2.1 C 82 % -0.64 C
1049 25-01-2019 15:20:00 2 C 82 % -0.74 C
1050 25-01-2019 15:25:00 1.9 C 83 % -0.67 C
Sensor: Nr:Datum:Temp:Feuchte:Taupunkt:
Aussen-T/F 1051 25-01-2019 15:30:00 1.9 C 83 % -0.67 C
1052 25-01-2019 15:35:00 1.9 C 83 % -0.67 C
1053 25-01-2019 15:40:00 1.8 C 83 % -0.77 C
1054 25-01-2019 15:45:00 1.8 C 83 % -0.77 C
1055 25-01-2019 15:50:00 1.8 C 83 % -0.77 C
1056 25-01-2019 15:55:00 1.8 C 84 % -0.61 C
1057 25-01-2019 16:00:00 1.8 C 84 % -0.61 C
1058 25-01-2019 16:05:00 1.8 C 84 % -0.61 C
1059 25-01-2019 16:10:00 1.8 C 84 % -0.61 C
1060 25-01-2019 16:15:00 1.8 C 85 % -0.45 C
1061 25-01-2019 16:20:00 1.7 C 85 % -0.54 C
1062 25-01-2019 16:25:00 1.7 C 85 % -0.54 C
1063 25-01-2019 16:30:00 1.7 C 85 % -0.54 C
1064 25-01-2019 16:35:00 1.7 C 86 % -0.38 C
1065 25-01-2019 16:40:00 1.7 C 86 % -0.38 C
1066 25-01-2019 16:45:00 1.6 C 86 % -0.48 C
1067 25-01-2019 16:50:00 1.7 C 86 % -0.38 C
1068 25-01-2019 16:55:00 1.7 C 86 % -0.38 C
1069 25-01-2019 17:00:00 1.7 C 86 % -0.38 C
1070 25-01-2019 17:05:00 1.7 C 87 % -0.23 C
1071 25-01-2019 17:10:00 1.7 C 87 % -0.23 C
1072 25-01-2019 17:15:00 1.7 C 87 % -0.23 C
1073 25-01-2019 17:20:00 1.7 C 87 % -0.23 C
1074 25-01-2019 17:25:00 1.7 C 87 % -0.23 C
1075 25-01-2019 17:30:00 1.7 C 87 % -0.23 C
Sensor: Nr:Datum:Temp:Feuchte:Taupunkt:
Aussen-T/F 1076 25-01-2019 17:35:00 1.7 C 87 % -0.23 C
1077 25-01-2019 17:40:00 1.7 C 87 % -0.23 C
1078 25-01-2019 17:45:00 1.7 C 87 % -0.23 C
1079 25-01-2019 17:50:00 1.7 C 87 % -0.23 C
1080 25-01-2019 17:55:00 1.7 C 87 % -0.23 C
1081 25-01-2019 18:00:00 1.7 C 87 % -0.23 C
1082 25-01-2019 18:05:00 1.7 C 87 % -0.23 C
1083 25-01-2019 18:10:00 1.7 C 87 % -0.23 C
1084 25-01-2019 18:15:00 1.7 C 87 % -0.23 C
1085 25-01-2019 18:20:00 1.8 C 87 % -0.13 C
1086 25-01-2019 18:25:00 1.8 C 87 % -0.13 C
1087 25-01-2019 18:30:00 1.8 C 87 % -0.13 C
1088 25-01-2019 18:35:00 1.8 C 87 % -0.13 C
1089 25-01-2019 18:40:00 1.8 C 87 % -0.13 C
1090 25-01-2019 18:45:00 1.8 C 87 % -0.13 C
1091 25-01-2019 18:50:00 1.8 C 87 % -0.13 C
1092 25-01-2019 18:55:00 1.8 C 87 % -0.13 C
1093 25-01-2019 19:00:00 1.8 C 87 % -0.13 C
1094 25-01-2019 19:05:00 1.8 C 88 % 0.03 C
1095 25-01-2019 19:10:00 1.7 C 88 % -0.07 C
1096 25-01-2019 19:15:00 1.7 C 89 % 0.09 C
1097 25-01-2019 19:20:00 1.6 C 89 % -0.01 C
1098 25-01-2019 19:25:00 1.6 C 90 % 0.14 C
1099 25-01-2019 19:30:00 1.4 C 90 % -0.06 C
1100 25-01-2019 19:35:00 1.4 C 91 % 0.1 C
Sensor: Nr:Datum:Temp:Feuchte:Taupunkt:
Aussen-T/F 1101 25-01-2019 19:40:00 1.3 C 91 % 0 C
1102 25-01-2019 19:45:00 1.3 C 91 % 0 C
1103 25-01-2019 19:50:00 1.3 C 91 % 0 C
1104 25-01-2019 19:55:00 1.3 C 92 % 0.15 C
1105 25-01-2019 20:00:00 1.4 C 92 % 0.25 C
1106 25-01-2019 20:05:00 1.4 C 92 % 0.25 C
1107 25-01-2019 20:10:00 1.4 C 91 % 0.1 C
1108 25-01-2019 20:15:00 1.4 C 91 % 0.1 C
1109 25-01-2019 20:20:00 1.5 C 91 % 0.19 C
1110 25-01-2019 20:25:00 1.6 C 91 % 0.29 C
1111 25-01-2019 20:30:00 1.6 C 91 % 0.29 C
1112 25-01-2019 20:35:00 1.6 C 91 % 0.29 C
1113 25-01-2019 20:40:00 1.6 C 91 % 0.29 C
1114 25-01-2019 20:45:00 1.5 C 91 % 0.19 C
1115 25-01-2019 20:50:00 1.5 C 91 % 0.19 C
1116 25-01-2019 20:55:00 1.5 C 91 % 0.19 C
1117 25-01-2019 21:00:00 1.6 C 91 % 0.29 C
1118 25-01-2019 21:05:00 1.6 C 91 % 0.29 C
1119 25-01-2019 21:10:00 1.6 C 91 % 0.29 C
1120 25-01-2019 21:15:00 1.6 C 91 % 0.29 C
1121 25-01-2019 21:20:00 1.7 C 91 % 0.39 C
1122 25-01-2019 21:25:00 1.7 C 91 % 0.39 C
1123 25-01-2019 21:30:00 1.7 C 91 % 0.39 C
1124 25-01-2019 21:35:00 1.7 C 91 % 0.39 C
1125 25-01-2019 21:40:00 1.7 C 91 % 0.39 C
Sensor: Nr:Datum:Temp:Feuchte:Taupunkt:
Aussen-T/F 1126 25-01-2019 21:45:00 1.7 C 91 % 0.39 C
1127 25-01-2019 21:50:00 1.7 C 91 % 0.39 C
1128 25-01-2019 21:55:00 1.7 C 91 % 0.39 C
1129 25-01-2019 22:00:00 1.7 C 91 % 0.39 C
1130 25-01-2019 22:05:00 1.7 C 91 % 0.39 C
1131 25-01-2019 22:10:00 1.8 C 91 % 0.49 C
1132 25-01-2019 22:15:00 1.8 C 91 % 0.49 C
1133 25-01-2019 22:20:00 1.8 C 91 % 0.49 C
1134 25-01-2019 22:25:00 1.8 C 91 % 0.49 C
1135 25-01-2019 22:30:00 1.8 C 92 % 0.64 C
1136 25-01-2019 22:35:00 1.8 C 92 % 0.64 C
1137 25-01-2019 22:40:00 1.8 C 92 % 0.64 C
1138 25-01-2019 22:45:00 1.8 C 92 % 0.64 C
1139 25-01-2019 22:50:00 1.8 C 92 % 0.64 C
1140 25-01-2019 22:55:00 1.8 C 93 % 0.79 C
1141 25-01-2019 23:00:00 1.8 C 93 % 0.79 C
1142 25-01-2019 23:05:00 1.8 C 93 % 0.79 C
1143 25-01-2019 23:10:00 1.8 C 93 % 0.79 C
1144 25-01-2019 23:15:00 1.8 C 93 % 0.79 C
1145 25-01-2019 23:20:00 1.8 C 93 % 0.79 C
1146 25-01-2019 23:25:00 1.8 C 93 % 0.79 C
1147 25-01-2019 23:30:00 1.8 C 93 % 0.79 C
1148 25-01-2019 23:35:00 1.8 C 94 % 0.94 C
1149 25-01-2019 23:40:00 1.8 C 94 % 0.94 C
1150 25-01-2019 23:45:00 1.8 C 94 % 0.94 C
Sensor: Nr:Datum:Temp:Feuchte:Taupunkt:
Aussen-T/F 1151 25-01-2019 23:50:00 1.8 C 94 % 0.94 C
1152 25-01-2019 23:55:00 1.8 C 94 % 0.94 C
1153 26-01-2019 00:00:00 1.8 C 94 % 0.94 C
1154 26-01-2019 00:05:00 1.8 C 94 % 0.94 C
1155 26-01-2019 00:10:00 1.8 C 94 % 0.94 C
1156 26-01-2019 00:15:00 1.8 C 94 % 0.94 C
1157 26-01-2019 00:20:00 1.8 C 94 % 0.94 C
1158 26-01-2019 00:25:00 1.8 C 94 % 0.94 C
1159 26-01-2019 00:30:00 1.9 C 94 % 1.04 C
1160 26-01-2019 00:35:00 1.9 C 94 % 1.04 C
1161 26-01-2019 00:40:00 1.9 C 94 % 1.04 C
1162 26-01-2019 00:45:00 1.9 C 95 % 1.19 C
1163 26-01-2019 00:50:00 1.9 C 95 % 1.19 C
1164 26-01-2019 00:55:00 1.9 C 95 % 1.19 C
1165 26-01-2019 01:00:00 1.9 C 95 % 1.19 C
1166 26-01-2019 01:05:00 1.9 C 95 % 1.19 C
1167 26-01-2019 01:10:00 1.9 C 95 % 1.19 C
1168 26-01-2019 01:15:00 2 C 95 % 1.29 C
1169 26-01-2019 01:20:00 2 C 95 % 1.29 C
1170 26-01-2019 01:25:00 2.1 C 95 % 1.38 C
1171 26-01-2019 01:30:00 2.1 C 95 % 1.38 C
1172 26-01-2019 01:35:00 2.1 C 95 % 1.38 C
1173 26-01-2019 01:40:00 2.1 C 94 % 1.24 C
1174 26-01-2019 01:45:00 2.1 C 94 % 1.24 C
1175 26-01-2019 01:50:00 2.1 C 94 % 1.24 C
Sensor: Nr:Datum:Temp:Feuchte:Taupunkt:
Aussen-T/F 1176 26-01-2019 01:55:00 2.2 C 94 % 1.34 C
1177 26-01-2019 02:00:00 2.2 C 94 % 1.34 C
1178 26-01-2019 02:05:00 2.2 C 94 % 1.34 C
1179 26-01-2019 02:10:00 2.3 C 94 % 1.44 C
1180 26-01-2019 02:15:00 2.3 C 94 % 1.44 C
1181 26-01-2019 02:20:00 2.3 C 94 % 1.44 C
1182 26-01-2019 02:25:00 2.3 C 94 % 1.44 C
1183 26-01-2019 02:30:00 2.3 C 94 % 1.44 C
1184 26-01-2019 02:35:00 2.4 C 94 % 1.54 C
1185 26-01-2019 02:40:00 2.4 C 94 % 1.54 C
1186 26-01-2019 02:45:00 2.4 C 94 % 1.54 C
1187 26-01-2019 02:50:00 2.4 C 94 % 1.54 C
1188 26-01-2019 02:55:00 2.4 C 94 % 1.54 C
1189 26-01-2019 03:00:00 2.5 C 94 % 1.63 C
1190 26-01-2019 03:05:00 2.5 C 94 % 1.63 C
1191 26-01-2019 03:10:00 2.5 C 94 % 1.63 C
1192 26-01-2019 03:15:00 2.5 C 93 % 1.49 C
1193 26-01-2019 03:20:00 2.6 C 93 % 1.59 C
1194 26-01-2019 03:25:00 2.6 C 94 % 1.73 C
1195 26-01-2019 03:30:00 2.6 C 94 % 1.73 C
1196 26-01-2019 03:35:00 2.7 C 93 % 1.68 C
1197 26-01-2019 03:40:00 2.7 C 93 % 1.68 C
1198 26-01-2019 03:45:00 2.7 C 93 % 1.68 C
1199 26-01-2019 03:50:00 2.8 C 93 % 1.78 C
1200 26-01-2019 03:55:00 2.8 C 93 % 1.78 C
Sensor: Nr:Datum:Temp:Feuchte:Taupunkt:
Aussen-T/F 1201 26-01-2019 04:00:00 2.8 C 93 % 1.78 C
1202 26-01-2019 04:05:00 2.8 C 93 % 1.78 C
1203 26-01-2019 04:10:00 2.8 C 93 % 1.78 C
1204 26-01-2019 04:15:00 2.9 C 93 % 1.88 C
1205 26-01-2019 04:20:00 2.9 C 93 % 1.88 C
1206 26-01-2019 04:25:00 2.9 C 93 % 1.88 C
1207 26-01-2019 04:30:00 3 C 93 % 1.98 C
1208 26-01-2019 04:35:00 3 C 93 % 1.98 C
1209 26-01-2019 04:40:00 3.1 C 93 % 2.08 C
1210 26-01-2019 04:45:00 3.1 C 92 % 1.93 C
1211 26-01-2019 04:50:00 3.2 C 93 % 2.18 C
1212 26-01-2019 04:55:00 3.2 C 92 % 2.03 C
1213 26-01-2019 05:00:00 3.3 C 92 % 2.13 C
1214 26-01-2019 05:05:00 3.3 C 92 % 2.13 C
1215 26-01-2019 05:10:00 3.3 C 92 % 2.13 C
1216 26-01-2019 05:15:00 3.4 C 92 % 2.23 C
1217 26-01-2019 05:20:00 3.4 C 92 % 2.23 C
1218 26-01-2019 05:25:00 3.4 C 92 % 2.23 C
1219 26-01-2019 05:30:00 3.4 C 92 % 2.23 C
1220 26-01-2019 05:35:00 3.4 C 92 % 2.23 C
1221 26-01-2019 05:40:00 3.4 C 92 % 2.23 C
1222 26-01-2019 05:45:00 3.4 C 92 % 2.23 C
1223 26-01-2019 05:50:00 3.3 C 92 % 2.13 C
1224 26-01-2019 05:55:00 3.3 C 92 % 2.13 C
1225 26-01-2019 06:00:00 3.3 C 92 % 2.13 C
Sensor: Nr:Datum:Temp:Feuchte:Taupunkt:
Aussen-T/F 1226 26-01-2019 06:05:00 3.3 C 92 % 2.13 C
1227 26-01-2019 06:10:00 3.3 C 92 % 2.13 C
1228 26-01-2019 06:15:00 3.3 C 92 % 2.13 C
1229 26-01-2019 06:20:00 3.2 C 92 % 2.03 C
1230 26-01-2019 06:25:00 3.2 C 93 % 2.18 C
1231 26-01-2019 06:30:00 3.2 C 93 % 2.18 C
1232 26-01-2019 06:35:00 3.2 C 93 % 2.18 C
1233 26-01-2019 06:40:00 3.2 C 93 % 2.18 C
1234 26-01-2019 06:45:00 3.2 C 93 % 2.18 C
1235 26-01-2019 06:50:00 3.3 C 93 % 2.28 C
1236 26-01-2019 06:55:00 3.2 C 93 % 2.18 C
1237 26-01-2019 07:00:00 3.2 C 93 % 2.18 C
1238 26-01-2019 07:05:00 3.2 C 93 % 2.18 C
1239 26-01-2019 07:10:00 3.2 C 93 % 2.18 C
1240 26-01-2019 07:15:00 3.2 C 93 % 2.18 C
1241 26-01-2019 07:20:00 3.2 C 93 % 2.18 C
1242 26-01-2019 07:25:00 3.2 C 94 % 2.33 C
1243 26-01-2019 07:30:00 3.3 C 94 % 2.43 C
1244 26-01-2019 07:35:00 3.3 C 94 % 2.43 C
1245 26-01-2019 07:40:00 3.3 C 94 % 2.43 C
1246 26-01-2019 07:45:00 3.3 C 94 % 2.43 C
1247 26-01-2019 07:50:00 3.3 C 94 % 2.43 C
1248 26-01-2019 07:55:00 3.4 C 94 % 2.53 C
1249 26-01-2019 08:00:00 3.4 C 94 % 2.53 C
1250 26-01-2019 08:05:00 3.6 C 94 % 2.73 C
Sensor: Nr:Datum:Temp:Feuchte:Taupunkt:
Aussen-T/F 1251 26-01-2019 08:10:00 3.7 C 94 % 2.83 C
1252 26-01-2019 08:15:00 3.7 C 94 % 2.83 C
1253 26-01-2019 08:20:00 3.7 C 94 % 2.83 C
1254 26-01-2019 08:25:00 3.8 C 94 % 2.93 C
1255 26-01-2019 08:30:00 3.8 C 94 % 2.93 C
1256 26-01-2019 08:35:00 3.8 C 94 % 2.93 C
1257 26-01-2019 08:40:00 3.8 C 94 % 2.93 C
1258 26-01-2019 08:45:00 3.9 C 94 % 3.02 C
1259 26-01-2019 08:50:00 3.9 C 94 % 3.02 C
1260 26-01-2019 08:55:00 4 C 93 % 2.97 C
1261 26-01-2019 09:00:00 4.1 C 93 % 3.07 C
1262 26-01-2019 09:05:00 4.1 C 93 % 3.07 C
1263 26-01-2019 09:10:00 4.1 C 93 % 3.07 C
1264 26-01-2019 09:15:00 4.2 C 93 % 3.17 C
1265 26-01-2019 09:20:00 4.2 C 93 % 3.17 C
1266 26-01-2019 09:25:00 4.2 C 93 % 3.17 C
1267 26-01-2019 09:30:00 4.2 C 93 % 3.17 C
1268 26-01-2019 09:35:00 4.3 C 93 % 3.27 C
1269 26-01-2019 09:40:00 4.4 C 93 % 3.37 C
1270 26-01-2019 09:45:00 4.6 C 93 % 3.57 C
1271 26-01-2019 09:50:00 4.7 C 93 % 3.67 C
1272 26-01-2019 09:55:00 4.8 C 92 % 3.61 C
1273 26-01-2019 10:00:00 4.9 C 92 % 3.71 C
1274 26-01-2019 10:05:00 4.9 C 92 % 3.71 C
1275 26-01-2019 10:10:00 4.9 C 91 % 3.56 C
Sensor: Nr:Datum:Temp:Feuchte:Taupunkt:
Aussen-T/F 1276 26-01-2019 10:15:00 4.9 C 92 % 3.71 C
1277 26-01-2019 10:20:00 4.9 C 92 % 3.71 C
1278 26-01-2019 10:25:00 4.8 C 92 % 3.61 C
1279 26-01-2019 10:30:00 4.8 C 92 % 3.61 C
1280 26-01-2019 10:35:00 4.8 C 92 % 3.61 C
1281 26-01-2019 10:40:00 4.8 C 92 % 3.61 C
1282 26-01-2019 10:45:00 4.7 C 92 % 3.51 C
1283 26-01-2019 10:50:00 4.8 C 92 % 3.61 C
1284 26-01-2019 10:55:00 4.8 C 92 % 3.61 C
1285 26-01-2019 11:00:00 4.9 C 92 % 3.71 C
1286 26-01-2019 11:05:00 4.9 C 92 % 3.71 C
1287 26-01-2019 11:10:00 5 C 92 % 3.81 C
1288 26-01-2019 11:15:00 5.1 C 92 % 3.91 C
1289 26-01-2019 11:20:00 5.1 C 92 % 3.91 C
1290 26-01-2019 11:25:00 5.2 C 92 % 4.01 C
1291 26-01-2019 11:30:00 5.2 C 92 % 4.01 C
1292 26-01-2019 11:35:00 5.2 C 92 % 4.01 C
1293 26-01-2019 11:40:00 5.3 C 92 % 4.11 C
1294 26-01-2019 11:45:00 5.3 C 92 % 4.11 C
1295 26-01-2019 11:50:00 5.4 C 92 % 4.21 C
1296 26-01-2019 11:55:00 5.4 C 92 % 4.21 C
1297 26-01-2019 12:00:00 5.4 C 92 % 4.21 C
1298 26-01-2019 12:05:00 5.5 C 92 % 4.31 C
1299 26-01-2019 12:10:00 5.6 C 91 % 4.25 C
1300 26-01-2019 12:15:00 5.6 C 91 % 4.25 C
Sensor: Nr:Datum:Temp:Feuchte:Taupunkt:
Aussen-T/F 1301 26-01-2019 12:20:00 5.7 C 91 % 4.35 C
1302 26-01-2019 12:25:00 5.8 C 91 % 4.45 C
1303 26-01-2019 12:30:00 5.9 C 91 % 4.55 C
1304 26-01-2019 12:35:00 5.9 C 90 % 4.39 C
1305 26-01-2019 12:40:00 6 C 90 % 4.49 C
1306 26-01-2019 12:45:00 6 C 90 % 4.49 C
1307 26-01-2019 12:50:00 6.1 C 90 % 4.59 C
1308 26-01-2019 12:55:00 6.2 C 90 % 4.69 C
1309 26-01-2019 13:00:00 6.2 C 90 % 4.69 C
1310 26-01-2019 13:05:00 6.1 C 90 % 4.59 C
1311 26-01-2019 13:10:00 6.1 C 90 % 4.59 C
1312 26-01-2019 13:15:00 6 C 90 % 4.49 C
1313 26-01-2019 13:20:00 5.9 C 90 % 4.39 C
1314 26-01-2019 13:25:00 5.9 C 90 % 4.39 C
1315 26-01-2019 13:30:00 5.9 C 90 % 4.39 C
1316 26-01-2019 13:35:00 5.9 C 90 % 4.39 C
1317 26-01-2019 13:40:00 5.9 C 90 % 4.39 C
1318 26-01-2019 13:45:00 5.9 C 90 % 4.39 C
1319 26-01-2019 13:50:00 5.8 C 90 % 4.29 C
1320 26-01-2019 13:55:00 5.8 C 90 % 4.29 C
1321 26-01-2019 14:00:00 5.8 C 90 % 4.29 C
1322 26-01-2019 14:05:00 5.8 C 90 % 4.29 C
1323 26-01-2019 14:10:00 5.8 C 91 % 4.45 C
1324 26-01-2019 14:15:00 5.8 C 91 % 4.45 C
1325 26-01-2019 14:20:00 5.9 C 91 % 4.55 C
Sensor: Nr:Datum:Temp:Feuchte:Taupunkt:
Aussen-T/F 1326 26-01-2019 14:25:00 5.9 C 91 % 4.55 C
1327 26-01-2019 14:30:00 5.9 C 91 % 4.55 C
1328 26-01-2019 14:35:00 6 C 91 % 4.65 C
1329 26-01-2019 14:40:00 6.1 C 91 % 4.74 C
1330 26-01-2019 14:45:00 6.1 C 90 % 4.59 C
1331 26-01-2019 14:50:00 6.2 C 91 % 4.84 C
1332 26-01-2019 14:55:00 6.2 C 90 % 4.69 C
1333 26-01-2019 15:00:00 6.3 C 90 % 4.78 C
1334 26-01-2019 15:05:00 6.3 C 90 % 4.78 C
1335 26-01-2019 15:10:00 6.3 C 89 % 4.62 C
1336 26-01-2019 15:15:00 6.3 C 89 % 4.62 C
1337 26-01-2019 15:20:00 6.3 C 89 % 4.62 C
1338 26-01-2019 15:25:00 6.2 C 89 % 4.53 C
1339 26-01-2019 15:30:00 6.2 C 89 % 4.53 C
1340 26-01-2019 15:35:00 6.2 C 89 % 4.53 C
1341 26-01-2019 15:40:00 6.2 C 89 % 4.53 C
1342 26-01-2019 15:45:00 6.1 C 89 % 4.43 C
1343 26-01-2019 15:50:00 6.1 C 89 % 4.43 C
1344 26-01-2019 15:55:00 6.1 C 90 % 4.59 C
1345 26-01-2019 16:00:00 6.1 C 90 % 4.59 C
1346 26-01-2019 16:05:00 6.1 C 90 % 4.59 C
1347 26-01-2019 16:10:00 6 C 90 % 4.49 C
1348 26-01-2019 16:15:00 6 C 90 % 4.49 C
1349 26-01-2019 16:20:00 6 C 90 % 4.49 C
1350 26-01-2019 16:25:00 5.9 C 90 % 4.39 C
Sensor: Nr:Datum:Temp:Feuchte:Taupunkt:
Aussen-T/F 1351 26-01-2019 16:30:00 5.9 C 90 % 4.39 C
1352 26-01-2019 16:35:00 5.9 C 90 % 4.39 C
1353 26-01-2019 16:40:00 5.9 C 90 % 4.39 C
1354 26-01-2019 16:45:00 5.9 C 90 % 4.39 C
1355 26-01-2019 16:50:00 5.9 C 90 % 4.39 C
1356 26-01-2019 16:55:00 5.9 C 90 % 4.39 C
1357 26-01-2019 17:00:00 5.9 C 90 % 4.39 C
1358 26-01-2019 17:05:00 5.9 C 90 % 4.39 C
1359 26-01-2019 17:10:00 5.8 C 89 % 4.13 C
1360 26-01-2019 17:15:00 5.7 C 90 % 4.19 C
1361 26-01-2019 17:20:00 5.7 C 90 % 4.19 C
1362 26-01-2019 17:25:00 5.6 C 90 % 4.09 C
1363 26-01-2019 17:30:00 5.6 C 90 % 4.09 C
1364 26-01-2019 17:35:00 5.6 C 90 % 4.09 C
1365 26-01-2019 17:40:00 5.4 C 90 % 3.89 C
1366 26-01-2019 17:45:00 5.3 C 90 % 3.8 C
1367 26-01-2019 17:50:00 5.2 C 90 % 3.7 C
1368 26-01-2019 17:55:00 5.1 C 90 % 3.6 C
1369 26-01-2019 18:00:00 5.1 C 91 % 3.76 C
1370 26-01-2019 18:05:00 5 C 91 % 3.66 C
1371 26-01-2019 18:10:00 4.9 C 92 % 3.71 C
1372 26-01-2019 18:15:00 4.9 C 92 % 3.71 C
1373 26-01-2019 18:20:00 4.9 C 92 % 3.71 C
1374 26-01-2019 18:25:00 4.8 C 92 % 3.61 C
1375 26-01-2019 18:30:00 4.8 C 92 % 3.61 C
Sensor: Nr:Datum:Temp:Feuchte:Taupunkt:
Aussen-T/F 1376 26-01-2019 18:35:00 4.7 C 93 % 3.67 C
1377 26-01-2019 18:40:00 4.7 C 93 % 3.67 C
1378 26-01-2019 18:45:00 4.9 C 93 % 3.87 C
1379 26-01-2019 18:50:00 5 C 94 % 4.12 C
1380 26-01-2019 18:55:00 5 C 93 % 3.96 C
1381 26-01-2019 19:00:00 5.1 C 93 % 4.06 C
1382 26-01-2019 19:05:00 5.1 C 94 % 4.22 C
1383 26-01-2019 19:10:00 5.1 C 94 % 4.22 C
1384 26-01-2019 19:15:00 5.1 C 93 % 4.06 C
1385 26-01-2019 19:20:00 5 C 93 % 3.96 C
1386 26-01-2019 19:25:00 5 C 94 % 4.12 C
1387 26-01-2019 19:30:00 5 C 94 % 4.12 C
1388 26-01-2019 19:35:00 5 C 94 % 4.12 C
1389 26-01-2019 19:40:00 5 C 94 % 4.12 C
1390 26-01-2019 19:45:00 4.9 C 94 % 4.02 C
1391 26-01-2019 19:50:00 4.9 C 94 % 4.02 C
1392 26-01-2019 19:55:00 4.9 C 94 % 4.02 C
1393 26-01-2019 20:00:00 5 C 94 % 4.12 C
1394 26-01-2019 20:05:00 5.1 C 94 % 4.22 C
1395 26-01-2019 20:10:00 5.2 C 95 % 4.47 C
1396 26-01-2019 20:15:00 5.3 C 94 % 4.41 C
1397 26-01-2019 20:20:00 5.4 C 94 % 4.51 C
1398 26-01-2019 20:25:00 5.4 C 94 % 4.51 C
1399 26-01-2019 20:30:00 5.4 C 94 % 4.51 C
1400 26-01-2019 20:35:00 5.3 C 94 % 4.41 C
Sensor: Nr:Datum:Temp:Feuchte:Taupunkt:
Aussen-T/F 1401 26-01-2019 20:40:00 5.4 C 94 % 4.51 C
1402 26-01-2019 20:45:00 5.4 C 94 % 4.51 C
1403 26-01-2019 20:50:00 5.4 C 94 % 4.51 C
1404 26-01-2019 20:55:00 5.5 C 94 % 4.61 C
1405 26-01-2019 21:00:00 5.5 C 93 % 4.46 C
1406 26-01-2019 21:05:00 5.5 C 93 % 4.46 C
1407 26-01-2019 21:10:00 5.5 C 93 % 4.46 C
1408 26-01-2019 21:15:00 5.5 C 93 % 4.46 C
1409 26-01-2019 21:20:00 5.6 C 93 % 4.56 C
1410 26-01-2019 21:25:00 5.6 C 93 % 4.56 C
1411 26-01-2019 21:30:00 5.7 C 93 % 4.66 C
1412 26-01-2019 21:35:00 5.7 C 93 % 4.66 C
1413 26-01-2019 21:40:00 5.7 C 93 % 4.66 C
1414 26-01-2019 21:45:00 5.7 C 93 % 4.66 C
1415 26-01-2019 21:50:00 5.8 C 92 % 4.6 C
1416 26-01-2019 21:55:00 5.8 C 92 % 4.6 C
1417 26-01-2019 22:00:00 5.9 C 92 % 4.7 C
1418 26-01-2019 22:05:00 5.9 C 92 % 4.7 C
1419 26-01-2019 22:10:00 5.9 C 91 % 4.55 C
1420 26-01-2019 22:15:00 5.9 C 91 % 4.55 C
1421 26-01-2019 22:20:00 5.9 C 91 % 4.55 C
1422 26-01-2019 22:25:00 6.1 C 91 % 4.74 C
1423 26-01-2019 22:30:00 6.1 C 91 % 4.74 C
1424 26-01-2019 22:35:00 6.1 C 91 % 4.74 C
1425 26-01-2019 22:40:00 6.1 C 91 % 4.74 C
Sensor: Nr:Datum:Temp:Feuchte:Taupunkt:
Aussen-T/F 1426 26-01-2019 22:45:00 6 C 91 % 4.65 C
1427 26-01-2019 22:50:00 5.9 C 91 % 4.55 C
1428 26-01-2019 22:55:00 5.9 C 91 % 4.55 C
1429 26-01-2019 23:00:00 5.8 C 92 % 4.6 C
1430 26-01-2019 23:05:00 5.8 C 92 % 4.6 C
1431 26-01-2019 23:10:00 5.7 C 92 % 4.5 C
1432 26-01-2019 23:15:00 5.6 C 92 % 4.41 C
1433 26-01-2019 23:20:00 5.5 C 93 % 4.46 C
1434 26-01-2019 23:25:00 5.5 C 93 % 4.46 C
1435 26-01-2019 23:30:00 5.4 C 93 % 4.36 C
1436 26-01-2019 23:35:00 5.4 C 93 % 4.36 C
1437 26-01-2019 23:40:00 5.4 C 93 % 4.36 C
1438 26-01-2019 23:45:00 5.4 C 94 % 4.51 C
1439 26-01-2019 23:50:00 5.4 C 94 % 4.51 C
1440 26-01-2019 23:55:00 5.5 C 94 % 4.61 C
1441 27-01-2019 00:00:00 5.6 C 94 % 4.71 C
1442 27-01-2019 00:05:00 5.7 C 94 % 4.81 C
1443 27-01-2019 00:10:00 5.8 C 93 % 4.76 C
1444 27-01-2019 00:15:00 5.8 C 93 % 4.76 C
1445 27-01-2019 00:20:00 5.8 C 93 % 4.76 C
1446 27-01-2019 00:25:00 5.9 C 93 % 4.86 C
1447 27-01-2019 00:30:00 5.9 C 92 % 4.7 C
1448 27-01-2019 00:35:00 5.9 C 92 % 4.7 C
1449 27-01-2019 00:40:00 5.8 C 92 % 4.6 C
1450 27-01-2019 00:45:00 5.8 C 92 % 4.6 C
Sensor: Nr:Datum:Temp:Feuchte:Taupunkt:
Aussen-T/F 1451 27-01-2019 00:50:00 5.8 C 92 % 4.6 C
1452 27-01-2019 00:55:00 5.8 C 92 % 4.6 C
1453 27-01-2019 01:00:00 5.7 C 93 % 4.66 C
1454 27-01-2019 01:05:00 5.7 C 93 % 4.66 C
1455 27-01-2019 01:10:00 5.7 C 93 % 4.66 C
1456 27-01-2019 01:15:00 5.8 C 93 % 4.76 C
1457 27-01-2019 01:20:00 5.7 C 93 % 4.66 C
1458 27-01-2019 01:25:00 5.7 C 93 % 4.66 C
1459 27-01-2019 01:30:00 5.6 C 93 % 4.56 C
1460 27-01-2019 01:35:00 5.7 C 93 % 4.66 C
1461 27-01-2019 01:40:00 5.7 C 93 % 4.66 C
1462 27-01-2019 01:45:00 5.7 C 93 % 4.66 C
1463 27-01-2019 01:50:00 5.7 C 93 % 4.66 C
1464 27-01-2019 01:55:00 5.7 C 93 % 4.66 C
1465 27-01-2019 02:00:00 5.7 C 93 % 4.66 C
1466 27-01-2019 02:05:00 5.8 C 93 % 4.76 C
1467 27-01-2019 02:10:00 5.8 C 93 % 4.76 C
1468 27-01-2019 02:15:00 5.8 C 93 % 4.76 C
1469 27-01-2019 02:20:00 5.9 C 92 % 4.7 C
1470 27-01-2019 02:25:00 5.9 C 92 % 4.7 C
1471 27-01-2019 02:30:00 6 C 92 % 4.8 C
1472 27-01-2019 02:35:00 6.1 C 92 % 4.9 C
1473 27-01-2019 02:40:00 6.1 C 92 % 4.9 C
1474 27-01-2019 02:45:00 6.1 C 92 % 4.9 C
1475 27-01-2019 02:50:00 6.2 C 92 % 5 C
Sensor: Nr:Datum:Temp:Feuchte:Taupunkt:
Aussen-T/F 1476 27-01-2019 02:55:00 6.3 C 91 % 4.94 C
1477 27-01-2019 03:00:00 6.3 C 91 % 4.94 C
1478 27-01-2019 03:05:00 6.3 C 91 % 4.94 C
1479 27-01-2019 03:10:00 6.3 C 91 % 4.94 C
1480 27-01-2019 03:15:00 6.3 C 91 % 4.94 C
1481 27-01-2019 03:20:00 6.4 C 91 % 5.04 C
1482 27-01-2019 03:25:00 6.4 C 91 % 5.04 C
1483 27-01-2019 03:30:00 6.5 C 90 % 4.98 C
1484 27-01-2019 03:35:00 6.5 C 90 % 4.98 C
1485 27-01-2019 03:40:00 6.5 C 90 % 4.98 C
1486 27-01-2019 03:45:00 6.5 C 91 % 5.14 C
1487 27-01-2019 03:50:00 6.5 C 91 % 5.14 C
1488 27-01-2019 03:55:00 6.5 C 90 % 4.98 C
1489 27-01-2019 04:00:00 6.5 C 90 % 4.98 C
1490 27-01-2019 04:05:00 6.4 C 90 % 4.88 C
1491 27-01-2019 04:10:00 6.4 C 90 % 4.88 C
1492 27-01-2019 04:15:00 6.4 C 91 % 5.04 C
1493 27-01-2019 04:20:00 6.3 C 91 % 4.94 C
1494 27-01-2019 04:25:00 6.2 C 91 % 4.84 C
1495 27-01-2019 04:30:00 6.2 C 92 % 5 C
1496 27-01-2019 04:35:00 6.1 C 91 % 4.74 C
1497 27-01-2019 04:40:00 6 C 92 % 4.8 C
1498 27-01-2019 04:45:00 5.9 C 92 % 4.7 C
1499 27-01-2019 04:50:00 5.9 C 92 % 4.7 C
1500 27-01-2019 04:55:00 5.9 C 92 % 4.7 C
Sensor: Nr:Datum:Temp:Feuchte:Taupunkt:
Aussen-T/F 1501 27-01-2019 05:00:00 5.9 C 92 % 4.7 C
1502 27-01-2019 05:05:00 5.9 C 92 % 4.7 C
1503 27-01-2019 05:10:00 5.9 C 92 % 4.7 C
1504 27-01-2019 05:15:00 5.9 C 92 % 4.7 C
1505 27-01-2019 05:20:00 5.9 C 92 % 4.7 C
1506 27-01-2019 05:25:00 5.9 C 92 % 4.7 C
1507 27-01-2019 05:30:00 5.9 C 91 % 4.55 C
1508 27-01-2019 05:35:00 5.9 C 91 % 4.55 C
1509 27-01-2019 05:40:00 5.9 C 91 % 4.55 C
1510 27-01-2019 05:45:00 5.9 C 91 % 4.55 C
1511 27-01-2019 05:50:00 5.9 C 91 % 4.55 C
1512 27-01-2019 05:55:00 5.9 C 91 % 4.55 C
1513 27-01-2019 06:00:00 5.9 C 91 % 4.55 C
1514 27-01-2019 06:05:00 6 C 91 % 4.65 C
1515 27-01-2019 06:10:00 6.1 C 91 % 4.74 C
1516 27-01-2019 06:15:00 6.1 C 90 % 4.59 C
1517 27-01-2019 06:20:00 6.1 C 90 % 4.59 C
1518 27-01-2019 06:25:00 6.1 C 90 % 4.59 C
1519 27-01-2019 06:30:00 6.2 C 90 % 4.69 C
1520 27-01-2019 06:35:00 6.2 C 90 % 4.69 C
1521 27-01-2019 06:40:00 6.2 C 90 % 4.69 C
1522 27-01-2019 06:45:00 6.2 C 90 % 4.69 C
1523 27-01-2019 06:50:00 6.2 C 91 % 4.84 C
1524 27-01-2019 06:55:00 6.3 C 91 % 4.94 C
1525 27-01-2019 07:00:00 6.4 C 91 % 5.04 C
Sensor: Nr:Datum:Temp:Feuchte:Taupunkt:
Aussen-T/F 1526 27-01-2019 07:05:00 6.4 C 90 % 4.88 C
1527 27-01-2019 07:10:00 6.4 C 90 % 4.88 C
1528 27-01-2019 07:15:00 6.5 C 91 % 5.14 C
1529 27-01-2019 07:20:00 6.5 C 91 % 5.14 C
1530 27-01-2019 07:25:00 6.6 C 91 % 5.24 C
1531 27-01-2019 07:30:00 6.6 C 91 % 5.24 C
1532 27-01-2019 07:35:00 6.6 C 91 % 5.24 C
1533 27-01-2019 07:40:00 6.6 C 91 % 5.24 C
1534 27-01-2019 07:45:00 6.6 C 91 % 5.24 C
1535 27-01-2019 07:50:00 6.6 C 91 % 5.24 C
1536 27-01-2019 07:55:00 6.4 C 91 % 5.04 C
1537 27-01-2019 08:00:00 6.4 C 91 % 5.04 C
1538 27-01-2019 08:05:00 6.4 C 91 % 5.04 C
1539 27-01-2019 08:10:00 6.6 C 91 % 5.24 C
1540 27-01-2019 08:15:00 6.6 C 90 % 5.08 C
1541 27-01-2019 08:20:00 6.6 C 90 % 5.08 C
1542 27-01-2019 08:25:00 6.6 C 90 % 5.08 C
1543 27-01-2019 08:30:00 6.6 C 90 % 5.08 C
1544 27-01-2019 08:35:00 6.6 C 90 % 5.08 C
1545 27-01-2019 08:40:00 6.5 C 91 % 5.14 C
1546 27-01-2019 08:45:00 6.4 C 91 % 5.04 C
1547 27-01-2019 08:50:00 6.4 C 92 % 5.2 C
1548 27-01-2019 08:55:00 6.3 C 92 % 5.1 C
1549 27-01-2019 09:00:00 6.3 C 92 % 5.1 C
1550 27-01-2019 09:05:00 6.2 C 92 % 5 C
Sensor: Nr:Datum:Temp:Feuchte:Taupunkt:
Aussen-T/F 1551 27-01-2019 09:10:00 6.2 C 93 % 5.15 C
1552 27-01-2019 09:15:00 6.1 C 93 % 5.06 C
1553 27-01-2019 09:20:00 6.1 C 93 % 5.06 C
1554 27-01-2019 09:25:00 6 C 93 % 4.96 C
1555 27-01-2019 09:30:00 5.9 C 93 % 4.86 C
1556 27-01-2019 09:35:00 5.9 C 93 % 4.86 C
1557 27-01-2019 09:40:00 5.9 C 93 % 4.86 C
1558 27-01-2019 09:45:00 5.8 C 94 % 4.91 C
1559 27-01-2019 09:50:00 5.8 C 94 % 4.91 C
1560 27-01-2019 09:55:00 5.7 C 94 % 4.81 C
1561 27-01-2019 10:00:00 5.7 C 94 % 4.81 C
1562 27-01-2019 10:05:00 5.7 C 94 % 4.81 C
1563 27-01-2019 10:10:00 5.7 C 94 % 4.81 C
1564 27-01-2019 10:15:00 5.6 C 94 % 4.71 C
1565 27-01-2019 10:20:00 5.5 C 95 % 4.76 C
1566 27-01-2019 10:25:00 5.4 C 94 % 4.51 C
1567 27-01-2019 10:30:00 5.4 C 95 % 4.66 C
1568 27-01-2019 10:35:00 5.6 C 95 % 4.86 C
1569 27-01-2019 10:40:00 5.8 C 95 % 5.06 C
1570 27-01-2019 10:45:00 6 C 96 % 5.41 C
1571 27-01-2019 10:50:00 6.2 C 95 % 5.46 C
1572 27-01-2019 10:55:00 6.3 C 95 % 5.56 C
1573 27-01-2019 11:00:00 6.4 C 95 % 5.66 C
1574 27-01-2019 11:05:00 6.6 C 94 % 5.71 C
1575 27-01-2019 11:10:00 6.7 C 94 % 5.8 C
Sensor: Nr:Datum:Temp:Feuchte:Taupunkt:
Aussen-T/F 1576 27-01-2019 11:15:00 6.8 C 93 % 5.75 C
1577 27-01-2019 11:20:00 6.9 C 92 % 5.69 C
1578 27-01-2019 11:25:00 7.1 C 92 % 5.89 C
1579 27-01-2019 11:30:00 7.2 C 91 % 5.83 C
1580 27-01-2019 11:35:00 7.2 C 90 % 5.67 C
1581 27-01-2019 11:40:00 7.3 C 90 % 5.77 C
1582 27-01-2019 11:45:00 7.3 C 90 % 5.77 C
1583 27-01-2019 11:50:00 7.4 C 90 % 5.87 C
1584 27-01-2019 11:55:00 7.4 C 90 % 5.87 C
1585 27-01-2019 12:00:00 7.6 C 90 % 6.07 C
1586 27-01-2019 12:05:00 7.6 C 89 % 5.91 C
1587 27-01-2019 12:10:00 7.7 C 89 % 6 C
1588 27-01-2019 12:15:00 7.7 C 88 % 5.84 C
1589 27-01-2019 12:20:00 7.7 C 88 % 5.84 C
1590 27-01-2019 12:25:00 7.7 C 87 % 5.68 C
1591 27-01-2019 12:30:00 7.7 C 86 % 5.51 C
1592 27-01-2019 12:35:00 7.7 C 86 % 5.51 C
1593 27-01-2019 12:40:00 7.8 C 87 % 5.78 C
1594 27-01-2019 12:45:00 7.7 C 87 % 5.68 C
1595 27-01-2019 12:50:00 7.7 C 86 % 5.51 C
1596 27-01-2019 12:55:00 7.7 C 86 % 5.51 C
1597 27-01-2019 13:00:00 7.6 C 86 % 5.41 C
1598 27-01-2019 13:05:00 7.6 C 86 % 5.41 C
1599 27-01-2019 13:10:00 7.6 C 86 % 5.41 C
1600 27-01-2019 13:15:00 7.6 C 87 % 5.58 C
Sensor: Nr:Datum:Temp:Feuchte:Taupunkt:
Aussen-T/F 1601 27-01-2019 13:20:00 7.6 C 87 % 5.58 C
1602 27-01-2019 13:25:00 7.6 C 87 % 5.58 C
1603 27-01-2019 13:30:00 7.7 C 87 % 5.68 C
1604 27-01-2019 13:35:00 7.8 C 88 % 5.94 C
1605 27-01-2019 13:40:00 7.8 C 87 % 5.78 C
1606 27-01-2019 13:45:00 8 C 87 % 5.97 C
1607 27-01-2019 13:50:00 8.1 C 86 % 5.9 C
1608 27-01-2019 13:55:00 8.1 C 86 % 5.9 C
1609 27-01-2019 14:00:00 8.1 C 86 % 5.9 C
1610 27-01-2019 14:05:00 8.2 C 85 % 5.83 C
1611 27-01-2019 14:10:00 8.2 C 85 % 5.83 C
1612 27-01-2019 14:15:00 8.3 C 84 % 5.76 C
1613 27-01-2019 14:20:00 8.3 C 84 % 5.76 C
1614 27-01-2019 14:25:00 8.2 C 84 % 5.66 C
1615 27-01-2019 14:30:00 8.1 C 84 % 5.56 C
1616 27-01-2019 14:35:00 8.1 C 85 % 5.73 C
1617 27-01-2019 14:40:00 8.2 C 85 % 5.83 C
1618 27-01-2019 14:45:00 8.2 C 85 % 5.83 C
1619 27-01-2019 14:50:00 8.1 C 85 % 5.73 C
1620 27-01-2019 14:55:00 8.1 C 85 % 5.73 C
1621 27-01-2019 15:00:00 8 C 85 % 5.64 C
1622 27-01-2019 15:05:00 7.9 C 86 % 5.71 C
1623 27-01-2019 15:10:00 7.9 C 86 % 5.71 C
1624 27-01-2019 15:15:00 7.9 C 86 % 5.71 C
1625 27-01-2019 15:20:00 7.9 C 87 % 5.87 C
Sensor: Nr:Datum:Temp:Feuchte:Taupunkt:
Aussen-T/F 1626 27-01-2019 15:25:00 7.8 C 87 % 5.78 C
1627 27-01-2019 15:30:00 7.8 C 88 % 5.94 C
1628 27-01-2019 15:35:00 7.7 C 89 % 6 C
1629 27-01-2019 15:40:00 7.6 C 89 % 5.91 C
1630 27-01-2019 15:45:00 7.5 C 90 % 5.97 C
1631 27-01-2019 15:50:00 7.4 C 90 % 5.87 C
1632 27-01-2019 15:55:00 7.4 C 90 % 5.87 C
1633 27-01-2019 16:00:00 7.4 C 90 % 5.87 C
1634 27-01-2019 16:05:00 7.3 C 90 % 5.77 C
1635 27-01-2019 16:10:00 7.3 C 91 % 5.93 C
1636 27-01-2019 16:15:00 7.2 C 90 % 5.67 C
1637 27-01-2019 16:20:00 7.1 C 89 % 5.41 C
1638 27-01-2019 16:25:00 7.1 C 89 % 5.41 C
1639 27-01-2019 16:30:00 7 C 89 % 5.31 C
1640 27-01-2019 16:35:00 7 C 88 % 5.15 C
1641 27-01-2019 16:40:00 6.9 C 88 % 5.05 C
1642 27-01-2019 16:45:00 6.9 C 88 % 5.05 C
1643 27-01-2019 16:50:00 6.8 C 88 % 4.96 C
1644 27-01-2019 16:55:00 6.8 C 88 % 4.96 C
1645 27-01-2019 17:00:00 6.8 C 88 % 4.96 C
1646 27-01-2019 17:05:00 6.7 C 88 % 4.86 C
1647 27-01-2019 17:10:00 6.7 C 88 % 4.86 C
1648 27-01-2019 17:15:00 6.6 C 88 % 4.76 C
1649 27-01-2019 17:20:00 6.6 C 88 % 4.76 C
1650 27-01-2019 17:25:00 6.6 C 88 % 4.76 C
Sensor: Nr:Datum:Temp:Feuchte:Taupunkt:
Aussen-T/F 1651 27-01-2019 17:30:00 6.6 C 88 % 4.76 C
1652 27-01-2019 17:35:00 6.6 C 88 % 4.76 C
1653 27-01-2019 17:40:00 6.6 C 88 % 4.76 C
1654 27-01-2019 17:45:00 6.6 C 87 % 4.6 C
1655 27-01-2019 17:50:00 6.5 C 87 % 4.5 C
1656 27-01-2019 17:55:00 6.3 C 87 % 4.3 C
1657 27-01-2019 18:00:00 6.1 C 88 % 4.27 C
1658 27-01-2019 18:05:00 6 C 89 % 4.33 C
1659 27-01-2019 18:10:00 5.9 C 89 % 4.23 C
1660 27-01-2019 18:15:00 5.8 C 89 % 4.13 C
1661 27-01-2019 18:20:00 5.7 C 90 % 4.19 C
1662 27-01-2019 18:25:00 5.6 C 90 % 4.09 C
1663 27-01-2019 18:30:00 5.4 C 90 % 3.89 C
1664 27-01-2019 18:35:00 5.3 C 90 % 3.8 C
1665 27-01-2019 18:40:00 5.2 C 90 % 3.7 C
1666 27-01-2019 18:45:00 5.1 C 90 % 3.6 C
1667 27-01-2019 18:50:00 5 C 90 % 3.5 C
1668 27-01-2019 18:55:00 4.9 C 89 % 3.24 C
1669 27-01-2019 19:00:00 4.8 C 90 % 3.3 C
1670 27-01-2019 19:05:00 4.8 C 90 % 3.3 C
1671 27-01-2019 19:10:00 4.7 C 90 % 3.2 C
1672 27-01-2019 19:15:00 4.6 C 90 % 3.1 C
1673 27-01-2019 19:20:00 4.6 C 90 % 3.1 C
1674 27-01-2019 19:25:00 4.5 C 91 % 3.16 C
1675 27-01-2019 19:30:00 4.5 C 90 % 3.01 C
Sensor: Nr:Datum:Temp:Feuchte:Taupunkt:
Aussen-T/F 1676 27-01-2019 19:35:00 4.4 C 91 % 3.06 C
1677 27-01-2019 19:40:00 4.4 C 91 % 3.06 C
1678 27-01-2019 19:45:00 4.4 C 91 % 3.06 C
1679 27-01-2019 19:50:00 4.4 C 91 % 3.06 C
1680 27-01-2019 19:55:00 4.3 C 91 % 2.96 C
1681 27-01-2019 20:00:00 4.2 C 91 % 2.87 C
1682 27-01-2019 20:05:00 4.2 C 91 % 2.87 C
1683 27-01-2019 20:10:00 4 C 91 % 2.67 C
1684 27-01-2019 20:15:00 3.9 C 90 % 2.41 C
1685 27-01-2019 20:20:00 3.9 C 90 % 2.41 C
1686 27-01-2019 20:25:00 3.8 C 90 % 2.31 C
1687 27-01-2019 20:30:00 3.8 C 89 % 2.16 C
1688 27-01-2019 20:35:00 3.8 C 88 % 2 C
1689 27-01-2019 20:40:00 3.8 C 87 % 1.84 C
1690 27-01-2019 20:45:00 3.8 C 87 % 1.84 C
1691 27-01-2019 20:50:00 3.8 C 88 % 2 C
1692 27-01-2019 20:55:00 3.7 C 87 % 1.74 C
1693 27-01-2019 21:00:00 3.7 C 87 % 1.74 C
1694 27-01-2019 21:05:00 3.7 C 88 % 1.9 C
1695 27-01-2019 21:10:00 3.7 C 88 % 1.9 C
1696 27-01-2019 21:15:00 3.6 C 88 % 1.8 C
1697 27-01-2019 21:20:00 3.6 C 89 % 1.96 C
1698 27-01-2019 21:25:00 3.4 C 89 % 1.76 C
1699 27-01-2019 21:30:00 3.3 C 89 % 1.67 C
1700 27-01-2019 21:35:00 3.3 C 89 % 1.67 C
Sensor: Nr:Datum:Temp:Feuchte:Taupunkt:
Aussen-T/F 1701 27-01-2019 21:40:00 3.3 C 89 % 1.67 C
1702 27-01-2019 21:45:00 3.3 C 90 % 1.82 C
1703 27-01-2019 21:50:00 3.3 C 90 % 1.82 C
1704 27-01-2019 21:55:00 3.3 C 90 % 1.82 C
1705 27-01-2019 22:00:00 3.3 C 90 % 1.82 C
1706 27-01-2019 22:05:00 3.3 C 90 % 1.82 C
1707 27-01-2019 22:10:00 3.3 C 90 % 1.82 C
1708 27-01-2019 22:15:00 3.2 C 90 % 1.72 C
1709 27-01-2019 22:20:00 3.2 C 90 % 1.72 C
1710 27-01-2019 22:25:00 3.2 C 90 % 1.72 C
1711 27-01-2019 22:30:00 3.2 C 90 % 1.72 C
1712 27-01-2019 22:35:00 3.3 C 90 % 1.82 C
1713 27-01-2019 22:40:00 3.3 C 90 % 1.82 C
1714 27-01-2019 22:45:00 3.2 C 89 % 1.57 C
1715 27-01-2019 22:50:00 3.3 C 89 % 1.67 C
1716 27-01-2019 22:55:00 3.3 C 89 % 1.67 C
1717 27-01-2019 23:00:00 3.4 C 88 % 1.61 C
1718 27-01-2019 23:05:00 3.5 C 88 % 1.7 C
1719 27-01-2019 23:10:00 3.4 C 88 % 1.61 C
1720 27-01-2019 23:15:00 3.4 C 87 % 1.45 C
1721 27-01-2019 23:20:00 3.3 C 88 % 1.51 C
1722 27-01-2019 23:25:00 3.2 C 88 % 1.41 C
1723 27-01-2019 23:30:00 3.1 C 88 % 1.31 C
1724 27-01-2019 23:35:00 2.9 C 89 % 1.27 C
1725 27-01-2019 23:40:00 2.9 C 89 % 1.27 C
Sensor: Nr:Datum:Temp:Feuchte:Taupunkt:
Aussen-T/F 1726 27-01-2019 23:45:00 3 C 89 % 1.37 C
1727 27-01-2019 23:50:00 2.9 C 89 % 1.27 C
1728 27-01-2019 23:55:00 2.8 C 89 % 1.17 C
1729 28-01-2019 00:00:00 2.8 C 90 % 1.33 C
1730 28-01-2019 00:05:00 2.8 C 90 % 1.33 C
1731 28-01-2019 00:10:00 2.8 C 90 % 1.33 C
1732 28-01-2019 00:15:00 2.8 C 90 % 1.33 C
1733 28-01-2019 00:20:00 2.9 C 90 % 1.43 C
1734 28-01-2019 00:25:00 3.1 C 90 % 1.62 C
1735 28-01-2019 00:30:00 3.2 C 90 % 1.72 C
1736 28-01-2019 00:35:00 3.2 C 90 % 1.72 C
1737 28-01-2019 00:40:00 3.2 C 90 % 1.72 C
1738 28-01-2019 00:45:00 3.3 C 89 % 1.67 C
1739 28-01-2019 00:50:00 3.3 C 89 % 1.67 C
1740 28-01-2019 00:55:00 3.4 C 89 % 1.76 C
1741 28-01-2019 01:00:00 3.4 C 89 % 1.76 C
1742 28-01-2019 01:05:00 3.6 C 88 % 1.8 C
1743 28-01-2019 01:10:00 3.6 C 88 % 1.8 C
1744 28-01-2019 01:15:00 3.6 C 88 % 1.8 C
1745 28-01-2019 01:20:00 3.5 C 88 % 1.7 C
1746 28-01-2019 01:25:00 3.4 C 88 % 1.61 C
1747 28-01-2019 01:30:00 3.3 C 88 % 1.51 C
1748 28-01-2019 01:35:00 3.3 C 88 % 1.51 C
1749 28-01-2019 01:40:00 3.3 C 89 % 1.67 C
1750 28-01-2019 01:45:00 3.3 C 89 % 1.67 C
Sensor: Nr:Datum:Temp:Feuchte:Taupunkt:
Aussen-T/F 1751 28-01-2019 01:50:00 3.3 C 89 % 1.67 C
1752 28-01-2019 01:55:00 3.3 C 89 % 1.67 C
1753 28-01-2019 02:00:00 3.3 C 89 % 1.67 C
1754 28-01-2019 02:05:00 3.4 C 89 % 1.76 C
1755 28-01-2019 02:10:00 3.4 C 89 % 1.76 C
1756 28-01-2019 02:15:00 3.3 C 89 % 1.67 C
1757 28-01-2019 02:20:00 3.3 C 89 % 1.67 C
1758 28-01-2019 02:25:00 3.2 C 89 % 1.57 C
1759 28-01-2019 02:30:00 3.2 C 89 % 1.57 C
1760 28-01-2019 02:35:00 3.1 C 90 % 1.62 C
1761 28-01-2019 02:40:00 3.1 C 90 % 1.62 C
1762 28-01-2019 02:45:00 3.1 C 90 % 1.62 C
1763 28-01-2019 02:50:00 3.1 C 90 % 1.62 C
1764 28-01-2019 02:55:00 3.1 C 89 % 1.47 C
1765 28-01-2019 03:00:00 3.1 C 89 % 1.47 C
1766 28-01-2019 03:05:00 3.2 C 89 % 1.57 C
1767 28-01-2019 03:10:00 3.2 C 89 % 1.57 C
1768 28-01-2019 03:15:00 3.3 C 89 % 1.67 C
1769 28-01-2019 03:20:00 3.3 C 89 % 1.67 C
1770 28-01-2019 03:25:00 3.3 C 90 % 1.82 C
1771 28-01-2019 03:30:00 3.3 C 90 % 1.82 C
1772 28-01-2019 03:35:00 3.3 C 90 % 1.82 C
1773 28-01-2019 03:40:00 3.3 C 90 % 1.82 C
1774 28-01-2019 03:45:00 3.2 C 91 % 1.88 C
1775 28-01-2019 03:50:00 3.2 C 91 % 1.88 C
Sensor: Nr:Datum:Temp:Feuchte:Taupunkt:
Aussen-T/F 1776 28-01-2019 03:55:00 3.2 C 91 % 1.88 C
1777 28-01-2019 04:00:00 3.2 C 91 % 1.88 C
1778 28-01-2019 04:05:00 3.2 C 91 % 1.88 C
1779 28-01-2019 04:10:00 3.2 C 91 % 1.88 C
1780 28-01-2019 04:15:00 3.1 C 91 % 1.78 C
1781 28-01-2019 04:20:00 3.2 C 91 % 1.88 C
1782 28-01-2019 04:25:00 3.2 C 91 % 1.88 C
1783 28-01-2019 04:30:00 3.2 C 90 % 1.72 C
1784 28-01-2019 04:35:00 3.3 C 90 % 1.82 C
1785 28-01-2019 04:40:00 3.3 C 90 % 1.82 C
1786 28-01-2019 04:45:00 3.3 C 90 % 1.82 C
1787 28-01-2019 04:50:00 3.3 C 90 % 1.82 C
1788 28-01-2019 04:55:00 3.3 C 90 % 1.82 C
1789 28-01-2019 05:00:00 3.2 C 90 % 1.72 C
1790 28-01-2019 05:05:00 3.2 C 90 % 1.72 C
1791 28-01-2019 05:10:00 3.2 C 90 % 1.72 C
1792 28-01-2019 05:15:00 3.3 C 90 % 1.82 C
1793 28-01-2019 05:20:00 3.3 C 90 % 1.82 C
1794 28-01-2019 05:25:00 3.3 C 90 % 1.82 C
1795 28-01-2019 05:30:00 3.3 C 90 % 1.82 C
1796 28-01-2019 05:35:00 3.2 C 89 % 1.57 C
1797 28-01-2019 05:40:00 3.3 C 89 % 1.67 C
1798 28-01-2019 05:45:00 3.3 C 89 % 1.67 C
1799 28-01-2019 05:50:00 3.3 C 89 % 1.67 C
1800 28-01-2019 05:55:00 3.3 C 89 % 1.67 C
Sensor: Nr:Datum:Temp:Feuchte:Taupunkt:
Aussen-T/F 1801 28-01-2019 06:00:00 3.3 C 89 % 1.67 C
1802 28-01-2019 06:05:00 3.3 C 89 % 1.67 C
1803 28-01-2019 06:10:00 3.3 C 89 % 1.67 C
1804 28-01-2019 06:15:00 3.3 C 89 % 1.67 C
1805 28-01-2019 06:20:00 3.3 C 89 % 1.67 C
1806 28-01-2019 06:25:00 3.3 C 89 % 1.67 C
1807 28-01-2019 06:30:00 3.2 C 90 % 1.72 C
1808 28-01-2019 06:35:00 3.1 C 90 % 1.62 C
1809 28-01-2019 06:40:00 3.1 C 91 % 1.78 C
1810 28-01-2019 06:45:00 3 C 91 % 1.68 C
1811 28-01-2019 06:50:00 2.9 C 91 % 1.58 C
1812 28-01-2019 06:55:00 2.9 C 91 % 1.58 C
1813 28-01-2019 07:00:00 2.9 C 92 % 1.73 C
1814 28-01-2019 07:05:00 2.9 C 92 % 1.73 C
1815 28-01-2019 07:10:00 2.8 C 92 % 1.63 C
1816 28-01-2019 07:15:00 2.8 C 92 % 1.63 C
1817 28-01-2019 07:20:00 2.7 C 92 % 1.53 C
1818 28-01-2019 07:25:00 2.7 C 93 % 1.68 C
1819 28-01-2019 07:30:00 2.7 C 93 % 1.68 C
1820 28-01-2019 07:35:00 2.7 C 93 % 1.68 C
1821 28-01-2019 07:40:00 2.6 C 93 % 1.59 C
1822 28-01-2019 07:45:00 2.6 C 93 % 1.59 C
1823 28-01-2019 07:50:00 2.6 C 94 % 1.73 C
1824 28-01-2019 07:55:00 2.6 C 94 % 1.73 C
1825 28-01-2019 08:00:00 2.6 C 93 % 1.59 C
Sensor: Nr:Datum:Temp:Feuchte:Taupunkt:
Aussen-T/F 1826 28-01-2019 08:05:00 2.5 C 93 % 1.49 C
1827 28-01-2019 08:10:00 2.5 C 94 % 1.63 C
1828 28-01-2019 08:15:00 2.4 C 94 % 1.54 C
1829 28-01-2019 08:20:00 2.5 C 94 % 1.63 C
1830 28-01-2019 08:25:00 2.5 C 94 % 1.63 C
1831 28-01-2019 08:30:00 2.5 C 94 % 1.63 C
1832 28-01-2019 08:35:00 2.5 C 93 % 1.49 C
1833 28-01-2019 08:40:00 2.5 C 93 % 1.49 C
1834 28-01-2019 08:45:00 2.5 C 93 % 1.49 C
1835 28-01-2019 08:50:00 2.5 C 94 % 1.63 C
1836 28-01-2019 08:55:00 2.5 C 94 % 1.63 C
1837 28-01-2019 09:00:00 2.4 C 94 % 1.54 C
1838 28-01-2019 09:05:00 2.4 C 94 % 1.54 C
1839 28-01-2019 09:10:00 2.4 C 94 % 1.54 C
1840 28-01-2019 09:15:00 2.3 C 94 % 1.44 C
1841 28-01-2019 09:20:00 2.3 C 94 % 1.44 C
1842 28-01-2019 09:25:00 2.2 C 94 % 1.34 C
1843 28-01-2019 09:30:00 2.1 C 94 % 1.24 C
1844 28-01-2019 09:35:00 2.1 C 94 % 1.24 C
1845 28-01-2019 09:40:00 2.1 C 95 % 1.38 C
1846 28-01-2019 09:45:00 2.2 C 95 % 1.48 C
1847 28-01-2019 09:50:00 2.2 C 95 % 1.48 C
1848 28-01-2019 09:55:00 2.2 C 95 % 1.48 C
1849 28-01-2019 10:00:00 2.2 C 95 % 1.48 C
1850 28-01-2019 10:05:00 2.3 C 95 % 1.58 C
Sensor: Nr:Datum:Temp:Feuchte:Taupunkt:
Aussen-T/F 1851 28-01-2019 10:10:00 2.3 C 95 % 1.58 C
1852 28-01-2019 10:15:00 2.3 C 95 % 1.58 C
1853 28-01-2019 10:20:00 2.3 C 95 % 1.58 C
1854 28-01-2019 10:25:00 2.3 C 95 % 1.58 C
1855 28-01-2019 10:30:00 2.4 C 95 % 1.68 C
1856 28-01-2019 10:35:00 2.4 C 95 % 1.68 C
1857 28-01-2019 10:40:00 2.5 C 95 % 1.78 C
1858 28-01-2019 10:45:00 2.6 C 95 % 1.88 C
1859 28-01-2019 10:50:00 2.6 C 95 % 1.88 C
1860 28-01-2019 10:55:00 2.7 C 95 % 1.98 C
1861 28-01-2019 11:00:00 2.7 C 95 % 1.98 C
1862 28-01-2019 11:05:00 2.8 C 95 % 2.08 C
1863 28-01-2019 11:10:00 2.8 C 95 % 2.08 C
1864 28-01-2019 11:15:00 2.9 C 95 % 2.18 C
1865 28-01-2019 11:20:00 2.9 C 95 % 2.18 C
1866 28-01-2019 11:25:00 2.9 C 95 % 2.18 C
1867 28-01-2019 11:30:00 2.9 C 95 % 2.18 C
1868 28-01-2019 11:35:00 2.9 C 95 % 2.18 C
1869 28-01-2019 11:40:00 3 C 95 % 2.28 C
1870 28-01-2019 11:45:00 3.1 C 95 % 2.38 C
1871 28-01-2019 11:50:00 3.1 C 95 % 2.38 C
1872 28-01-2019 11:55:00 3.1 C 95 % 2.38 C
1873 28-01-2019 12:00:00 3.1 C 95 % 2.38 C
1874 28-01-2019 12:05:00 3.2 C 95 % 2.48 C
1875 28-01-2019 12:10:00 3.2 C 95 % 2.48 C
Sensor: Nr:Datum:Temp:Feuchte:Taupunkt:
Aussen-T/F 1876 28-01-2019 12:15:00 3.2 C 95 % 2.48 C
1877 28-01-2019 12:20:00 3.3 C 95 % 2.58 C
1878 28-01-2019 12:25:00 3.3 C 95 % 2.58 C
1879 28-01-2019 12:30:00 3.3 C 95 % 2.58 C
1880 28-01-2019 12:35:00 3.4 C 95 % 2.68 C
1881 28-01-2019 12:40:00 3.4 C 94 % 2.53 C
1882 28-01-2019 12:45:00 3.4 C 94 % 2.53 C
1883 28-01-2019 12:50:00 3.4 C 94 % 2.53 C
1884 28-01-2019 12:55:00 3.4 C 94 % 2.53 C
1885 28-01-2019 13:00:00 3.3 C 94 % 2.43 C
1886 28-01-2019 13:05:00 3.3 C 94 % 2.43 C
1887 28-01-2019 13:10:00 3.3 C 95 % 2.58 C
1888 28-01-2019 13:15:00 3.4 C 95 % 2.68 C
1889 28-01-2019 13:20:00 3.4 C 95 % 2.68 C
1890 28-01-2019 13:25:00 3.5 C 95 % 2.78 C
1891 28-01-2019 13:30:00 3.6 C 95 % 2.88 C
1892 28-01-2019 13:35:00 3.6 C 94 % 2.73 C
1893 28-01-2019 13:40:00 3.7 C 94 % 2.83 C
1894 28-01-2019 13:45:00 3.8 C 94 % 2.93 C
1895 28-01-2019 13:50:00 3.8 C 94 % 2.93 C
1896 28-01-2019 13:55:00 3.9 C 93 % 2.87 C
1897 28-01-2019 14:00:00 3.9 C 93 % 2.87 C
1898 28-01-2019 14:05:00 4 C 92 % 2.82 C
1899 28-01-2019 14:10:00 4.1 C 92 % 2.92 C
1900 28-01-2019 14:15:00 4.1 C 92 % 2.92 C
Sensor: Nr:Datum:Temp:Feuchte:Taupunkt:
Aussen-T/F 1901 28-01-2019 14:20:00 4.1 C 92 % 2.92 C
1902 28-01-2019 14:25:00 4.1 C 92 % 2.92 C
1903 28-01-2019 14:30:00 4.1 C 92 % 2.92 C
1904 28-01-2019 14:35:00 4 C 92 % 2.82 C
1905 28-01-2019 14:40:00 4 C 92 % 2.82 C
1906 28-01-2019 14:45:00 4 C 92 % 2.82 C
1907 28-01-2019 14:50:00 4 C 92 % 2.82 C
1908 28-01-2019 14:55:00 4 C 92 % 2.82 C
1909 28-01-2019 15:00:00 4 C 91 % 2.67 C
1910 28-01-2019 15:05:00 4.1 C 91 % 2.77 C
1911 28-01-2019 15:10:00 4.1 C 91 % 2.77 C
1912 28-01-2019 15:15:00 4.1 C 90 % 2.61 C
1913 28-01-2019 15:20:00 4.1 C 90 % 2.61 C
1914 28-01-2019 15:25:00 4.1 C 91 % 2.77 C
1915 28-01-2019 15:30:00 4.1 C 91 % 2.77 C
1916 28-01-2019 15:35:00 4 C 90 % 2.51 C
1917 28-01-2019 15:40:00 3.9 C 91 % 2.57 C
1918 28-01-2019 15:45:00 3.9 C 91 % 2.57 C
1919 28-01-2019 15:50:00 3.9 C 91 % 2.57 C
1920 28-01-2019 15:55:00 3.9 C 90 % 2.41 C
1921 28-01-2019 16:00:00 3.9 C 90 % 2.41 C
1922 28-01-2019 16:05:00 3.8 C 91 % 2.47 C
1923 28-01-2019 16:10:00 3.6 C 91 % 2.27 C
1924 28-01-2019 16:15:00 3.5 C 91 % 2.17 C
1925 28-01-2019 16:20:00 3.4 C 92 % 2.23 C
Sensor: Nr:Datum:Temp:Feuchte:Taupunkt:
Aussen-T/F 1926 28-01-2019 16:25:00 3.3 C 92 % 2.13 C
1927 28-01-2019 16:30:00 3.3 C 92 % 2.13 C
1928 28-01-2019 16:35:00 3.3 C 92 % 2.13 C
1929 28-01-2019 16:40:00 3.3 C 92 % 2.13 C
1930 28-01-2019 16:45:00 3.3 C 92 % 2.13 C
1931 28-01-2019 16:50:00 3.3 C 92 % 2.13 C
1932 28-01-2019 16:55:00 3.3 C 92 % 2.13 C
1933 28-01-2019 17:00:00 3.2 C 92 % 2.03 C
1934 28-01-2019 17:05:00 3.2 C 92 % 2.03 C
1935 28-01-2019 17:10:00 3.1 C 92 % 1.93 C
1936 28-01-2019 17:15:00 3.1 C 93 % 2.08 C
1937 28-01-2019 17:20:00 3 C 93 % 1.98 C
1938 28-01-2019 17:25:00 2.9 C 93 % 1.88 C
1939 28-01-2019 17:30:00 2.9 C 93 % 1.88 C
1940 28-01-2019 17:35:00 2.9 C 93 % 1.88 C
1941 28-01-2019 17:40:00 2.8 C 93 % 1.78 C
1942 28-01-2019 17:45:00 2.8 C 93 % 1.78 C
1943 28-01-2019 17:50:00 2.9 C 93 % 1.88 C
1944 28-01-2019 17:55:00 2.9 C 92 % 1.73 C
1945 28-01-2019 18:00:00 2.9 C 92 % 1.73 C
1946 28-01-2019 18:05:00 2.8 C 93 % 1.78 C
1947 28-01-2019 18:10:00 2.9 C 93 % 1.88 C
1948 28-01-2019 18:15:00 2.9 C 93 % 1.88 C
1949 28-01-2019 18:20:00 2.9 C 93 % 1.88 C
1950 28-01-2019 18:25:00 2.9 C 93 % 1.88 C
Sensor: Nr:Datum:Temp:Feuchte:Taupunkt:
Aussen-T/F 1951 28-01-2019 18:30:00 2.9 C 93 % 1.88 C
1952 28-01-2019 18:35:00 2.8 C 93 % 1.78 C
1953 28-01-2019 18:40:00 2.8 C 93 % 1.78 C
1954 28-01-2019 18:45:00 2.7 C 92 % 1.53 C
1955 28-01-2019 18:50:00 2.6 C 92 % 1.43 C
1956 28-01-2019 18:55:00 2.6 C 92 % 1.43 C
1957 28-01-2019 19:00:00 2.6 C 92 % 1.43 C
1958 28-01-2019 19:05:00 2.6 C 92 % 1.43 C
1959 28-01-2019 19:10:00 2.7 C 91 % 1.38 C
1960 28-01-2019 19:15:00 2.8 C 90 % 1.33 C
1961 28-01-2019 19:20:00 2.9 C 89 % 1.27 C
1962 28-01-2019 19:25:00 3 C 88 % 1.21 C
1963 28-01-2019 19:30:00 3.1 C 88 % 1.31 C
1964 28-01-2019 19:35:00 3.2 C 87 % 1.25 C
1965 28-01-2019 19:40:00 3.2 C 86 % 1.09 C
1966 28-01-2019 19:45:00 3.3 C 86 % 1.19 C
1967 28-01-2019 19:50:00 3.3 C 88 % 1.51 C
1968 28-01-2019 19:55:00 3.3 C 88 % 1.51 C
1969 28-01-2019 20:00:00 3.2 C 87 % 1.25 C
1970 28-01-2019 20:05:00 3.3 C 86 % 1.19 C
1971 28-01-2019 20:10:00 3.5 C 86 % 1.38 C
1972 28-01-2019 20:15:00 3.6 C 86 % 1.48 C
1973 28-01-2019 20:20:00 3.7 C 85 % 1.42 C
1974 28-01-2019 20:25:00 3.7 C 85 % 1.42 C
1975 28-01-2019 20:30:00 3.6 C 85 % 1.32 C
Sensor: Nr:Datum:Temp:Feuchte:Taupunkt:
Aussen-T/F 1976 28-01-2019 20:35:00 3.5 C 86 % 1.38 C
1977 28-01-2019 20:40:00 3.4 C 86 % 1.29 C
1978 28-01-2019 20:45:00 3.4 C 86 % 1.29 C
1979 28-01-2019 20:50:00 3.4 C 86 % 1.29 C
1980 28-01-2019 20:55:00 3.3 C 86 % 1.19 C
1981 28-01-2019 21:00:00 3.3 C 87 % 1.35 C
1982 28-01-2019 21:05:00 3.3 C 87 % 1.35 C
1983 28-01-2019 21:10:00 3.3 C 87 % 1.35 C
1984 28-01-2019 21:15:00 3.4 C 86 % 1.29 C
1985 28-01-2019 21:20:00 3.4 C 86 % 1.29 C
1986 28-01-2019 21:25:00 3.4 C 87 % 1.45 C
1987 28-01-2019 21:30:00 3.3 C 87 % 1.35 C
1988 28-01-2019 21:35:00 3.3 C 87 % 1.35 C
1989 28-01-2019 21:40:00 3.3 C 87 % 1.35 C
1990 28-01-2019 21:45:00 3.4 C 87 % 1.45 C
1991 28-01-2019 21:50:00 3.4 C 87 % 1.45 C
1992 28-01-2019 21:55:00 3.5 C 86 % 1.38 C
1993 28-01-2019 22:00:00 3.6 C 86 % 1.48 C
1994 28-01-2019 22:05:00 3.6 C 86 % 1.48 C
1995 28-01-2019 22:10:00 3.6 C 86 % 1.48 C
1996 28-01-2019 22:15:00 3.6 C 86 % 1.48 C
1997 28-01-2019 22:20:00 3.5 C 86 % 1.38 C
1998 28-01-2019 22:25:00 3.5 C 87 % 1.55 C
1999 28-01-2019 22:30:00 3.4 C 87 % 1.45 C
2000 28-01-2019 22:35:00 3.4 C 86 % 1.29 C
Sensor: Nr:Datum:Temp:Feuchte:Taupunkt:
Aussen-T/F 2001 28-01-2019 22:40:00 3.4 C 86 % 1.29 C
2002 28-01-2019 22:45:00 3.4 C 86 % 1.29 C
2003 28-01-2019 22:50:00 3.4 C 86 % 1.29 C
2004 28-01-2019 22:55:00 3.4 C 86 % 1.29 C
2005 28-01-2019 23:00:00 3.5 C 86 % 1.38 C
2006 28-01-2019 23:05:00 3.5 C 86 % 1.38 C
2007 28-01-2019 23:10:00 3.5 C 86 % 1.38 C
2008 28-01-2019 23:15:00 3.4 C 86 % 1.29 C
2009 28-01-2019 23:20:00 3.4 C 87 % 1.45 C
2010 28-01-2019 23:25:00 3.4 C 87 % 1.45 C
2011 28-01-2019 23:30:00 3.3 C 88 % 1.51 C
2012 28-01-2019 23:35:00 3.2 C 88 % 1.41 C
2013 28-01-2019 23:40:00 3.2 C 88 % 1.41 C
2014 28-01-2019 23:45:00 3.1 C 88 % 1.31 C
2015 28-01-2019 23:50:00 3 C 88 % 1.21 C
2016 28-01-2019 23:55:00 2.9 C 88 % 1.11 C
2017 29-01-2019 00:00:00 2.9 C 88 % 1.11 C
2018 29-01-2019 00:05:00 2.9 C 88 % 1.11 C
2019 29-01-2019 00:10:00 2.8 C 88 % 1.02 C
2020 29-01-2019 00:15:00 2.8 C 89 % 1.17 C
2021 29-01-2019 00:20:00 2.8 C 89 % 1.17 C
2022 29-01-2019 00:25:00 2.7 C 89 % 1.07 C
2023 29-01-2019 00:30:00 2.7 C 89 % 1.07 C
2024 29-01-2019 00:35:00 2.7 C 89 % 1.07 C
2025 29-01-2019 00:40:00 2.7 C 89 % 1.07 C
Sensor: Nr:Datum:Temp:Feuchte:Taupunkt:
Aussen-T/F 2026 29-01-2019 00:45:00 2.7 C 89 % 1.07 C
2027 29-01-2019 00:50:00 2.7 C 89 % 1.07 C
2028 29-01-2019 00:55:00 2.6 C 90 % 1.13 C
2029 29-01-2019 01:00:00 2.6 C 90 % 1.13 C
2030 29-01-2019 01:05:00 2.6 C 90 % 1.13 C
2031 29-01-2019 01:10:00 2.6 C 90 % 1.13 C
2032 29-01-2019 01:15:00 2.5 C 90 % 1.03 C
2033 29-01-2019 01:20:00 2.6 C 90 % 1.13 C
2034 29-01-2019 01:25:00 2.5 C 90 % 1.03 C
2035 29-01-2019 01:30:00 2.4 C 91 % 1.08 C
2036 29-01-2019 01:35:00 2.3 C 91 % 0.99 C
2037 29-01-2019 01:40:00 2.2 C 91 % 0.89 C
2038 29-01-2019 01:45:00 2.1 C 92 % 0.94 C
2039 29-01-2019 01:50:00 2.1 C 92 % 0.94 C
2040 29-01-2019 01:55:00 2.1 C 92 % 0.94 C
2041 29-01-2019 02:00:00 2.1 C 92 % 0.94 C
2042 29-01-2019 02:05:00 2 C 92 % 0.84 C
2043 29-01-2019 02:10:00 1.9 C 92 % 0.74 C
2044 29-01-2019 02:15:00 1.9 C 93 % 0.89 C
2045 29-01-2019 02:20:00 1.9 C 93 % 0.89 C
2046 29-01-2019 02:25:00 1.9 C 93 % 0.89 C
2047 29-01-2019 02:30:00 1.9 C 93 % 0.89 C
2048 29-01-2019 02:35:00 1.9 C 93 % 0.89 C
2049 29-01-2019 02:40:00 1.9 C 93 % 0.89 C
2050 29-01-2019 02:45:00 1.9 C 93 % 0.89 C
Sensor: Nr:Datum:Temp:Feuchte:Taupunkt:
Aussen-T/F 2051 29-01-2019 02:50:00 1.9 C 93 % 0.89 C
2052 29-01-2019 02:55:00 1.8 C 93 % 0.79 C
2053 29-01-2019 03:00:00 1.7 C 93 % 0.69 C
2054 29-01-2019 03:05:00 1.7 C 93 % 0.69 C
2055 29-01-2019 03:10:00 1.7 C 94 % 0.84 C
2056 29-01-2019 03:15:00 1.7 C 94 % 0.84 C
2057 29-01-2019 03:20:00 1.7 C 94 % 0.84 C
2058 29-01-2019 03:25:00 1.6 C 94 % 0.74 C
2059 29-01-2019 03:30:00 1.6 C 94 % 0.74 C
2060 29-01-2019 03:35:00 1.6 C 94 % 0.74 C
2061 29-01-2019 03:40:00 1.6 C 94 % 0.74 C
2062 29-01-2019 03:45:00 1.5 C 94 % 0.64 C
2063 29-01-2019 03:50:00 1.4 C 94 % 0.54 C
2064 29-01-2019 03:55:00 1.3 C 94 % 0.44 C
2065 29-01-2019 04:00:00 1.2 C 94 % 0.34 C
2066 29-01-2019 04:05:00 1.2 C 94 % 0.34 C
2067 29-01-2019 04:10:00 1.1 C 94 % 0.24 C
2068 29-01-2019 04:15:00 1.1 C 94 % 0.24 C
2069 29-01-2019 04:20:00 1.1 C 94 % 0.24 C
2070 29-01-2019 04:25:00 1 C 94 % 0.15 C
2071 29-01-2019 04:30:00 1 C 94 % 0.15 C
2072 29-01-2019 04:35:00 0.9 C 94 % 0.05 C
2073 29-01-2019 04:40:00 0.9 C 94 % 0.05 C
2074 29-01-2019 04:45:00 1 C 94 % 0.15 C
2075 29-01-2019 04:50:00 1.1 C 94 % 0.24 C
Sensor: Nr:Datum:Temp:Feuchte:Taupunkt:
Aussen-T/F 2076 29-01-2019 04:55:00 0.9 C 94 % 0.05 C
2077 29-01-2019 05:00:00 0.8 C 94 % -0.05 C
2078 29-01-2019 05:05:00 0.8 C 94 % -0.05 C
2079 29-01-2019 05:10:00 0.7 C 94 % -0.15 C
2080 29-01-2019 05:15:00 0.7 C 94 % -0.15 C
2081 29-01-2019 05:20:00 0.7 C 94 % -0.15 C
2082 29-01-2019 05:25:00 0.6 C 94 % -0.25 C
2083 29-01-2019 05:30:00 0.6 C 94 % -0.25 C
2084 29-01-2019 05:35:00 0.6 C 94 % -0.25 C
2085 29-01-2019 05:40:00 0.6 C 94 % -0.25 C
2086 29-01-2019 05:45:00 0.7 C 95 % -0.01 C
2087 29-01-2019 05:50:00 0.7 C 95 % -0.01 C
2088 29-01-2019 05:55:00 0.8 C 95 % 0.09 C
2089 29-01-2019 06:00:00 0.9 C 95 % 0.19 C
2090 29-01-2019 06:05:00 1 C 95 % 0.29 C
2091 29-01-2019 06:10:00 1 C 95 % 0.29 C
2092 29-01-2019 06:15:00 0.9 C 95 % 0.19 C
2093 29-01-2019 06:20:00 0.9 C 94 % 0.05 C
2094 29-01-2019 06:25:00 0.9 C 95 % 0.19 C
2095 29-01-2019 06:30:00 0.9 C 95 % 0.19 C
2096 29-01-2019 06:35:00 0.9 C 95 % 0.19 C
2097 29-01-2019 06:40:00 0.9 C 95 % 0.19 C
2098 29-01-2019 06:45:00 1 C 95 % 0.29 C
2099 29-01-2019 06:50:00 1 C 95 % 0.29 C
2100 29-01-2019 06:55:00 1.1 C 94 % 0.24 C
Sensor: Nr:Datum:Temp:Feuchte:Taupunkt:
Aussen-T/F 2101 29-01-2019 07:00:00 1.1 C 94 % 0.24 C
2102 29-01-2019 07:05:00 1.1 C 94 % 0.24 C
2103 29-01-2019 07:10:00 1.1 C 94 % 0.24 C
2104 29-01-2019 07:15:00 1.1 C 94 % 0.24 C
2105 29-01-2019 07:20:00 1.2 C 94 % 0.34 C
2106 29-01-2019 07:25:00 1.1 C 94 % 0.24 C
2107 29-01-2019 07:30:00 1.1 C 94 % 0.24 C
2108 29-01-2019 07:35:00 1.2 C 94 % 0.34 C
2109 29-01-2019 07:40:00 1.2 C 94 % 0.34 C
2110 29-01-2019 07:45:00 1.2 C 95 % 0.49 C
2111 29-01-2019 07:50:00 1.2 C 94 % 0.34 C
2112 29-01-2019 07:55:00 1.2 C 94 % 0.34 C
2113 29-01-2019 08:00:00 1.2 C 94 % 0.34 C
2114 29-01-2019 08:05:00 1.2 C 94 % 0.34 C
2115 29-01-2019 08:10:00 1.2 C 94 % 0.34 C
2116 29-01-2019 08:15:00 1.2 C 94 % 0.34 C
2117 29-01-2019 08:20:00 1.2 C 94 % 0.34 C
2118 29-01-2019 08:25:00 1.2 C 94 % 0.34 C
2119 29-01-2019 08:30:00 1.2 C 94 % 0.34 C
2120 29-01-2019 08:35:00 1.2 C 94 % 0.34 C
2121 29-01-2019 08:40:00 1.2 C 94 % 0.34 C
2122 29-01-2019 08:45:00 1.2 C 94 % 0.34 C
2123 29-01-2019 08:50:00 1.1 C 94 % 0.24 C
2124 29-01-2019 08:55:00 1.1 C 94 % 0.24 C
2125 29-01-2019 09:00:00 1 C 94 % 0.15 C
Sensor: Nr:Datum:Temp:Feuchte:Taupunkt:
Aussen-T/F 2126 29-01-2019 09:05:00 0.9 C 94 % 0.05 C
2127 29-01-2019 09:10:00 0.9 C 94 % 0.05 C
2128 29-01-2019 09:15:00 0.8 C 94 % -0.05 C
2129 29-01-2019 09:20:00 0.8 C 94 % -0.05 C
2130 29-01-2019 09:25:00 0.8 C 94 % -0.05 C
2131 29-01-2019 09:30:00 0.9 C 94 % 0.05 C
2132 29-01-2019 09:35:00 0.9 C 94 % 0.05 C
2133 29-01-2019 09:40:00 1.1 C 94 % 0.24 C
2134 29-01-2019 09:45:00 1.2 C 94 % 0.34 C
2135 29-01-2019 09:50:00 1.3 C 94 % 0.44 C
2136 29-01-2019 09:55:00 1.5 C 94 % 0.64 C
2137 29-01-2019 10:00:00 1.6 C 93 % 0.59 C
2138 29-01-2019 10:05:00 1.7 C 93 % 0.69 C
2139 29-01-2019 10:10:00 1.8 C 92 % 0.64 C
2140 29-01-2019 10:15:00 1.9 C 92 % 0.74 C
2141 29-01-2019 10:20:00 2 C 92 % 0.84 C
2142 29-01-2019 10:25:00 2.1 C 91 % 0.79 C
2143 29-01-2019 10:30:00 2.2 C 91 % 0.89 C
2144 29-01-2019 10:35:00 2.2 C 90 % 0.73 C
2145 29-01-2019 10:40:00 2.3 C 90 % 0.83 C
2146 29-01-2019 10:45:00 2.3 C 90 % 0.83 C
2147 29-01-2019 10:50:00 2.3 C 89 % 0.68 C
2148 29-01-2019 10:55:00 2.4 C 89 % 0.78 C
2149 29-01-2019 11:00:00 2.5 C 89 % 0.88 C
2150 29-01-2019 11:05:00 2.6 C 89 % 0.97 C
Sensor: Nr:Datum:Temp:Feuchte:Taupunkt:
Aussen-T/F 2151 29-01-2019 11:10:00 2.7 C 88 % 0.92 C
2152 29-01-2019 11:15:00 2.8 C 88 % 1.02 C
2153 29-01-2019 11:20:00 2.8 C 88 % 1.02 C
2154 29-01-2019 11:25:00 2.9 C 88 % 1.11 C
2155 29-01-2019 11:30:00 2.9 C 88 % 1.11 C
2156 29-01-2019 11:35:00 3 C 88 % 1.21 C
2157 29-01-2019 11:40:00 3.1 C 87 % 1.15 C
2158 29-01-2019 11:45:00 3.2 C 87 % 1.25 C
2159 29-01-2019 11:50:00 3.2 C 87 % 1.25 C
2160 29-01-2019 11:55:00 3.3 C 87 % 1.35 C
2161 29-01-2019 12:00:00 3.4 C 86 % 1.29 C
2162 29-01-2019 12:05:00 3.4 C 86 % 1.29 C
2163 29-01-2019 12:10:00 3.5 C 86 % 1.38 C
2164 29-01-2019 12:15:00 3.5 C 86 % 1.38 C
2165 29-01-2019 12:20:00 3.6 C 86 % 1.48 C
2166 29-01-2019 12:25:00 3.6 C 86 % 1.48 C
2167 29-01-2019 12:30:00 3.7 C 86 % 1.58 C
2168 29-01-2019 12:35:00 3.7 C 85 % 1.42 C
2169 29-01-2019 12:40:00 3.8 C 85 % 1.52 C
2170 29-01-2019 12:45:00 3.8 C 84 % 1.35 C
2171 29-01-2019 12:50:00 3.8 C 84 % 1.35 C
2172 29-01-2019 12:55:00 3.8 C 84 % 1.35 C
2173 29-01-2019 13:00:00 3.8 C 84 % 1.35 C
2174 29-01-2019 13:05:00 3.9 C 84 % 1.45 C
2175 29-01-2019 13:10:00 3.9 C 84 % 1.45 C
Sensor: Nr:Datum:Temp:Feuchte:Taupunkt:
Aussen-T/F 2176 29-01-2019 13:15:00 4 C 84 % 1.55 C
2177 29-01-2019 13:20:00 4 C 84 % 1.55 C
2178 29-01-2019 13:25:00 3.9 C 84 % 1.45 C
2179 29-01-2019 13:30:00 4 C 84 % 1.55 C
2180 29-01-2019 13:35:00 4 C 84 % 1.55 C
2181 29-01-2019 13:40:00 4.1 C 84 % 1.65 C
2182 29-01-2019 13:45:00 4 C 84 % 1.55 C
2183 29-01-2019 13:50:00 4 C 83 % 1.38 C
2184 29-01-2019 13:55:00 4 C 84 % 1.55 C
2185 29-01-2019 14:00:00 4 C 83 % 1.38 C
2186 29-01-2019 14:05:00 4.1 C 83 % 1.48 C
2187 29-01-2019 14:10:00 4 C 83 % 1.38 C
2188 29-01-2019 14:15:00 4 C 83 % 1.38 C
2189 29-01-2019 14:20:00 3.9 C 82 % 1.12 C
2190 29-01-2019 14:25:00 3.9 C 83 % 1.28 C
2191 29-01-2019 14:30:00 3.8 C 83 % 1.19 C
2192 29-01-2019 14:35:00 3.7 C 83 % 1.09 C
2193 29-01-2019 14:40:00 3.7 C 83 % 1.09 C
2194 29-01-2019 14:45:00 3.7 C 83 % 1.09 C
2195 29-01-2019 14:50:00 3.7 C 82 % 0.92 C
2196 29-01-2019 14:55:00 3.7 C 82 % 0.92 C
2197 29-01-2019 15:00:00 3.7 C 81 % 0.75 C
2198 29-01-2019 15:05:00 3.7 C 82 % 0.92 C
2199 29-01-2019 15:10:00 3.7 C 82 % 0.92 C
2200 29-01-2019 15:15:00 3.7 C 82 % 0.92 C
Sensor: Nr:Datum:Temp:Feuchte:Taupunkt:
Aussen-T/F 2201 29-01-2019 15:20:00 3.8 C 81 % 0.85 C
2202 29-01-2019 15:25:00 3.8 C 82 % 1.02 C
2203 29-01-2019 15:30:00 3.8 C 82 % 1.02 C
2204 29-01-2019 15:35:00 3.8 C 82 % 1.02 C
2205 29-01-2019 15:40:00 3.9 C 81 % 0.95 C
2206 29-01-2019 15:45:00 3.9 C 81 % 0.95 C
2207 29-01-2019 15:50:00 3.9 C 81 % 0.95 C
2208 29-01-2019 15:55:00 3.9 C 81 % 0.95 C
2209 29-01-2019 16:00:00 4 C 81 % 1.04 C
2210 29-01-2019 16:05:00 3.9 C 80 % 0.77 C
2211 29-01-2019 16:10:00 3.9 C 81 % 0.95 C
2212 29-01-2019 16:15:00 3.9 C 80 % 0.77 C
2213 29-01-2019 16:20:00 3.9 C 80 % 0.77 C
2214 29-01-2019 16:25:00 3.8 C 81 % 0.85 C
2215 29-01-2019 16:30:00 3.8 C 83 % 1.19 C
2216 29-01-2019 16:35:00 3.7 C 81 % 0.75 C
2217 29-01-2019 16:40:00 3.7 C 83 % 1.09 C
2218 29-01-2019 16:45:00 3.6 C 83 % 0.99 C
2219 29-01-2019 16:50:00 3.6 C 83 % 0.99 C
2220 29-01-2019 16:55:00 3.4 C 83 % 0.79 C
2221 29-01-2019 17:00:00 3.4 C 84 % 0.96 C
2222 29-01-2019 17:05:00 3.2 C 84 % 0.76 C
2223 29-01-2019 17:10:00 3.1 C 83 % 0.5 C
2224 29-01-2019 17:15:00 2.9 C 83 % 0.31 C
2225 29-01-2019 17:20:00 2.9 C 84 % 0.47 C
Sensor: Nr:Datum:Temp:Feuchte:Taupunkt:
Aussen-T/F 2226 29-01-2019 17:25:00 2.8 C 84 % 0.37 C
2227 29-01-2019 17:30:00 2.7 C 84 % 0.27 C
2228 29-01-2019 17:35:00 2.7 C 85 % 0.44 C
2229 29-01-2019 17:40:00 2.6 C 86 % 0.5 C
2230 29-01-2019 17:45:00 2.4 C 86 % 0.3 C
2231 29-01-2019 17:50:00 2.4 C 86 % 0.3 C
2232 29-01-2019 17:55:00 2.3 C 86 % 0.21 C
2233 29-01-2019 18:00:00 2.2 C 86 % 0.11 C
2234 29-01-2019 18:05:00 2 C 86 % -0.09 C
2235 29-01-2019 18:10:00 1.8 C 86 % -0.29 C
2236 29-01-2019 18:15:00 1.7 C 86 % -0.38 C
2237 29-01-2019 18:20:00 1.4 C 87 % -0.52 C
2238 29-01-2019 18:25:00 1.3 C 87 % -0.62 C
2239 29-01-2019 18:30:00 1.1 C 87 % -0.82 C
2240 29-01-2019 18:35:00 1 C 88 % -0.76 C
2241 29-01-2019 18:40:00 0.9 C 88 % -0.86 C
2242 29-01-2019 18:45:00 0.8 C 88 % -0.96 C
2243 29-01-2019 18:50:00 0.7 C 89 % -0.9 C
2244 29-01-2019 18:55:00 0.7 C 89 % -0.9 C
2245 29-01-2019 19:00:00 0.6 C 89 % -1 C
2246 29-01-2019 19:05:00 0.6 C 90 % -0.85 C
2247 29-01-2019 19:10:00 0.5 C 90 % -0.95 C
2248 29-01-2019 19:15:00 0.5 C 90 % -0.95 C
2249 29-01-2019 19:20:00 0.4 C 90 % -1.04 C
2250 29-01-2019 19:25:00 0.3 C 90 % -1.14 C
Sensor: Nr:Datum:Temp:Feuchte:Taupunkt:
Aussen-T/F 2251 29-01-2019 19:30:00 0.2 C 90 % -1.24 C
2252 29-01-2019 19:35:00 0.1 C 90 % -1.34 C
2253 29-01-2019 19:40:00 0.1 C 90 % -1.34 C
2254 29-01-2019 19:45:00 0 C 90 % -1.44 C
2255 29-01-2019 19:50:00 -0.1 C 90 % -1.54 C
2256 29-01-2019 19:55:00 -0.1 C 90 % -1.54 C
2257 29-01-2019 20:00:00 -0.1 C 91 % -1.39 C
2258 29-01-2019 20:05:00 -0.2 C 90 % -1.64 C
2259 29-01-2019 20:10:00 -0.2 C 91 % -1.49 C
2260 29-01-2019 20:15:00 -0.2 C 91 % -1.49 C
2261 29-01-2019 20:20:00 -0.3 C 91 % -1.59 C
2262 29-01-2019 20:25:00 -0.3 C 91 % -1.59 C
2263 29-01-2019 20:30:00 -0.3 C 91 % -1.59 C
2264 29-01-2019 20:35:00 -0.3 C 91 % -1.59 C
2265 29-01-2019 20:40:00 -0.3 C 91 % -1.59 C
2266 29-01-2019 20:45:00 -0.3 C 91 % -1.59 C
2267 29-01-2019 20:50:00 -0.3 C 91 % -1.59 C
2268 29-01-2019 20:55:00 -0.3 C 91 % -1.59 C
2269 29-01-2019 21:00:00 -0.3 C 91 % -1.59 C
2270 29-01-2019 21:05:00 -0.3 C 91 % -1.59 C
2271 29-01-2019 21:10:00 -0.3 C 91 % -1.59 C
2272 29-01-2019 21:15:00 -0.3 C 91 % -1.59 C
2273 29-01-2019 21:20:00 -0.3 C 91 % -1.59 C
2274 29-01-2019 21:25:00 -0.3 C 91 % -1.59 C
2275 29-01-2019 21:30:00 -0.3 C 91 % -1.59 C
Sensor: Nr:Datum:Temp:Feuchte:Taupunkt:
Aussen-T/F 2276 29-01-2019 21:35:00 -0.3 C 91 % -1.59 C
2277 29-01-2019 21:40:00 -0.3 C 91 % -1.59 C
2278 29-01-2019 21:45:00 -0.3 C 91 % -1.59 C
2279 29-01-2019 21:50:00 -0.3 C 91 % -1.59 C
2280 29-01-2019 21:55:00 -0.3 C 91 % -1.59 C
2281 29-01-2019 22:00:00 -0.3 C 91 % -1.59 C
2282 29-01-2019 22:05:00 -0.3 C 91 % -1.59 C
2283 29-01-2019 22:10:00 -0.3 C 91 % -1.59 C
2284 29-01-2019 22:15:00 -0.4 C 91 % -1.69 C
2285 29-01-2019 22:20:00 -0.4 C 91 % -1.69 C
2286 29-01-2019 22:25:00 -0.4 C 91 % -1.69 C
2287 29-01-2019 22:30:00 -0.4 C 91 % -1.69 C
2288 29-01-2019 22:35:00 -0.4 C 91 % -1.69 C
2289 29-01-2019 22:40:00 -0.4 C 91 % -1.69 C
2290 29-01-2019 22:45:00 -0.4 C 92 % -1.54 C
2291 29-01-2019 22:50:00 -0.4 C 92 % -1.54 C
2292 29-01-2019 22:55:00 -0.4 C 92 % -1.54 C
2293 29-01-2019 23:00:00 -0.4 C 92 % -1.54 C
2294 29-01-2019 23:05:00 -0.5 C 92 % -1.64 C
2295 29-01-2019 23:10:00 -0.5 C 92 % -1.64 C
2296 29-01-2019 23:15:00 -0.5 C 92 % -1.64 C
2297 29-01-2019 23:20:00 -0.5 C 92 % -1.64 C
2298 29-01-2019 23:25:00 -0.6 C 92 % -1.74 C
2299 29-01-2019 23:30:00 -0.6 C 92 % -1.74 C
2300 29-01-2019 23:35:00 -0.6 C 92 % -1.74 C
Sensor: Nr:Datum:Temp:Feuchte:Taupunkt:
Aussen-T/F 2301 29-01-2019 23:40:00 -0.6 C 93 % -1.59 C
2302 29-01-2019 23:45:00 -0.6 C 93 % -1.59 C
2303 29-01-2019 23:50:00 -0.6 C 93 % -1.59 C
2304 29-01-2019 23:55:00 -0.6 C 93 % -1.59 C
2305 30-01-2019 00:00:00 -0.6 C 93 % -1.59 C
2306 30-01-2019 00:05:00 -0.6 C 93 % -1.59 C
2307 30-01-2019 00:10:00 -0.6 C 93 % -1.59 C
2308 30-01-2019 00:15:00 -0.6 C 93 % -1.59 C
2309 30-01-2019 00:20:00 -0.7 C 93 % -1.69 C
2310 30-01-2019 00:25:00 -0.5 C 93 % -1.49 C
2311 30-01-2019 00:30:00 -0.4 C 93 % -1.39 C
2312 30-01-2019 00:35:00 -0.4 C 93 % -1.39 C
2313 30-01-2019 00:40:00 -0.5 C 93 % -1.49 C
2314 30-01-2019 00:45:00 -0.5 C 93 % -1.49 C
2315 30-01-2019 00:50:00 -0.6 C 93 % -1.59 C
2316 30-01-2019 00:55:00 -0.6 C 93 % -1.59 C
2317 30-01-2019 01:00:00 -0.6 C 93 % -1.59 C
2318 30-01-2019 01:05:00 -0.6 C 93 % -1.59 C
2319 30-01-2019 01:10:00 -0.6 C 93 % -1.59 C
2320 30-01-2019 01:15:00 -0.7 C 93 % -1.69 C
2321 30-01-2019 01:20:00 -0.7 C 93 % -1.69 C
2322 30-01-2019 01:25:00 -0.7 C 93 % -1.69 C
2323 30-01-2019 01:30:00 -0.7 C 93 % -1.69 C
2324 30-01-2019 01:35:00 -0.7 C 93 % -1.69 C
2325 30-01-2019 01:40:00 -0.7 C 93 % -1.69 C
Sensor: Nr:Datum:Temp:Feuchte:Taupunkt:
Aussen-T/F 2326 30-01-2019 01:45:00 -0.7 C 93 % -1.69 C
2327 30-01-2019 01:50:00 -0.7 C 93 % -1.69 C
2328 30-01-2019 01:55:00 -0.7 C 93 % -1.69 C
2329 30-01-2019 02:00:00 -0.7 C 93 % -1.69 C
2330 30-01-2019 02:05:00 -0.8 C 93 % -1.79 C
2331 30-01-2019 02:10:00 -0.7 C 93 % -1.69 C
2332 30-01-2019 02:15:00 -0.8 C 93 % -1.79 C
2333 30-01-2019 02:20:00 -0.7 C 93 % -1.69 C
2334 30-01-2019 02:25:00 -0.7 C 93 % -1.69 C
2335 30-01-2019 02:30:00 -0.7 C 93 % -1.69 C
2336 30-01-2019 02:35:00 -0.7 C 93 % -1.69 C
2337 30-01-2019 02:40:00 -0.6 C 93 % -1.59 C
2338 30-01-2019 02:45:00 -0.6 C 93 % -1.59 C
2339 30-01-2019 02:50:00 -0.6 C 93 % -1.59 C
2340 30-01-2019 02:55:00 -0.6 C 93 % -1.59 C
2341 30-01-2019 03:00:00 -0.7 C 93 % -1.69 C
2342 30-01-2019 03:05:00 -0.7 C 93 % -1.69 C
2343 30-01-2019 03:10:00 -0.7 C 93 % -1.69 C
2344 30-01-2019 03:15:00 -0.8 C 92 % -1.93 C
2345 30-01-2019 03:20:00 -0.8 C 93 % -1.79 C
2346 30-01-2019 03:25:00 -0.8 C 93 % -1.79 C
2347 30-01-2019 03:30:00 -0.8 C 92 % -1.93 C
2348 30-01-2019 03:35:00 -0.8 C 92 % -1.93 C
2349 30-01-2019 03:40:00 -0.8 C 92 % -1.93 C
2350 30-01-2019 03:45:00 -0.9 C 92 % -2.03 C
Sensor: Nr:Datum:Temp:Feuchte:Taupunkt:
Aussen-T/F 2351 30-01-2019 03:50:00 -0.9 C 92 % -2.03 C
2352 30-01-2019 03:55:00 -0.9 C 92 % -2.03 C
2353 30-01-2019 04:00:00 -0.9 C 92 % -2.03 C
2354 30-01-2019 04:05:00 -0.9 C 92 % -2.03 C
2355 30-01-2019 04:10:00 -0.9 C 92 % -2.03 C
2356 30-01-2019 04:15:00 -0.9 C 92 % -2.03 C
2357 30-01-2019 04:20:00 -0.9 C 93 % -1.89 C
2358 30-01-2019 04:25:00 -0.9 C 93 % -1.89 C
2359 30-01-2019 04:30:00 -0.9 C 93 % -1.89 C
2360 30-01-2019 04:35:00 -0.9 C 93 % -1.89 C
2361 30-01-2019 04:40:00 -0.9 C 93 % -1.89 C
2362 30-01-2019 04:45:00 -0.8 C 93 % -1.79 C
2363 30-01-2019 04:50:00 -0.8 C 93 % -1.79 C
2364 30-01-2019 04:55:00 -0.8 C 93 % -1.79 C
2365 30-01-2019 05:00:00 -0.7 C 93 % -1.69 C
2366 30-01-2019 05:05:00 -0.7 C 92 % -1.83 C
2367 30-01-2019 05:10:00 -0.6 C 92 % -1.74 C
2368 30-01-2019 05:15:00 -0.6 C 92 % -1.74 C
2369 30-01-2019 05:20:00 -0.6 C 92 % -1.74 C
2370 30-01-2019 05:25:00 -0.6 C 92 % -1.74 C
2371 30-01-2019 05:30:00 -0.5 C 92 % -1.64 C
2372 30-01-2019 05:35:00 -0.5 C 92 % -1.64 C
2373 30-01-2019 05:40:00 -0.4 C 92 % -1.54 C
2374 30-01-2019 05:45:00 -0.4 C 92 % -1.54 C
2375 30-01-2019 05:50:00 -0.3 C 92 % -1.44 C
Sensor: Nr:Datum:Temp:Feuchte:Taupunkt:
Aussen-T/F 2376 30-01-2019 05:55:00 -0.3 C 91 % -1.59 C
2377 30-01-2019 06:00:00 -0.3 C 91 % -1.59 C
2378 30-01-2019 06:05:00 -0.2 C 91 % -1.49 C
2379 30-01-2019 06:10:00 -0.2 C 91 % -1.49 C
2380 30-01-2019 06:15:00 -0.2 C 91 % -1.49 C
2381 30-01-2019 06:20:00 -0.2 C 91 % -1.49 C
2382 30-01-2019 06:25:00 -0.1 C 91 % -1.39 C
2383 30-01-2019 06:30:00 -0.1 C 91 % -1.39 C
2384 30-01-2019 06:35:00 -0.1 C 90 % -1.54 C
2385 30-01-2019 06:40:00 -0.1 C 90 % -1.54 C
2386 30-01-2019 06:45:00 0 C 90 % -1.44 C
2387 30-01-2019 06:50:00 0.1 C 90 % -1.34 C
2388 30-01-2019 06:55:00 0.1 C 90 % -1.34 C
2389 30-01-2019 07:00:00 0.2 C 89 % -1.39 C
2390 30-01-2019 07:05:00 0.2 C 89 % -1.39 C
2391 30-01-2019 07:10:00 0.3 C 88 % -1.45 C
2392 30-01-2019 07:15:00 0.3 C 88 % -1.45 C
2393 30-01-2019 07:20:00 0.3 C 88 % -1.45 C
2394 30-01-2019 07:25:00 0.3 C 88 % -1.45 C
2395 30-01-2019 07:30:00 0.4 C 88 % -1.35 C
2396 30-01-2019 07:35:00 0.3 C 88 % -1.45 C
2397 30-01-2019 07:40:00 0.3 C 88 % -1.45 C
2398 30-01-2019 07:45:00 0.4 C 89 % -1.2 C
2399 30-01-2019 07:50:00 0.4 C 89 % -1.2 C
2400 30-01-2019 07:55:00 0.3 C 90 % -1.14 C
Sensor: Nr:Datum:Temp:Feuchte:Taupunkt:
Aussen-T/F 2401 30-01-2019 08:00:00 0.3 C 90 % -1.14 C
2402 30-01-2019 08:05:00 0.3 C 90 % -1.14 C
2403 30-01-2019 08:10:00 0.3 C 91 % -0.99 C
2404 30-01-2019 08:15:00 0.2 C 91 % -1.09 C
2405 30-01-2019 08:20:00 0.2 C 91 % -1.09 C
2406 30-01-2019 08:25:00 0.2 C 92 % -0.94 C
2407 30-01-2019 08:30:00 0.1 C 92 % -1.04 C
2408 30-01-2019 08:35:00 0.1 C 92 % -1.04 C
2409 30-01-2019 08:40:00 0.1 C 92 % -1.04 C
2410 30-01-2019 08:45:00 0.1 C 93 % -0.89 C
2411 30-01-2019 08:50:00 0.1 C 93 % -0.89 C
2412 30-01-2019 08:55:00 0 C 93 % -0.99 C
2413 30-01-2019 09:00:00 0 C 93 % -0.99 C
2414 30-01-2019 09:05:00 0 C 93 % -0.99 C
2415 30-01-2019 09:10:00 0 C 94 % -0.85 C
2416 30-01-2019 09:15:00 0 C 94 % -0.85 C
2417 30-01-2019 09:20:00 0 C 94 % -0.85 C
2418 30-01-2019 09:25:00 0 C 94 % -0.85 C
2419 30-01-2019 09:30:00 0 C 94 % -0.85 C
2420 30-01-2019 09:35:00 0 C 94 % -0.85 C
2421 30-01-2019 09:40:00 0 C 94 % -0.85 C
2422 30-01-2019 09:45:00 0.1 C 94 % -0.75 C
2423 30-01-2019 09:50:00 0.1 C 94 % -0.75 C
2424 30-01-2019 09:55:00 0.1 C 94 % -0.75 C
2425 30-01-2019 10:00:00 0.1 C 94 % -0.75 C
Sensor: Nr:Datum:Temp:Feuchte:Taupunkt:
Aussen-T/F 2426 30-01-2019 10:05:00 0.1 C 94 % -0.75 C
2427 30-01-2019 10:10:00 0.1 C 94 % -0.75 C
2428 30-01-2019 10:15:00 0.2 C 94 % -0.65 C
2429 30-01-2019 10:20:00 0.2 C 94 % -0.65 C
2430 30-01-2019 10:25:00 0.3 C 94 % -0.55 C
2431 30-01-2019 10:30:00 0.3 C 94 % -0.55 C
2432 30-01-2019 10:35:00 0.4 C 94 % -0.45 C
2433 30-01-2019 10:40:00 0.4 C 94 % -0.45 C
2434 30-01-2019 10:45:00 0.4 C 94 % -0.45 C
2435 30-01-2019 10:50:00 0.5 C 94 % -0.35 C
2436 30-01-2019 10:55:00 0.6 C 94 % -0.25 C
2437 30-01-2019 11:00:00 0.6 C 94 % -0.25 C
2438 30-01-2019 11:05:00 0.7 C 94 % -0.15 C
2439 30-01-2019 11:10:00 0.7 C 94 % -0.15 C
2440 30-01-2019 11:15:00 0.8 C 94 % -0.05 C
2441 30-01-2019 11:20:00 0.8 C 94 % -0.05 C
2442 30-01-2019 11:25:00 0.8 C 94 % -0.05 C
2443 30-01-2019 11:30:00 0.9 C 94 % 0.05 C
2444 30-01-2019 11:35:00 0.9 C 94 % 0.05 C
2445 30-01-2019 11:40:00 0.9 C 94 % 0.05 C
2446 30-01-2019 11:45:00 0.9 C 94 % 0.05 C
2447 30-01-2019 11:50:00 0.9 C 94 % 0.05 C
2448 30-01-2019 11:55:00 1 C 94 % 0.15 C
2449 30-01-2019 12:00:00 1.1 C 94 % 0.24 C
2450 30-01-2019 12:05:00 1.1 C 94 % 0.24 C
Sensor: Nr:Datum:Temp:Feuchte:Taupunkt:
Aussen-T/F 2451 30-01-2019 12:10:00 1.2 C 94 % 0.34 C
2452 30-01-2019 12:15:00 1.2 C 94 % 0.34 C
2453 30-01-2019 12:20:00 1.3 C 95 % 0.59 C
2454 30-01-2019 12:25:00 1.4 C 94 % 0.54 C
2455 30-01-2019 12:30:00 1.4 C 94 % 0.54 C
2456 30-01-2019 12:35:00 1.5 C 94 % 0.64 C
2457 30-01-2019 12:40:00 1.6 C 94 % 0.74 C
2458 30-01-2019 12:45:00 1.7 C 94 % 0.84 C
2459 30-01-2019 12:50:00 1.7 C 94 % 0.84 C
2460 30-01-2019 12:55:00 1.7 C 94 % 0.84 C
2461 30-01-2019 13:00:00 1.7 C 94 % 0.84 C
2462 30-01-2019 13:05:00 1.7 C 94 % 0.84 C
2463 30-01-2019 13:10:00 1.6 C 94 % 0.74 C
2464 30-01-2019 13:15:00 1.6 C 94 % 0.74 C
2465 30-01-2019 13:20:00 1.6 C 94 % 0.74 C
2466 30-01-2019 13:25:00 1.6 C 94 % 0.74 C
2467 30-01-2019 13:30:00 1.7 C 94 % 0.84 C
2468 30-01-2019 13:35:00 1.7 C 94 % 0.84 C
2469 30-01-2019 13:40:00 1.7 C 94 % 0.84 C
2470 30-01-2019 13:45:00 1.7 C 94 % 0.84 C
2471 30-01-2019 13:50:00 1.7 C 94 % 0.84 C
2472 30-01-2019 13:55:00 1.7 C 94 % 0.84 C
2473 30-01-2019 14:00:00 1.7 C 94 % 0.84 C
2474 30-01-2019 14:05:00 1.8 C 94 % 0.94 C
2475 30-01-2019 14:10:00 1.8 C 94 % 0.94 C
Sensor: Nr:Datum:Temp:Feuchte:Taupunkt:
Aussen-T/F 2476 30-01-2019 14:15:00 1.8 C 93 % 0.79 C
2477 30-01-2019 14:20:00 1.7 C 93 % 0.69 C
2478 30-01-2019 14:25:00 1.7 C 93 % 0.69 C
2479 30-01-2019 14:30:00 1.7 C 94 % 0.84 C
2480 30-01-2019 14:35:00 1.7 C 94 % 0.84 C
2481 30-01-2019 14:40:00 1.7 C 94 % 0.84 C
2482 30-01-2019 14:45:00 1.7 C 94 % 0.84 C
2483 30-01-2019 14:50:00 1.6 C 94 % 0.74 C
2484 30-01-2019 14:55:00 1.6 C 94 % 0.74 C
2485 30-01-2019 15:00:00 1.6 C 94 % 0.74 C
2486 30-01-2019 15:05:00 1.6 C 94 % 0.74 C
2487 30-01-2019 15:10:00 1.6 C 94 % 0.74 C
2488 30-01-2019 15:15:00 1.6 C 94 % 0.74 C
2489 30-01-2019 15:20:00 1.5 C 94 % 0.64 C
2490 30-01-2019 15:25:00 1.4 C 94 % 0.54 C
2491 30-01-2019 15:30:00 1.4 C 94 % 0.54 C
2492 30-01-2019 15:35:00 1.4 C 94 % 0.54 C
2493 30-01-2019 15:40:00 1.5 C 94 % 0.64 C
2494 30-01-2019 15:45:00 1.4 C 94 % 0.54 C
2495 30-01-2019 15:50:00 1.4 C 94 % 0.54 C
2496 30-01-2019 15:55:00 1.3 C 94 % 0.44 C
2497 30-01-2019 16:00:00 1.3 C 94 % 0.44 C
2498 30-01-2019 16:05:00 1.3 C 94 % 0.44 C
2499 30-01-2019 16:10:00 1.2 C 94 % 0.34 C
2500 30-01-2019 16:15:00 1.2 C 95 % 0.49 C
Sensor: Nr:Datum:Temp:Feuchte:Taupunkt:
Aussen-T/F 2501 30-01-2019 16:20:00 1.2 C 95 % 0.49 C
2502 30-01-2019 16:25:00 1.1 C 95 % 0.39 C
2503 30-01-2019 16:30:00 1.1 C 95 % 0.39 C
2504 30-01-2019 16:35:00 1.1 C 95 % 0.39 C
2505 30-01-2019 16:40:00 1.1 C 95 % 0.39 C
2506 30-01-2019 16:45:00 1.1 C 95 % 0.39 C
2507 30-01-2019 16:50:00 1.1 C 95 % 0.39 C
2508 30-01-2019 16:55:00 1.1 C 95 % 0.39 C
2509 30-01-2019 17:00:00 1.1 C 95 % 0.39 C
2510 30-01-2019 17:05:00 1.1 C 95 % 0.39 C
2511 30-01-2019 17:10:00 1.1 C 95 % 0.39 C
2512 30-01-2019 17:15:00 1.1 C 95 % 0.39 C
2513 30-01-2019 17:20:00 1.1 C 95 % 0.39 C
2514 30-01-2019 17:25:00 1.1 C 95 % 0.39 C
2515 30-01-2019 17:30:00 1.1 C 95 % 0.39 C
2516 30-01-2019 17:35:00 1.1 C 95 % 0.39 C
2517 30-01-2019 17:40:00 1.1 C 95 % 0.39 C
2518 30-01-2019 17:45:00 1.1 C 95 % 0.39 C
2519 30-01-2019 17:50:00 1.1 C 95 % 0.39 C
2520 30-01-2019 17:55:00 1.1 C 95 % 0.39 C
2521 30-01-2019 18:00:00 1.1 C 95 % 0.39 C
2522 30-01-2019 18:05:00 1.1 C 95 % 0.39 C
2523 30-01-2019 18:10:00 1.1 C 95 % 0.39 C
2524 30-01-2019 18:15:00 1 C 95 % 0.29 C
2525 30-01-2019 18:20:00 1.1 C 95 % 0.39 C
Sensor: Nr:Datum:Temp:Feuchte:Taupunkt:
Aussen-T/F 2526 30-01-2019 18:25:00 1 C 95 % 0.29 C
2527 30-01-2019 18:30:00 1.1 C 95 % 0.39 C
2528 30-01-2019 18:35:00 1 C 95 % 0.29 C
2529 30-01-2019 18:40:00 1.1 C 95 % 0.39 C
2530 30-01-2019 18:45:00 1.1 C 95 % 0.39 C
2531 30-01-2019 18:50:00 1.1 C 95 % 0.39 C
2532 30-01-2019 18:55:00 1.1 C 95 % 0.39 C
2533 30-01-2019 19:00:00 1.1 C 95 % 0.39 C
2534 30-01-2019 19:05:00 1.1 C 95 % 0.39 C
2535 30-01-2019 19:10:00 1.1 C 95 % 0.39 C
2536 30-01-2019 19:15:00 1.1 C 96 % 0.54 C
2537 30-01-2019 19:20:00 1.1 C 96 % 0.54 C
2538 30-01-2019 19:25:00 1.1 C 96 % 0.54 C
2539 30-01-2019 19:30:00 1.1 C 96 % 0.54 C
2540 30-01-2019 19:35:00 1.1 C 96 % 0.54 C
2541 30-01-2019 19:40:00 1.1 C 96 % 0.54 C
2542 30-01-2019 19:45:00 1.1 C 96 % 0.54 C
2543 30-01-2019 19:50:00 1 C 96 % 0.44 C
2544 30-01-2019 19:55:00 1 C 96 % 0.44 C
2545 30-01-2019 20:00:00 1 C 96 % 0.44 C
2546 30-01-2019 20:05:00 1 C 96 % 0.44 C
2547 30-01-2019 20:10:00 1 C 96 % 0.44 C
2548 30-01-2019 20:15:00 1 C 96 % 0.44 C
2549 30-01-2019 20:20:00 1.1 C 96 % 0.54 C
2550 30-01-2019 20:25:00 1.1 C 96 % 0.54 C
Sensor: Nr:Datum:Temp:Feuchte:Taupunkt:
Aussen-T/F 2551 30-01-2019 20:30:00 1.1 C 96 % 0.54 C
2552 30-01-2019 20:35:00 1.1 C 96 % 0.54 C
2553 30-01-2019 20:40:00 1 C 95 % 0.29 C
2554 30-01-2019 20:45:00 1 C 95 % 0.29 C
2555 30-01-2019 20:50:00 1 C 95 % 0.29 C
2556 30-01-2019 20:55:00 1 C 95 % 0.29 C
2557 30-01-2019 21:00:00 1 C 94 % 0.15 C
2558 30-01-2019 21:05:00 1 C 94 % 0.15 C
2559 30-01-2019 21:10:00 1 C 94 % 0.15 C
2560 30-01-2019 21:15:00 1 C 94 % 0.15 C
2561 30-01-2019 21:20:00 1 C 94 % 0.15 C
2562 30-01-2019 21:25:00 1 C 94 % 0.15 C
2563 30-01-2019 21:30:00 1 C 94 % 0.15 C
2564 30-01-2019 21:35:00 0.9 C 94 % 0.05 C
2565 30-01-2019 21:40:00 0.9 C 94 % 0.05 C
2566 30-01-2019 21:45:00 0.9 C 94 % 0.05 C
2567 30-01-2019 21:50:00 0.9 C 94 % 0.05 C
2568 30-01-2019 21:55:00 0.9 C 94 % 0.05 C
2569 30-01-2019 22:00:00 0.8 C 94 % -0.05 C
2570 30-01-2019 22:05:00 0.8 C 93 % -0.2 C
2571 30-01-2019 22:10:00 0.8 C 93 % -0.2 C
2572 30-01-2019 22:15:00 0.8 C 93 % -0.2 C
2573 30-01-2019 22:20:00 0.7 C 93 % -0.3 C
2574 30-01-2019 22:25:00 0.7 C 93 % -0.3 C
2575 30-01-2019 22:30:00 0.7 C 93 % -0.3 C
Sensor: Nr:Datum:Temp:Feuchte:Taupunkt:
Aussen-T/F 2576 30-01-2019 22:35:00 0.7 C 93 % -0.3 C
2577 30-01-2019 22:40:00 0.7 C 93 % -0.3 C
2578 30-01-2019 22:45:00 0.7 C 92 % -0.45 C
2579 30-01-2019 22:50:00 0.6 C 92 % -0.55 C
2580 30-01-2019 22:55:00 0.6 C 92 % -0.55 C
2581 30-01-2019 23:00:00 0.6 C 92 % -0.55 C
2582 30-01-2019 23:05:00 0.4 C 92 % -0.74 C
2583 30-01-2019 23:10:00 0.4 C 92 % -0.74 C
2584 30-01-2019 23:15:00 0.3 C 92 % -0.84 C
2585 30-01-2019 23:20:00 0.3 C 92 % -0.84 C
2586 30-01-2019 23:25:00 0.3 C 92 % -0.84 C
2587 30-01-2019 23:30:00 0.2 C 92 % -0.94 C
2588 30-01-2019 23:35:00 0.2 C 93 % -0.79 C
2589 30-01-2019 23:40:00 0.1 C 92 % -1.04 C
2590 30-01-2019 23:45:00 0.1 C 93 % -0.89 C
2591 30-01-2019 23:50:00 0 C 93 % -0.99 C
2592 30-01-2019 23:55:00 -0.1 C 93 % -1.09 C
2593 31-01-2019 00:00:00 -0.2 C 93 % -1.19 C
2594 31-01-2019 00:05:00 -0.2 C 93 % -1.19 C
2595 31-01-2019 00:10:00 -0.2 C 93 % -1.19 C
2596 31-01-2019 00:15:00 -0.2 C 93 % -1.19 C
2597 31-01-2019 00:20:00 -0.3 C 93 % -1.29 C
2598 31-01-2019 00:25:00 -0.3 C 93 % -1.29 C
2599 31-01-2019 00:30:00 -0.4 C 93 % -1.39 C
2600 31-01-2019 00:35:00 -0.4 C 93 % -1.39 C
Sensor: Nr:Datum:Temp:Feuchte:Taupunkt:
Aussen-T/F 2601 31-01-2019 00:40:00 -0.5 C 93 % -1.49 C
2602 31-01-2019 00:45:00 -0.6 C 93 % -1.59 C
2603 31-01-2019 00:50:00 -0.7 C 93 % -1.69 C
2604 31-01-2019 00:55:00 -0.8 C 93 % -1.79 C
2605 31-01-2019 01:00:00 -1 C 93 % -1.99 C
2606 31-01-2019 01:05:00 -1.1 C 93 % -2.09 C
2607 31-01-2019 01:10:00 -1.2 C 93 % -2.18 C
2608 31-01-2019 01:15:00 -1.3 C 93 % -2.28 C
2609 31-01-2019 01:20:00 -1.4 C 93 % -2.38 C
2610 31-01-2019 01:25:00 -1.4 C 94 % -2.24 C
2611 31-01-2019 01:30:00 -1.4 C 94 % -2.24 C
2612 31-01-2019 01:35:00 -1.4 C 94 % -2.24 C
2613 31-01-2019 01:40:00 -1.3 C 94 % -2.14 C
2614 31-01-2019 01:45:00 -1.2 C 95 % -1.9 C
2615 31-01-2019 01:50:00 -1.1 C 95 % -1.8 C
2616 31-01-2019 01:55:00 -1.1 C 95 % -1.8 C
2617 31-01-2019 02:00:00 -1.1 C 94 % -1.94 C
2618 31-01-2019 02:05:00 -1.2 C 94 % -2.04 C
2619 31-01-2019 02:10:00 -1.2 C 94 % -2.04 C
2620 31-01-2019 02:15:00 -1.2 C 94 % -2.04 C
2621 31-01-2019 02:20:00 -1.3 C 94 % -2.14 C
2622 31-01-2019 02:25:00 -1.3 C 95 % -2 C
2623 31-01-2019 02:30:00 -1.3 C 94 % -2.14 C
2624 31-01-2019 02:35:00 -1.3 C 95 % -2 C
2625 31-01-2019 02:40:00 -1.4 C 95 % -2.1 C
Sensor: Nr:Datum:Temp:Feuchte:Taupunkt:
Aussen-T/F 2626 31-01-2019 02:45:00 -1.4 C 95 % -2.1 C
2627 31-01-2019 02:50:00 -1.4 C 95 % -2.1 C
2628 31-01-2019 02:55:00 -1.4 C 95 % -2.1 C
2629 31-01-2019 03:00:00 -1.4 C 95 % -2.1 C
2630 31-01-2019 03:05:00 -1.4 C 95 % -2.1 C
2631 31-01-2019 03:10:00 -1.4 C 95 % -2.1 C
2632 31-01-2019 03:15:00 -1.4 C 95 % -2.1 C
2633 31-01-2019 03:20:00 -1.4 C 95 % -2.1 C
2634 31-01-2019 03:25:00 -1.4 C 95 % -2.1 C
2635 31-01-2019 03:30:00 -1.3 C 95 % -2 C
2636 31-01-2019 03:35:00 -1.3 C 95 % -2 C
2637 31-01-2019 03:40:00 -1.2 C 95 % -1.9 C
2638 31-01-2019 03:45:00 -1.2 C 95 % -1.9 C
2639 31-01-2019 03:50:00 -1.2 C 95 % -1.9 C
2640 31-01-2019 03:55:00 -1.1 C 95 % -1.8 C
2641 31-01-2019 04:00:00 -0.9 C 96 % -1.46 C
2642 31-01-2019 04:05:00 -0.9 C 96 % -1.46 C
2643 31-01-2019 04:10:00 -0.8 C 96 % -1.36 C
2644 31-01-2019 04:15:00 -0.8 C 96 % -1.36 C
2645 31-01-2019 04:20:00 -0.8 C 96 % -1.36 C
2646 31-01-2019 04:25:00 -0.8 C 96 % -1.36 C
2647 31-01-2019 04:30:00 -0.8 C 95 % -1.5 C
2648 31-01-2019 04:35:00 -0.8 C 95 % -1.5 C
2649 31-01-2019 04:40:00 -0.8 C 95 % -1.5 C
2650 31-01-2019 04:45:00 -0.8 C 95 % -1.5 C
Sensor: Nr:Datum:Temp:Feuchte:Taupunkt:
Aussen-T/F 2651 31-01-2019 04:50:00 -0.7 C 95 % -1.4 C
2652 31-01-2019 04:55:00 -0.7 C 96 % -1.26 C
2653 31-01-2019 05:00:00 -0.7 C 96 % -1.26 C
2654 31-01-2019 05:05:00 -0.7 C 96 % -1.26 C
2655 31-01-2019 05:10:00 -0.7 C 96 % -1.26 C
2656 31-01-2019 05:15:00 -0.7 C 96 % -1.26 C
2657 31-01-2019 05:20:00 -0.6 C 96 % -1.16 C
2658 31-01-2019 05:25:00 -0.6 C 96 % -1.16 C
2659 31-01-2019 05:30:00 -0.6 C 96 % -1.16 C
2660 31-01-2019 05:35:00 -0.6 C 96 % -1.16 C
2661 31-01-2019 05:40:00 -0.6 C 96 % -1.16 C
2662 31-01-2019 05:45:00 -0.6 C 96 % -1.16 C
2663 31-01-2019 05:50:00 -0.5 C 96 % -1.06 C
2664 31-01-2019 05:55:00 -0.5 C 96 % -1.06 C
2665 31-01-2019 06:00:00 -0.5 C 96 % -1.06 C
2666 31-01-2019 06:05:00 -0.5 C 96 % -1.06 C
2667 31-01-2019 06:10:00 -0.4 C 96 % -0.96 C
2668 31-01-2019 06:15:00 -0.4 C 96 % -0.96 C
2669 31-01-2019 06:20:00 -0.4 C 96 % -0.96 C
2670 31-01-2019 06:25:00 -0.4 C 96 % -0.96 C
2671 31-01-2019 06:30:00 -0.4 C 96 % -0.96 C
2672 31-01-2019 06:35:00 -0.4 C 96 % -0.96 C
2673 31-01-2019 06:40:00 -0.4 C 96 % -0.96 C
2674 31-01-2019 06:45:00 -0.4 C 96 % -0.96 C
2675 31-01-2019 06:50:00 -0.4 C 96 % -0.96 C
Sensor: Nr:Datum:Temp:Feuchte:Taupunkt:
Aussen-T/F 2676 31-01-2019 06:55:00 -0.4 C 96 % -0.96 C
2677 31-01-2019 07:00:00 -0.4 C 96 % -0.96 C
2678 31-01-2019 07:05:00 -0.5 C 96 % -1.06 C
2679 31-01-2019 07:10:00 -0.4 C 96 % -0.96 C
2680 31-01-2019 07:15:00 -0.4 C 96 % -0.96 C
2681 31-01-2019 07:20:00 -0.4 C 96 % -0.96 C
2682 31-01-2019 07:25:00 -0.4 C 96 % -0.96 C
2683 31-01-2019 07:30:00 -0.3 C 96 % -0.86 C
2684 31-01-2019 07:35:00 -0.3 C 96 % -0.86 C
2685 31-01-2019 07:40:00 -0.3 C 96 % -0.86 C
2686 31-01-2019 07:45:00 -0.3 C 96 % -0.86 C
2687 31-01-2019 07:50:00 -0.3 C 96 % -0.86 C
2688 31-01-2019 07:55:00 -0.3 C 96 % -0.86 C
2689 31-01-2019 08:00:00 -0.3 C 96 % -0.86 C
2690 31-01-2019 08:05:00 -0.3 C 96 % -0.86 C
2691 31-01-2019 08:10:00 -0.3 C 96 % -0.86 C
2692 31-01-2019 08:15:00 -0.3 C 96 % -0.86 C
2693 31-01-2019 08:20:00 -0.3 C 96 % -0.86 C
2694 31-01-2019 08:25:00 -0.3 C 96 % -0.86 C
2695 31-01-2019 08:30:00 -0.3 C 96 % -0.86 C
2696 31-01-2019 08:35:00 -0.3 C 96 % -0.86 C
2697 31-01-2019 08:40:00 -0.3 C 96 % -0.86 C
2698 31-01-2019 08:45:00 -0.3 C 96 % -0.86 C
2699 31-01-2019 08:50:00 -0.3 C 96 % -0.86 C
2700 31-01-2019 08:55:00 -0.2 C 96 % -0.76 C
Sensor: Nr:Datum:Temp:Feuchte:Taupunkt:
Aussen-T/F 2701 31-01-2019 09:00:00 -0.2 C 96 % -0.76 C
2702 31-01-2019 09:05:00 -0.1 C 96 % -0.66 C
2703 31-01-2019 09:10:00 -0.1 C 96 % -0.66 C
2704 31-01-2019 09:15:00 0.1 C 96 % -0.46 C
2705 31-01-2019 09:20:00 0.1 C 96 % -0.46 C
2706 31-01-2019 09:25:00 0.2 C 96 % -0.36 C
2707 31-01-2019 09:30:00 0.3 C 96 % -0.26 C
2708 31-01-2019 09:35:00 0.3 C 96 % -0.26 C
2709 31-01-2019 09:40:00 0.3 C 96 % -0.26 C
2710 31-01-2019 09:45:00 0.3 C 96 % -0.26 C
2711 31-01-2019 09:50:00 0.3 C 96 % -0.26 C
2712 31-01-2019 09:55:00 0.4 C 96 % -0.16 C
2713 31-01-2019 10:00:00 0.5 C 96 % -0.06 C
2714 31-01-2019 10:05:00 0.5 C 96 % -0.06 C
2715 31-01-2019 10:10:00 0.6 C 96 % 0.04 C
2716 31-01-2019 10:15:00 0.6 C 96 % 0.04 C
2717 31-01-2019 10:20:00 0.6 C 95 % -0.11 C
2718 31-01-2019 10:25:00 0.6 C 95 % -0.11 C
2719 31-01-2019 10:30:00 0.7 C 95 % -0.01 C
2720 31-01-2019 10:35:00 0.8 C 95 % 0.09 C
2721 31-01-2019 10:40:00 0.8 C 95 % 0.09 C
2722 31-01-2019 10:45:00 0.9 C 95 % 0.19 C
2723 31-01-2019 10:50:00 1 C 95 % 0.29 C
2724 31-01-2019 10:55:00 1.1 C 94 % 0.24 C
2725 31-01-2019 11:00:00 1.1 C 94 % 0.24 C
Sensor: Nr:Datum:Temp:Feuchte:Taupunkt:
Aussen-T/F 2726 31-01-2019 11:05:00 1.2 C 95 % 0.49 C
2727 31-01-2019 11:10:00 1.3 C 95 % 0.59 C
2728 31-01-2019 11:15:00 1.3 C 94 % 0.44 C
2729 31-01-2019 11:20:00 1.4 C 94 % 0.54 C
2730 31-01-2019 11:25:00 1.4 C 94 % 0.54 C
2731 31-01-2019 11:30:00 1.4 C 94 % 0.54 C
2732 31-01-2019 11:35:00 1.4 C 94 % 0.54 C
2733 31-01-2019 11:40:00 1.4 C 94 % 0.54 C
2734 31-01-2019 11:45:00 1.5 C 94 % 0.64 C
2735 31-01-2019 11:50:00 1.6 C 94 % 0.74 C
2736 31-01-2019 11:55:00 1.7 C 94 % 0.84 C
2737 31-01-2019 12:00:00 1.8 C 94 % 0.94 C
2738 31-01-2019 12:05:00 1.7 C 94 % 0.84 C
2739 31-01-2019 12:10:00 1.7 C 94 % 0.84 C
2740 31-01-2019 12:15:00 1.8 C 94 % 0.94 C
2741 31-01-2019 12:20:00 1.8 C 94 % 0.94 C
2742 31-01-2019 12:25:00 1.9 C 94 % 1.04 C
2743 31-01-2019 12:30:00 1.9 C 94 % 1.04 C
2744 31-01-2019 12:35:00 1.9 C 94 % 1.04 C
2745 31-01-2019 12:40:00 1.9 C 94 % 1.04 C
2746 31-01-2019 12:45:00 1.9 C 94 % 1.04 C
2747 31-01-2019 12:50:00 1.8 C 94 % 0.94 C
2748 31-01-2019 12:55:00 1.7 C 93 % 0.69 C
2749 31-01-2019 13:00:00 1.7 C 93 % 0.69 C
2750 31-01-2019 13:05:00 1.7 C 94 % 0.84 C
Sensor: Nr:Datum:Temp:Feuchte:Taupunkt:
Aussen-T/F 2751 31-01-2019 13:10:00 1.6 C 94 % 0.74 C
2752 31-01-2019 13:15:00 1.6 C 93 % 0.59 C
2753 31-01-2019 13:20:00 1.6 C 94 % 0.74 C
2754 31-01-2019 13:25:00 1.5 C 94 % 0.64 C
2755 31-01-2019 13:30:00 1.5 C 94 % 0.64 C
2756 31-01-2019 13:35:00 1.5 C 94 % 0.64 C
2757 31-01-2019 13:40:00 1.5 C 94 % 0.64 C
2758 31-01-2019 13:45:00 1.4 C 94 % 0.54 C
2759 31-01-2019 13:50:00 1.4 C 94 % 0.54 C
2760 31-01-2019 13:55:00 1.4 C 94 % 0.54 C
2761 31-01-2019 14:00:00 1.4 C 94 % 0.54 C
2762 31-01-2019 14:05:00 1.4 C 94 % 0.54 C
2763 31-01-2019 14:10:00 1.5 C 94 % 0.64 C
2764 31-01-2019 14:15:00 1.6 C 95 % 0.89 C
2765 31-01-2019 14:20:00 1.7 C 95 % 0.99 C
2766 31-01-2019 14:25:00 1.9 C 95 % 1.19 C
2767 31-01-2019 14:30:00 2 C 95 % 1.29 C
2768 31-01-2019 14:35:00 2.1 C 95 % 1.38 C
2769 31-01-2019 14:40:00 2.1 C 95 % 1.38 C
2770 31-01-2019 14:45:00 2.1 C 95 % 1.38 C
2771 31-01-2019 14:50:00 2.1 C 94 % 1.24 C
2772 31-01-2019 14:55:00 2.1 C 94 % 1.24 C
2773 31-01-2019 15:00:00 2.2 C 94 % 1.34 C
2774 31-01-2019 15:05:00 2.3 C 94 % 1.44 C
2775 31-01-2019 15:10:00 2.4 C 94 % 1.54 C
Sensor: Nr:Datum:Temp:Feuchte:Taupunkt:
Aussen-T/F 2776 31-01-2019 15:15:00 2.4 C 94 % 1.54 C
2777 31-01-2019 15:20:00 2.4 C 94 % 1.54 C
2778 31-01-2019 15:25:00 2.3 C 93 % 1.29 C
2779 31-01-2019 15:30:00 2.3 C 93 % 1.29 C
2780 31-01-2019 15:35:00 2.3 C 93 % 1.29 C
2781 31-01-2019 15:40:00 2.2 C 93 % 1.19 C
2782 31-01-2019 15:45:00 2.1 C 93 % 1.09 C
2783 31-01-2019 15:50:00 2.1 C 93 % 1.09 C
2784 31-01-2019 15:55:00 2 C 93 % 0.99 C
2785 31-01-2019 16:00:00 1.9 C 93 % 0.89 C
2786 31-01-2019 16:05:00 1.8 C 93 % 0.79 C
2787 31-01-2019 16:10:00 1.7 C 93 % 0.69 C
2788 31-01-2019 16:15:00 1.7 C 93 % 0.69 C
2789 31-01-2019 16:20:00 1.6 C 93 % 0.59 C
2790 31-01-2019 16:25:00 1.6 C 93 % 0.59 C
2791 31-01-2019 16:30:00 1.6 C 93 % 0.59 C
2792 31-01-2019 16:35:00 1.5 C 94 % 0.64 C
2793 31-01-2019 16:40:00 1.4 C 93 % 0.4 C
2794 31-01-2019 16:45:00 1.4 C 93 % 0.4 C
2795 31-01-2019 16:50:00 1.3 C 94 % 0.44 C
2796 31-01-2019 16:55:00 1.3 C 94 % 0.44 C
2797 31-01-2019 17:00:00 1.2 C 94 % 0.34 C
2798 31-01-2019 17:05:00 1.2 C 94 % 0.34 C
2799 31-01-2019 17:10:00 1.1 C 94 % 0.24 C
2800 31-01-2019 17:15:00 1.1 C 94 % 0.24 C
Sensor: Nr:Datum:Temp:Feuchte:Taupunkt:
Aussen-T/F 2801 31-01-2019 17:20:00 1.1 C 94 % 0.24 C
2802 31-01-2019 17:25:00 0.9 C 94 % 0.05 C
2803 31-01-2019 17:30:00 0.9 C 94 % 0.05 C
2804 31-01-2019 17:35:00 0.8 C 94 % -0.05 C
2805 31-01-2019 17:40:00 0.8 C 94 % -0.05 C
2806 31-01-2019 17:45:00 0.8 C 94 % -0.05 C
2807 31-01-2019 17:50:00 0.7 C 94 % -0.15 C
2808 31-01-2019 17:55:00 0.6 C 94 % -0.25 C
2809 31-01-2019 18:00:00 0.4 C 94 % -0.45 C
2810 31-01-2019 18:05:00 0.4 C 94 % -0.45 C
2811 31-01-2019 18:10:00 0.3 C 94 % -0.55 C
2812 31-01-2019 18:15:00 0.3 C 94 % -0.55 C
2813 31-01-2019 18:20:00 0.2 C 94 % -0.65 C
2814 31-01-2019 18:25:00 0.2 C 94 % -0.65 C
2815 31-01-2019 18:30:00 0 C 94 % -0.85 C
2816 31-01-2019 18:35:00 -0.1 C 94 % -0.95 C
2817 31-01-2019 18:40:00 -0.2 C 94 % -1.05 C
2818 31-01-2019 18:45:00 -0.2 C 94 % -1.05 C
2819 31-01-2019 18:50:00 -0.2 C 94 % -1.05 C
2820 31-01-2019 18:55:00 -0.3 C 94 % -1.15 C
2821 31-01-2019 19:00:00 -0.3 C 94 % -1.15 C
2822 31-01-2019 19:05:00 -0.4 C 94 % -1.25 C
2823 31-01-2019 19:10:00 -0.6 C 94 % -1.44 C
2824 31-01-2019 19:15:00 -0.8 C 93 % -1.79 C
2825 31-01-2019 19:20:00 -1 C 94 % -1.84 C
Sensor: Nr:Datum:Temp:Feuchte:Taupunkt:
Aussen-T/F 2826 31-01-2019 19:25:00 -1.2 C 93 % -2.18 C
2827 31-01-2019 19:30:00 -1.3 C 94 % -2.14 C
2828 31-01-2019 19:35:00 -1.4 C 94 % -2.24 C
2829 31-01-2019 19:40:00 -1.5 C 94 % -2.34 C
2830 31-01-2019 19:45:00 -1.6 C 94 % -2.44 C
2831 31-01-2019 19:50:00 -1.6 C 94 % -2.44 C
2832 31-01-2019 19:55:00 -1.7 C 94 % -2.54 C
2833 31-01-2019 20:00:00 -1.7 C 94 % -2.54 C
2834 31-01-2019 20:05:00 -1.8 C 94 % -2.64 C
2835 31-01-2019 20:10:00 -1.8 C 94 % -2.64 C
2836 31-01-2019 20:15:00 -1.9 C 94 % -2.73 C
2837 31-01-2019 20:20:00 -1.9 C 94 % -2.73 C
2838 31-01-2019 20:25:00 -1.9 C 94 % -2.73 C
2839 31-01-2019 20:30:00 -2 C 94 % -2.83 C
2840 31-01-2019 20:35:00 -2.1 C 94 % -2.93 C
2841 31-01-2019 20:40:00 -2.1 C 94 % -2.93 C
2842 31-01-2019 20:45:00 -2.1 C 94 % -2.93 C
2843 31-01-2019 20:50:00 -2.1 C 95 % -2.79 C
2844 31-01-2019 20:55:00 -2.1 C 95 % -2.79 C
2845 31-01-2019 21:00:00 -2.1 C 95 % -2.79 C
2846 31-01-2019 21:05:00 -2.1 C 95 % -2.79 C
2847 31-01-2019 21:10:00 -2.1 C 95 % -2.79 C
2848 31-01-2019 21:15:00 -2.1 C 95 % -2.79 C
2849 31-01-2019 21:20:00 -2.1 C 95 % -2.79 C
2850 31-01-2019 21:25:00 -2.1 C 95 % -2.79 C
Sensor: Nr:Datum:Temp:Feuchte:Taupunkt:
Aussen-T/F 2851 31-01-2019 21:30:00 -2.1 C 95 % -2.79 C
2852 31-01-2019 21:35:00 -2 C 95 % -2.69 C
2853 31-01-2019 21:40:00 -1.9 C 95 % -2.59 C
2854 31-01-2019 21:45:00 -1.9 C 95 % -2.59 C
2855 31-01-2019 21:50:00 -1.8 C 95 % -2.49 C
2856 31-01-2019 21:55:00 -1.8 C 95 % -2.49 C
2857 31-01-2019 22:00:00 -1.7 C 95 % -2.39 C
2858 31-01-2019 22:05:00 -1.7 C 96 % -2.25 C
2859 31-01-2019 22:10:00 -1.6 C 96 % -2.15 C
2860 31-01-2019 22:15:00 -1.6 C 96 % -2.15 C
2861 31-01-2019 22:20:00 -1.6 C 96 % -2.15 C
2862 31-01-2019 22:25:00 -1.6 C 96 % -2.15 C
2863 31-01-2019 22:30:00 -1.6 C 96 % -2.15 C
2864 31-01-2019 22:35:00 -1.6 C 96 % -2.15 C
2865 31-01-2019 22:40:00 -1.6 C 96 % -2.15 C
2866 31-01-2019 22:45:00 -1.6 C 96 % -2.15 C
2867 31-01-2019 22:50:00 -1.5 C 96 % -2.05 C
2868 31-01-2019 22:55:00 -1.5 C 96 % -2.05 C
2869 31-01-2019 23:00:00 -1.4 C 96 % -1.95 C
2870 31-01-2019 23:05:00 -1.4 C 96 % -1.95 C
2871 31-01-2019 23:10:00 -1.3 C 96 % -1.85 C
2872 31-01-2019 23:15:00 -1.3 C 96 % -1.85 C
2873 31-01-2019 23:20:00 -1.3 C 96 % -1.85 C
2874 31-01-2019 23:25:00 -1.3 C 96 % -1.85 C
2875 31-01-2019 23:30:00 -1.2 C 96 % -1.75 C
Sensor: Nr:Datum:Temp:Feuchte:Taupunkt:
Aussen-T/F 2876 31-01-2019 23:35:00 -1.2 C 96 % -1.75 C
2877 31-01-2019 23:40:00 -1.1 C 96 % -1.66 C
2878 31-01-2019 23:45:00 -1.1 C 96 % -1.66 C
2879 31-01-2019 23:50:00 -1.1 C 96 % -1.66 C
2880 31-01-2019 23:55:00 -1 C 96 % -1.56 C
2881 01-02-2019 00:00:00 -0.9 C 96 % -1.46 C
2882 01-02-2019 00:05:00 -0.9 C 96 % -1.46 C
2883 01-02-2019 00:10:00 -0.9 C 96 % -1.46 C
2884 01-02-2019 00:15:00 -0.8 C 96 % -1.36 C
2885 01-02-2019 00:20:00 -0.8 C 96 % -1.36 C
2886 01-02-2019 00:25:00 -0.8 C 96 % -1.36 C
2887 01-02-2019 00:30:00 -0.8 C 96 % -1.36 C
2888 01-02-2019 00:35:00 -0.7 C 96 % -1.26 C
2889 01-02-2019 00:40:00 -0.7 C 96 % -1.26 C
2890 01-02-2019 00:45:00 -0.7 C 96 % -1.26 C
2891 01-02-2019 00:50:00 -0.7 C 96 % -1.26 C
2892 01-02-2019 00:55:00 -0.6 C 96 % -1.16 C
2893 01-02-2019 01:00:00 -0.6 C 96 % -1.16 C
2894 01-02-2019 01:05:00 -0.6 C 96 % -1.16 C
2895 01-02-2019 01:10:00 -0.5 C 96 % -1.06 C
2896 01-02-2019 01:15:00 -0.5 C 96 % -1.06 C
2897 01-02-2019 01:20:00 -0.4 C 96 % -0.96 C
2898 01-02-2019 01:25:00 -0.4 C 96 % -0.96 C
2899 01-02-2019 01:30:00 -0.4 C 96 % -0.96 C
2900 01-02-2019 01:35:00 -0.4 C 96 % -0.96 C
Sensor: Nr:Datum:Temp:Feuchte:Taupunkt:
Aussen-T/F 2901 01-02-2019 01:40:00 -0.4 C 96 % -0.96 C
2902 01-02-2019 01:45:00 -0.4 C 96 % -0.96 C
2903 01-02-2019 01:50:00 -0.4 C 96 % -0.96 C
2904 01-02-2019 01:55:00 -0.3 C 96 % -0.86 C
2905 01-02-2019 02:00:00 -0.3 C 96 % -0.86 C
2906 01-02-2019 02:05:00 -0.3 C 96 % -0.86 C
2907 01-02-2019 02:10:00 -0.2 C 96 % -0.76 C
2908 01-02-2019 02:15:00 -0.2 C 96 % -0.76 C
2909 01-02-2019 02:20:00 -0.2 C 96 % -0.76 C
2910 01-02-2019 02:25:00 -0.2 C 96 % -0.76 C
2911 01-02-2019 02:30:00 -0.1 C 96 % -0.66 C
2912 01-02-2019 02:35:00 -0.1 C 96 % -0.66 C
2913 01-02-2019 02:40:00 -0.1 C 96 % -0.66 C
2914 01-02-2019 02:45:00 0 C 96 % -0.56 C
2915 01-02-2019 02:50:00 0.1 C 96 % -0.46 C
2916 01-02-2019 02:55:00 0.1 C 96 % -0.46 C
2917 01-02-2019 03:00:00 0.2 C 96 % -0.36 C
2918 01-02-2019 03:05:00 0.3 C 96 % -0.26 C
2919 01-02-2019 03:10:00 0.4 C 97 % -0.02 C
2920 01-02-2019 03:15:00 0.4 C 97 % -0.02 C
2921 01-02-2019 03:20:00 0.5 C 97 % 0.08 C
2922 01-02-2019 03:25:00 0.6 C 97 % 0.18 C
2923 01-02-2019 03:30:00 0.6 C 96 % 0.04 C
2924 01-02-2019 03:35:00 0.7 C 97 % 0.28 C
2925 01-02-2019 03:40:00 0.7 C 97 % 0.28 C
Sensor: Nr:Datum:Temp:Feuchte:Taupunkt:
Aussen-T/F 2926 01-02-2019 03:45:00 0.8 C 97 % 0.38 C
2927 01-02-2019 03:50:00 0.8 C 97 % 0.38 C
2928 01-02-2019 03:55:00 0.9 C 97 % 0.48 C
2929 01-02-2019 04:00:00 0.9 C 97 % 0.48 C
2930 01-02-2019 04:05:00 0.9 C 97 % 0.48 C
2931 01-02-2019 04:10:00 0.9 C 97 % 0.48 C
2932 01-02-2019 04:15:00 1 C 96 % 0.44 C
2933 01-02-2019 04:20:00 1.1 C 96 % 0.54 C
2934 01-02-2019 04:25:00 1.1 C 96 % 0.54 C
2935 01-02-2019 04:30:00 1.1 C 96 % 0.54 C
2936 01-02-2019 04:35:00 1.2 C 96 % 0.63 C
2937 01-02-2019 04:40:00 1.2 C 96 % 0.63 C
2938 01-02-2019 04:45:00 1.2 C 96 % 0.63 C
2939 01-02-2019 04:50:00 1.2 C 96 % 0.63 C
2940 01-02-2019 04:55:00 1.2 C 96 % 0.63 C
2941 01-02-2019 05:00:00 1.2 C 96 % 0.63 C
2942 01-02-2019 05:05:00 1.2 C 95 % 0.49 C
2943 01-02-2019 05:10:00 1.1 C 96 % 0.54 C
2944 01-02-2019 05:15:00 1.2 C 96 % 0.63 C
2945 01-02-2019 05:20:00 1.1 C 96 % 0.54 C
2946 01-02-2019 05:25:00 1.2 C 96 % 0.63 C
2947 01-02-2019 05:30:00 1.2 C 96 % 0.63 C
2948 01-02-2019 05:35:00 1.2 C 96 % 0.63 C
2949 01-02-2019 05:40:00 1.2 C 96 % 0.63 C
2950 01-02-2019 05:45:00 1.2 C 96 % 0.63 C
Sensor: Nr:Datum:Temp:Feuchte:Taupunkt:
Aussen-T/F 2951 01-02-2019 05:50:00 1.2 C 96 % 0.63 C
2952 01-02-2019 05:55:00 1.2 C 96 % 0.63 C
2953 01-02-2019 06:00:00 1.2 C 96 % 0.63 C
2954 01-02-2019 06:05:00 1.2 C 96 % 0.63 C
2955 01-02-2019 06:10:00 1.2 C 96 % 0.63 C
2956 01-02-2019 06:15:00 1.2 C 96 % 0.63 C
2957 01-02-2019 06:20:00 1.1 C 95 % 0.39 C
2958 01-02-2019 06:25:00 1.1 C 95 % 0.39 C
2959 01-02-2019 06:30:00 1.1 C 96 % 0.54 C
2960 01-02-2019 06:35:00 1.1 C 96 % 0.54 C
2961 01-02-2019 06:40:00 1.1 C 96 % 0.54 C
2962 01-02-2019 06:45:00 1.1 C 96 % 0.54 C
2963 01-02-2019 06:50:00 1.1 C 96 % 0.54 C
2964 01-02-2019 06:55:00 1.1 C 96 % 0.54 C
2965 01-02-2019 07:00:00 1.1 C 96 % 0.54 C
2966 01-02-2019 07:05:00 1.1 C 96 % 0.54 C
2967 01-02-2019 07:10:00 1.1 C 96 % 0.54 C
2968 01-02-2019 07:15:00 1.1 C 96 % 0.54 C
2969 01-02-2019 07:20:00 1.1 C 96 % 0.54 C
2970 01-02-2019 07:25:00 1.2 C 96 % 0.63 C
2971 01-02-2019 07:30:00 1.2 C 96 % 0.63 C
2972 01-02-2019 07:35:00 1.2 C 96 % 0.63 C
2973 01-02-2019 07:40:00 1.2 C 96 % 0.63 C
2974 01-02-2019 07:45:00 1.3 C 96 % 0.73 C
2975 01-02-2019 07:50:00 1.4 C 96 % 0.83 C
Sensor: Nr:Datum:Temp:Feuchte:Taupunkt:
Aussen-T/F 2976 01-02-2019 07:55:00 1.4 C 96 % 0.83 C
2977 01-02-2019 08:00:00 1.4 C 96 % 0.83 C
2978 01-02-2019 08:05:00 1.3 C 96 % 0.73 C
2979 01-02-2019 08:10:00 1.3 C 96 % 0.73 C
2980 01-02-2019 08:15:00 1.3 C 96 % 0.73 C
2981 01-02-2019 08:20:00 1.3 C 96 % 0.73 C
2982 01-02-2019 08:25:00 1.3 C 96 % 0.73 C
2983 01-02-2019 08:30:00 1.3 C 96 % 0.73 C
2984 01-02-2019 08:35:00 1.2 C 96 % 0.63 C
2985 01-02-2019 08:40:00 1.2 C 96 % 0.63 C
2986 01-02-2019 08:45:00 1.2 C 96 % 0.63 C
2987 01-02-2019 08:50:00 1.4 C 96 % 0.83 C
2988 01-02-2019 08:55:00 1.6 C 97 % 1.18 C
2989 01-02-2019 09:00:00 1.8 C 96 % 1.23 C
2990 01-02-2019 09:05:00 1.8 C 96 % 1.23 C
2991 01-02-2019 09:10:00 1.7 C 96 % 1.13 C
2992 01-02-2019 09:15:00 1.7 C 96 % 1.13 C
2993 01-02-2019 09:20:00 1.6 C 96 % 1.03 C
2994 01-02-2019 09:25:00 1.5 C 96 % 0.93 C
2995 01-02-2019 09:30:00 1.4 C 96 % 0.83 C
2996 01-02-2019 09:35:00 1.4 C 96 % 0.83 C
2997 01-02-2019 09:40:00 1.4 C 96 % 0.83 C
2998 01-02-2019 09:45:00 1.3 C 96 % 0.73 C
2999 01-02-2019 09:50:00 1.4 C 96 % 0.83 C
3000 01-02-2019 09:55:00 1.5 C 96 % 0.93 C
Sensor: Nr:Datum:Temp:Feuchte:Taupunkt:
Aussen-T/F 3001 01-02-2019 10:00:00 1.6 C 96 % 1.03 C
3002 01-02-2019 10:05:00 1.8 C 96 % 1.23 C
3003 01-02-2019 10:10:00 1.9 C 96 % 1.33 C
3004 01-02-2019 10:15:00 2 C 96 % 1.43 C
3005 01-02-2019 10:20:00 2.1 C 96 % 1.53 C
3006 01-02-2019 10:25:00 2.2 C 96 % 1.63 C
3007 01-02-2019 10:30:00 2.3 C 96 % 1.73 C
3008 01-02-2019 10:35:00 2.4 C 96 % 1.83 C
3009 01-02-2019 10:40:00 2.4 C 96 % 1.83 C
3010 01-02-2019 10:45:00 2.6 C 96 % 2.03 C
3011 01-02-2019 10:50:00 2.6 C 96 % 2.03 C
3012 01-02-2019 10:55:00 2.7 C 96 % 2.13 C
3013 01-02-2019 11:00:00 2.7 C 96 % 2.13 C
3014 01-02-2019 11:05:00 2.8 C 96 % 2.23 C
3015 01-02-2019 11:10:00 2.9 C 96 % 2.33 C
3016 01-02-2019 11:15:00 3 C 95 % 2.28 C
3017 01-02-2019 11:20:00 3.1 C 95 % 2.38 C
3018 01-02-2019 11:25:00 3.1 C 95 % 2.38 C
3019 01-02-2019 11:30:00 3.2 C 95 % 2.48 C
3020 01-02-2019 11:35:00 3.3 C 95 % 2.58 C
3021 01-02-2019 11:40:00 3.3 C 95 % 2.58 C
3022 01-02-2019 11:45:00 3.4 C 94 % 2.53 C
3023 01-02-2019 11:50:00 3.5 C 94 % 2.63 C
3024 01-02-2019 11:55:00 3.6 C 94 % 2.73 C
3025 01-02-2019 12:00:00 3.6 C 94 % 2.73 C
Sensor: Nr:Datum:Temp:Feuchte:Taupunkt:
Aussen-T/F 3026 01-02-2019 12:05:00 3.7 C 94 % 2.83 C
3027 01-02-2019 12:10:00 3.7 C 94 % 2.83 C
3028 01-02-2019 12:15:00 3.7 C 93 % 2.68 C
3029 01-02-2019 12:20:00 3.6 C 93 % 2.58 C
3030 01-02-2019 12:25:00 3.4 C 93 % 2.38 C
3031 01-02-2019 12:30:00 3.2 C 93 % 2.18 C
3032 01-02-2019 12:35:00 3.1 C 93 % 2.08 C
3033 01-02-2019 12:40:00 2.8 C 93 % 1.78 C
3034 01-02-2019 12:45:00 2.7 C 93 % 1.68 C
3035 01-02-2019 12:50:00 2.6 C 93 % 1.59 C
3036 01-02-2019 12:55:00 2.6 C 94 % 1.73 C
3037 01-02-2019 13:00:00 2.7 C 94 % 1.83 C
3038 01-02-2019 13:05:00 2.8 C 95 % 2.08 C
3039 01-02-2019 13:10:00 2.8 C 94 % 1.93 C
3040 01-02-2019 13:15:00 2.8 C 94 % 1.93 C
3041 01-02-2019 13:20:00 2.7 C 94 % 1.83 C
3042 01-02-2019 13:25:00 2.6 C 94 % 1.73 C
3043 01-02-2019 13:30:00 2.6 C 95 % 1.88 C
3044 01-02-2019 13:35:00 2.8 C 95 % 2.08 C
3045 01-02-2019 13:40:00 2.8 C 95 % 2.08 C
3046 01-02-2019 13:45:00 2.8 C 94 % 1.93 C
3047 01-02-2019 13:50:00 2.7 C 94 % 1.83 C
3048 01-02-2019 13:55:00 2.7 C 94 % 1.83 C
3049 01-02-2019 14:00:00 2.8 C 95 % 2.08 C
3050 01-02-2019 14:05:00 2.8 C 95 % 2.08 C
Sensor: Nr:Datum:Temp:Feuchte:Taupunkt:
Aussen-T/F 3051 01-02-2019 14:10:00 3.1 C 95 % 2.38 C
3052 01-02-2019 14:15:00 3.3 C 96 % 2.72 C
3053 01-02-2019 14:20:00 3.6 C 96 % 3.02 C
3054 01-02-2019 14:25:00 3.8 C 96 % 3.22 C
3055 01-02-2019 14:30:00 3.9 C 95 % 3.17 C
3056 01-02-2019 14:35:00 3.8 C 94 % 2.93 C
3057 01-02-2019 14:40:00 3.7 C 94 % 2.83 C
3058 01-02-2019 14:45:00 3.7 C 94 % 2.83 C
3059 01-02-2019 14:50:00 3.7 C 94 % 2.83 C
3060 01-02-2019 14:55:00 3.7 C 94 % 2.83 C
3061 01-02-2019 15:00:00 3.7 C 94 % 2.83 C
3062 01-02-2019 15:05:00 3.5 C 93 % 2.48 C
3063 01-02-2019 15:10:00 3.4 C 93 % 2.38 C
3064 01-02-2019 15:15:00 3.3 C 94 % 2.43 C
3065 01-02-2019 15:20:00 3.3 C 94 % 2.43 C
3066 01-02-2019 15:25:00 3.2 C 94 % 2.33 C
3067 01-02-2019 15:30:00 3.1 C 94 % 2.23 C
3068 01-02-2019 15:35:00 3 C 94 % 2.13 C
3069 01-02-2019 15:40:00 3 C 94 % 2.13 C
3070 01-02-2019 15:45:00 3.1 C 94 % 2.23 C
3071 01-02-2019 15:50:00 3.1 C 94 % 2.23 C
3072 01-02-2019 15:55:00 3.1 C 95 % 2.38 C
3073 01-02-2019 16:00:00 3.1 C 95 % 2.38 C
3074 01-02-2019 16:05:00 3.1 C 95 % 2.38 C
3075 01-02-2019 16:10:00 3.1 C 95 % 2.38 C
Sensor: Nr:Datum:Temp:Feuchte:Taupunkt:
Aussen-T/F 3076 01-02-2019 16:15:00 3.1 C 95 % 2.38 C
3077 01-02-2019 16:20:00 3 C 95 % 2.28 C
3078 01-02-2019 16:25:00 2.9 C 95 % 2.18 C
3079 01-02-2019 16:30:00 2.8 C 95 % 2.08 C
3080 01-02-2019 16:35:00 2.7 C 94 % 1.83 C
3081 01-02-2019 16:40:00 2.7 C 95 % 1.98 C
3082 01-02-2019 16:45:00 2.7 C 95 % 1.98 C
3083 01-02-2019 16:50:00 2.6 C 95 % 1.88 C
3084 01-02-2019 16:55:00 2.6 C 95 % 1.88 C
3085 01-02-2019 17:00:00 2.5 C 95 % 1.78 C
3086 01-02-2019 17:05:00 2.6 C 95 % 1.88 C
3087 01-02-2019 17:10:00 2.6 C 95 % 1.88 C
3088 01-02-2019 17:15:00 2.6 C 95 % 1.88 C
3089 01-02-2019 17:20:00 2.6 C 95 % 1.88 C
3090 01-02-2019 17:25:00 2.5 C 95 % 1.78 C
3091 01-02-2019 17:30:00 2.5 C 95 % 1.78 C
3092 01-02-2019 17:35:00 2.5 C 96 % 1.93 C
3093 01-02-2019 17:40:00 2.5 C 96 % 1.93 C
3094 01-02-2019 17:45:00 2.6 C 96 % 2.03 C
3095 01-02-2019 17:50:00 2.5 C 96 % 1.93 C
3096 01-02-2019 17:55:00 2.5 C 96 % 1.93 C
3097 01-02-2019 18:00:00 2.5 C 96 % 1.93 C
3098 01-02-2019 18:05:00 2.5 C 96 % 1.93 C
3099 01-02-2019 18:10:00 2.6 C 96 % 2.03 C
3100 01-02-2019 18:15:00 2.6 C 96 % 2.03 C
Sensor: Nr:Datum:Temp:Feuchte:Taupunkt:
Aussen-T/F 3101 01-02-2019 18:20:00 2.5 C 96 % 1.93 C
3102 01-02-2019 18:25:00 2.5 C 96 % 1.93 C
3103 01-02-2019 18:30:00 2.4 C 96 % 1.83 C
3104 01-02-2019 18:35:00 2.4 C 96 % 1.83 C
3105 01-02-2019 18:40:00 2.4 C 96 % 1.83 C
3106 01-02-2019 18:45:00 2.4 C 96 % 1.83 C
3107 01-02-2019 18:50:00 2.4 C 96 % 1.83 C
3108 01-02-2019 18:55:00 2.4 C 96 % 1.83 C
3109 01-02-2019 19:00:00 2.4 C 96 % 1.83 C
3110 01-02-2019 19:05:00 2.4 C 96 % 1.83 C
3111 01-02-2019 19:10:00 2.3 C 96 % 1.73 C
3112 01-02-2019 19:15:00 2.3 C 96 % 1.73 C
3113 01-02-2019 19:20:00 2.3 C 96 % 1.73 C
3114 01-02-2019 19:25:00 2.3 C 96 % 1.73 C
3115 01-02-2019 19:30:00 2.2 C 96 % 1.63 C
3116 01-02-2019 19:35:00 2.2 C 96 % 1.63 C
3117 01-02-2019 19:40:00 2.2 C 96 % 1.63 C
3118 01-02-2019 19:45:00 2.1 C 96 % 1.53 C
3119 01-02-2019 19:50:00 2.1 C 96 % 1.53 C
3120 01-02-2019 19:55:00 2.1 C 96 % 1.53 C
3121 01-02-2019 20:00:00 2.1 C 96 % 1.53 C
3122 01-02-2019 20:05:00 2.1 C 96 % 1.53 C
3123 01-02-2019 20:10:00 2 C 96 % 1.43 C
3124 01-02-2019 20:15:00 2 C 96 % 1.43 C
3125 01-02-2019 20:20:00 1.9 C 96 % 1.33 C
Sensor: Nr:Datum:Temp:Feuchte:Taupunkt:
Aussen-T/F 3126 01-02-2019 20:25:00 2 C 96 % 1.43 C
3127 01-02-2019 20:30:00 2 C 96 % 1.43 C
3128 01-02-2019 20:35:00 2.1 C 96 % 1.53 C
3129 01-02-2019 20:40:00 2.1 C 96 % 1.53 C
3130 01-02-2019 20:45:00 2 C 96 % 1.43 C
3131 01-02-2019 20:50:00 2 C 96 % 1.43 C
3132 01-02-2019 20:55:00 1.9 C 96 % 1.33 C
3133 01-02-2019 21:00:00 1.9 C 96 % 1.33 C
3134 01-02-2019 21:05:00 1.9 C 96 % 1.33 C
3135 01-02-2019 21:10:00 1.9 C 96 % 1.33 C
3136 01-02-2019 21:15:00 1.9 C 96 % 1.33 C
3137 01-02-2019 21:20:00 1.9 C 96 % 1.33 C
3138 01-02-2019 21:25:00 1.8 C 96 % 1.23 C
3139 01-02-2019 21:30:00 1.8 C 96 % 1.23 C
3140 01-02-2019 21:35:00 1.8 C 96 % 1.23 C
3141 01-02-2019 21:40:00 1.7 C 96 % 1.13 C
3142 01-02-2019 21:45:00 1.7 C 96 % 1.13 C
3143 01-02-2019 21:50:00 1.7 C 96 % 1.13 C
3144 01-02-2019 21:55:00 1.7 C 96 % 1.13 C
3145 01-02-2019 22:00:00 1.7 C 96 % 1.13 C
3146 01-02-2019 22:05:00 1.7 C 96 % 1.13 C
3147 01-02-2019 22:10:00 1.7 C 96 % 1.13 C
3148 01-02-2019 22:15:00 1.8 C 96 % 1.23 C
3149 01-02-2019 22:20:00 1.7 C 96 % 1.13 C
3150 01-02-2019 22:25:00 1.7 C 96 % 1.13 C
Sensor: Nr:Datum:Temp:Feuchte:Taupunkt:
Aussen-T/F 3151 01-02-2019 22:30:00 1.7 C 96 % 1.13 C
3152 01-02-2019 22:35:00 1.7 C 96 % 1.13 C
3153 01-02-2019 22:40:00 1.6 C 96 % 1.03 C
3154 01-02-2019 22:45:00 1.6 C 96 % 1.03 C
3155 01-02-2019 22:50:00 1.6 C 96 % 1.03 C
3156 01-02-2019 22:55:00 1.6 C 96 % 1.03 C
3157 01-02-2019 23:00:00 1.5 C 96 % 0.93 C
3158 01-02-2019 23:05:00 1.5 C 96 % 0.93 C
3159 01-02-2019 23:10:00 1.5 C 96 % 0.93 C
3160 01-02-2019 23:15:00 1.5 C 97 % 1.08 C
3161 01-02-2019 23:20:00 1.6 C 97 % 1.18 C
3162 01-02-2019 23:25:00 1.6 C 97 % 1.18 C
3163 01-02-2019 23:30:00 1.6 C 97 % 1.18 C
3164 01-02-2019 23:35:00 1.6 C 97 % 1.18 C
3165 01-02-2019 23:40:00 1.6 C 97 % 1.18 C
3166 01-02-2019 23:45:00 1.7 C 97 % 1.28 C
3167 01-02-2019 23:50:00 1.7 C 97 % 1.28 C
3168 01-02-2019 23:55:00 1.7 C 97 % 1.28 C
3169 02-02-2019 00:00:00 1.7 C 97 % 1.28 C
3170 02-02-2019 00:05:00 1.7 C 97 % 1.28 C
3171 02-02-2019 00:10:00 1.7 C 97 % 1.28 C
3172 02-02-2019 00:15:00 1.7 C 97 % 1.28 C
3173 02-02-2019 00:20:00 1.7 C 97 % 1.28 C
3174 02-02-2019 00:25:00 1.7 C 97 % 1.28 C
3175 02-02-2019 00:30:00 1.7 C 97 % 1.28 C
Sensor: Nr:Datum:Temp:Feuchte:Taupunkt:
Aussen-T/F 3176 02-02-2019 00:35:00 1.8 C 97 % 1.38 C
3177 02-02-2019 00:40:00 1.8 C 97 % 1.38 C
3178 02-02-2019 00:45:00 1.8 C 97 % 1.38 C
3179 02-02-2019 00:50:00 1.8 C 97 % 1.38 C
3180 02-02-2019 00:55:00 1.8 C 97 % 1.38 C
3181 02-02-2019 01:00:00 1.8 C 97 % 1.38 C
3182 02-02-2019 01:05:00 1.8 C 97 % 1.38 C
3183 02-02-2019 01:10:00 1.8 C 97 % 1.38 C
3184 02-02-2019 01:15:00 1.8 C 97 % 1.38 C
3185 02-02-2019 01:20:00 1.8 C 97 % 1.38 C
3186 02-02-2019 01:25:00 1.8 C 97 % 1.38 C
3187 02-02-2019 01:30:00 1.8 C 97 % 1.38 C
3188 02-02-2019 01:35:00 1.8 C 97 % 1.38 C
3189 02-02-2019 01:40:00 1.8 C 97 % 1.38 C
3190 02-02-2019 01:45:00 1.9 C 97 % 1.48 C
3191 02-02-2019 01:50:00 1.9 C 97 % 1.48 C
3192 02-02-2019 01:55:00 1.9 C 97 % 1.48 C
3193 02-02-2019 02:00:00 1.9 C 97 % 1.48 C
3194 02-02-2019 02:05:00 1.9 C 97 % 1.48 C
3195 02-02-2019 02:10:00 1.9 C 97 % 1.48 C
3196 02-02-2019 02:15:00 1.8 C 97 % 1.38 C
3197 02-02-2019 02:20:00 1.8 C 97 % 1.38 C
3198 02-02-2019 02:25:00 1.8 C 97 % 1.38 C
3199 02-02-2019 02:30:00 1.8 C 97 % 1.38 C
3200 02-02-2019 02:35:00 1.8 C 97 % 1.38 C
Sensor: Nr:Datum:Temp:Feuchte:Taupunkt:
Aussen-T/F 3201 02-02-2019 02:40:00 1.8 C 97 % 1.38 C
3202 02-02-2019 02:45:00 1.8 C 97 % 1.38 C
3203 02-02-2019 02:50:00 1.8 C 97 % 1.38 C
3204 02-02-2019 02:55:00 1.8 C 97 % 1.38 C
3205 02-02-2019 03:00:00 1.8 C 97 % 1.38 C
3206 02-02-2019 03:05:00 1.8 C 97 % 1.38 C
3207 02-02-2019 03:10:00 1.7 C 97 % 1.28 C
3208 02-02-2019 03:15:00 1.7 C 97 % 1.28 C
3209 02-02-2019 03:20:00 1.7 C 97 % 1.28 C
3210 02-02-2019 03:25:00 1.7 C 97 % 1.28 C
3211 02-02-2019 03:30:00 1.7 C 97 % 1.28 C
3212 02-02-2019 03:35:00 1.7 C 97 % 1.28 C
3213 02-02-2019 03:40:00 1.7 C 97 % 1.28 C
3214 02-02-2019 03:45:00 1.8 C 97 % 1.38 C
3215 02-02-2019 03:50:00 1.9 C 97 % 1.48 C
3216 02-02-2019 03:55:00 1.9 C 97 % 1.48 C
3217 02-02-2019 04:00:00 1.9 C 97 % 1.48 C
3218 02-02-2019 04:05:00 1.9 C 97 % 1.48 C
3219 02-02-2019 04:10:00 1.8 C 97 % 1.38 C
3220 02-02-2019 04:15:00 1.8 C 97 % 1.38 C
3221 02-02-2019 04:20:00 1.8 C 97 % 1.38 C
3222 02-02-2019 04:25:00 1.8 C 97 % 1.38 C
3223 02-02-2019 04:30:00 1.8 C 97 % 1.38 C
3224 02-02-2019 04:35:00 1.8 C 97 % 1.38 C
3225 02-02-2019 04:40:00 1.8 C 97 % 1.38 C
Sensor: Nr:Datum:Temp:Feuchte:Taupunkt:
Aussen-T/F 3226 02-02-2019 04:45:00 1.8 C 97 % 1.38 C
3227 02-02-2019 04:50:00 1.8 C 97 % 1.38 C
3228 02-02-2019 04:55:00 1.8 C 97 % 1.38 C
3229 02-02-2019 05:00:00 1.7 C 97 % 1.28 C
3230 02-02-2019 05:05:00 1.7 C 97 % 1.28 C
3231 02-02-2019 05:10:00 1.7 C 97 % 1.28 C
3232 02-02-2019 05:15:00 1.7 C 97 % 1.28 C
3233 02-02-2019 05:20:00 1.7 C 97 % 1.28 C
3234 02-02-2019 05:25:00 1.7 C 97 % 1.28 C
3235 02-02-2019 05:30:00 1.7 C 97 % 1.28 C
3236 02-02-2019 05:35:00 1.7 C 97 % 1.28 C
3237 02-02-2019 05:40:00 1.7 C 97 % 1.28 C
3238 02-02-2019 05:45:00 1.7 C 97 % 1.28 C
3239 02-02-2019 05:50:00 1.7 C 97 % 1.28 C
3240 02-02-2019 05:55:00 1.8 C 97 % 1.38 C
3241 02-02-2019 06:00:00 1.8 C 97 % 1.38 C
3242 02-02-2019 06:05:00 1.8 C 97 % 1.38 C
3243 02-02-2019 06:10:00 1.8 C 97 % 1.38 C
3244 02-02-2019 06:15:00 1.7 C 97 % 1.28 C
3245 02-02-2019 06:20:00 1.7 C 97 % 1.28 C
3246 02-02-2019 06:25:00 1.7 C 97 % 1.28 C
3247 02-02-2019 06:30:00 1.7 C 97 % 1.28 C
3248 02-02-2019 06:35:00 1.7 C 97 % 1.28 C
3249 02-02-2019 06:40:00 1.7 C 97 % 1.28 C
3250 02-02-2019 06:45:00 1.7 C 97 % 1.28 C
Sensor: Nr:Datum:Temp:Feuchte:Taupunkt:
Aussen-T/F 3251 02-02-2019 06:50:00 1.7 C 97 % 1.28 C
3252 02-02-2019 06:55:00 1.7 C 97 % 1.28 C
3253 02-02-2019 07:00:00 1.7 C 97 % 1.28 C
3254 02-02-2019 07:05:00 1.7 C 97 % 1.28 C
3255 02-02-2019 07:10:00 1.7 C 97 % 1.28 C
3256 02-02-2019 07:15:00 1.7 C 97 % 1.28 C
3257 02-02-2019 07:20:00 1.7 C 97 % 1.28 C
3258 02-02-2019 07:25:00 1.8 C 97 % 1.38 C
3259 02-02-2019 07:30:00 1.7 C 97 % 1.28 C
3260 02-02-2019 07:35:00 1.8 C 97 % 1.38 C
3261 02-02-2019 07:40:00 1.7 C 97 % 1.28 C
3262 02-02-2019 07:45:00 1.7 C 97 % 1.28 C
3263 02-02-2019 07:50:00 1.8 C 97 % 1.38 C
3264 02-02-2019 07:55:00 1.8 C 97 % 1.38 C
3265 02-02-2019 08:00:00 1.8 C 97 % 1.38 C
3266 02-02-2019 08:05:00 1.8 C 97 % 1.38 C
3267 02-02-2019 08:10:00 1.8 C 97 % 1.38 C
3268 02-02-2019 08:15:00 1.8 C 97 % 1.38 C
3269 02-02-2019 08:20:00 1.8 C 97 % 1.38 C
3270 02-02-2019 08:25:00 1.8 C 97 % 1.38 C
3271 02-02-2019 08:30:00 1.8 C 97 % 1.38 C
3272 02-02-2019 08:35:00 1.8 C 97 % 1.38 C
3273 02-02-2019 08:40:00 1.8 C 97 % 1.38 C
3274 02-02-2019 08:45:00 1.8 C 97 % 1.38 C
3275 02-02-2019 08:50:00 1.8 C 97 % 1.38 C
Sensor: Nr:Datum:Temp:Feuchte:Taupunkt:
Aussen-T/F 3276 02-02-2019 08:55:00 1.8 C 97 % 1.38 C
3277 02-02-2019 09:00:00 1.8 C 97 % 1.38 C
3278 02-02-2019 09:05:00 1.9 C 97 % 1.48 C
3279 02-02-2019 09:10:00 1.9 C 97 % 1.48 C
3280 02-02-2019 09:15:00 1.9 C 97 % 1.48 C
3281 02-02-2019 09:20:00 2 C 97 % 1.58 C
3282 02-02-2019 09:25:00 2.1 C 97 % 1.67 C
3283 02-02-2019 09:30:00 2.1 C 97 % 1.67 C
3284 02-02-2019 09:35:00 2.2 C 97 % 1.77 C
3285 02-02-2019 09:40:00 2.2 C 97 % 1.77 C
3286 02-02-2019 09:45:00 2.3 C 97 % 1.87 C
3287 02-02-2019 09:50:00 2.3 C 97 % 1.87 C
3288 02-02-2019 09:55:00 2.4 C 97 % 1.97 C
3289 02-02-2019 10:00:00 2.5 C 98 % 2.22 C
3290 02-02-2019 10:05:00 2.6 C 98 % 2.32 C
3291 02-02-2019 10:10:00 2.6 C 97 % 2.17 C
3292 02-02-2019 10:15:00 2.7 C 97 % 2.27 C
3293 02-02-2019 10:20:00 2.7 C 98 % 2.42 C
3294 02-02-2019 10:25:00 2.7 C 98 % 2.42 C
3295 02-02-2019 10:30:00 2.8 C 98 % 2.52 C
3296 02-02-2019 10:35:00 2.8 C 98 % 2.52 C
3297 02-02-2019 10:40:00 2.8 C 97 % 2.37 C
3298 02-02-2019 10:45:00 2.8 C 97 % 2.37 C
3299 02-02-2019 10:50:00 2.8 C 97 % 2.37 C
3300 02-02-2019 10:55:00 2.8 C 97 % 2.37 C
Sensor: Nr:Datum:Temp:Feuchte:Taupunkt:
Aussen-T/F 3301 02-02-2019 11:00:00 2.9 C 97 % 2.47 C
3302 02-02-2019 11:05:00 2.9 C 97 % 2.47 C
3303 02-02-2019 11:10:00 3 C 97 % 2.57 C
3304 02-02-2019 11:15:00 3 C 97 % 2.57 C
3305 02-02-2019 11:20:00 3.1 C 97 % 2.67 C
3306 02-02-2019 11:25:00 3.1 C 97 % 2.67 C
3307 02-02-2019 11:30:00 3.1 C 97 % 2.67 C
3308 02-02-2019 11:35:00 3.1 C 97 % 2.67 C
3309 02-02-2019 11:40:00 3.1 C 97 % 2.67 C
3310 02-02-2019 11:45:00 3.1 C 97 % 2.67 C
3311 02-02-2019 11:50:00 3.1 C 97 % 2.67 C
3312 02-02-2019 11:55:00 3.1 C 97 % 2.67 C
3313 02-02-2019 12:00:00 3.1 C 97 % 2.67 C
3314 02-02-2019 12:05:00 3.2 C 97 % 2.77 C
3315 02-02-2019 12:10:00 3.2 C 97 % 2.77 C
3316 02-02-2019 12:15:00 3.2 C 97 % 2.77 C
3317 02-02-2019 12:20:00 3.3 C 97 % 2.87 C
3318 02-02-2019 12:25:00 3.3 C 97 % 2.87 C
3319 02-02-2019 12:30:00 3.3 C 97 % 2.87 C
3320 02-02-2019 12:35:00 3.4 C 97 % 2.97 C
3321 02-02-2019 12:40:00 3.4 C 97 % 2.97 C
3322 02-02-2019 12:45:00 3.4 C 97 % 2.97 C
3323 02-02-2019 12:50:00 3.5 C 97 % 3.07 C
3324 02-02-2019 12:55:00 3.5 C 97 % 3.07 C
3325 02-02-2019 13:00:00 3.5 C 97 % 3.07 C
Sensor: Nr:Datum:Temp:Feuchte:Taupunkt:
Aussen-T/F 3326 02-02-2019 13:05:00 3.4 C 97 % 2.97 C
3327 02-02-2019 13:10:00 3.5 C 97 % 3.07 C
3328 02-02-2019 13:15:00 3.6 C 97 % 3.17 C
3329 02-02-2019 13:20:00 3.7 C 97 % 3.27 C
3330 02-02-2019 13:25:00 3.7 C 97 % 3.27 C
3331 02-02-2019 13:30:00 3.8 C 97 % 3.37 C
3332 02-02-2019 13:35:00 3.7 C 97 % 3.27 C
3333 02-02-2019 13:40:00 3.8 C 97 % 3.37 C
3334 02-02-2019 13:45:00 3.8 C 97 % 3.37 C
3335 02-02-2019 13:50:00 3.8 C 97 % 3.37 C
3336 02-02-2019 13:55:00 3.8 C 97 % 3.37 C
3337 02-02-2019 14:00:00 3.8 C 97 % 3.37 C
3338 02-02-2019 14:05:00 3.8 C 97 % 3.37 C
3339 02-02-2019 14:10:00 3.8 C 97 % 3.37 C
3340 02-02-2019 14:15:00 3.8 C 97 % 3.37 C
3341 02-02-2019 14:20:00 3.8 C 97 % 3.37 C
3342 02-02-2019 14:25:00 3.8 C 97 % 3.37 C
3343 02-02-2019 14:30:00 3.7 C 97 % 3.27 C
3344 02-02-2019 14:35:00 3.7 C 97 % 3.27 C
3345 02-02-2019 14:40:00 3.7 C 97 % 3.27 C
3346 02-02-2019 14:45:00 3.6 C 97 % 3.17 C
3347 02-02-2019 14:50:00 3.6 C 97 % 3.17 C
3348 02-02-2019 14:55:00 3.6 C 97 % 3.17 C
3349 02-02-2019 15:00:00 3.6 C 97 % 3.17 C
3350 02-02-2019 15:05:00 3.7 C 97 % 3.27 C
Sensor: Nr:Datum:Temp:Feuchte:Taupunkt:
Aussen-T/F 3351 02-02-2019 15:10:00 3.8 C 97 % 3.37 C
3352 02-02-2019 15:15:00 3.8 C 97 % 3.37 C
3353 02-02-2019 15:20:00 3.9 C 97 % 3.47 C
3354 02-02-2019 15:25:00 4 C 97 % 3.57 C
3355 02-02-2019 15:30:00 4 C 97 % 3.57 C
3356 02-02-2019 15:35:00 4.1 C 97 % 3.67 C
3357 02-02-2019 15:40:00 4.1 C 97 % 3.67 C
3358 02-02-2019 15:45:00 4 C 97 % 3.57 C
3359 02-02-2019 15:50:00 4 C 97 % 3.57 C
3360 02-02-2019 15:55:00 3.9 C 97 % 3.47 C
3361 02-02-2019 16:00:00 3.9 C 97 % 3.47 C
3362 02-02-2019 16:05:00 3.8 C 97 % 3.37 C
3363 02-02-2019 16:10:00 3.8 C 97 % 3.37 C
3364 02-02-2019 16:15:00 3.7 C 97 % 3.27 C
3365 02-02-2019 16:20:00 3.7 C 97 % 3.27 C
3366 02-02-2019 16:25:00 3.7 C 97 % 3.27 C
3367 02-02-2019 16:30:00 3.7 C 97 % 3.27 C
3368 02-02-2019 16:35:00 3.7 C 97 % 3.27 C
3369 02-02-2019 16:40:00 3.6 C 97 % 3.17 C
3370 02-02-2019 16:45:00 3.6 C 97 % 3.17 C
3371 02-02-2019 16:50:00 3.5 C 97 % 3.07 C
3372 02-02-2019 16:55:00 3.4 C 97 % 2.97 C
3373 02-02-2019 17:00:00 3.3 C 97 % 2.87 C
3374 02-02-2019 17:05:00 3.3 C 97 % 2.87 C
3375 02-02-2019 17:10:00 3.2 C 97 % 2.77 C
Sensor: Nr:Datum:Temp:Feuchte:Taupunkt:
Aussen-T/F 3376 02-02-2019 17:15:00 3.2 C 97 % 2.77 C
3377 02-02-2019 17:20:00 3.2 C 97 % 2.77 C
3378 02-02-2019 17:25:00 3.2 C 97 % 2.77 C
3379 02-02-2019 17:30:00 3.2 C 97 % 2.77 C
3380 02-02-2019 17:35:00 3.1 C 97 % 2.67 C
3381 02-02-2019 17:40:00 3.2 C 97 % 2.77 C
3382 02-02-2019 17:45:00 3.3 C 97 % 2.87 C
3383 02-02-2019 17:50:00 3.4 C 97 % 2.97 C
3384 02-02-2019 17:55:00 3.4 C 97 % 2.97 C
3385 02-02-2019 18:00:00 3.4 C 97 % 2.97 C
3386 02-02-2019 18:05:00 3.4 C 97 % 2.97 C
3387 02-02-2019 18:10:00 3.3 C 97 % 2.87 C
3388 02-02-2019 18:15:00 3.3 C 97 % 2.87 C
3389 02-02-2019 18:20:00 3.2 C 97 % 2.77 C
3390 02-02-2019 18:25:00 3.2 C 97 % 2.77 C
3391 02-02-2019 18:30:00 3.2 C 97 % 2.77 C
3392 02-02-2019 18:35:00 3.1 C 97 % 2.67 C
3393 02-02-2019 18:40:00 3.1 C 97 % 2.67 C
3394 02-02-2019 18:45:00 3 C 97 % 2.57 C
3395 02-02-2019 18:50:00 2.9 C 97 % 2.47 C
3396 02-02-2019 18:55:00 2.8 C 97 % 2.37 C
3397 02-02-2019 19:00:00 2.8 C 96 % 2.23 C
3398 02-02-2019 19:05:00 2.8 C 97 % 2.37 C
3399 02-02-2019 19:10:00 2.7 C 96 % 2.13 C
3400 02-02-2019 19:15:00 2.7 C 96 % 2.13 C
Sensor: Nr:Datum:Temp:Feuchte:Taupunkt:
Aussen-T/F 3401 02-02-2019 19:20:00 2.7 C 97 % 2.27 C
3402 02-02-2019 19:25:00 2.6 C 97 % 2.17 C
3403 02-02-2019 19:30:00 2.6 C 97 % 2.17 C
3404 02-02-2019 19:35:00 2.6 C 96 % 2.03 C
3405 02-02-2019 19:40:00 2.6 C 97 % 2.17 C
3406 02-02-2019 19:45:00 2.5 C 97 % 2.07 C
3407 02-02-2019 19:50:00 2.5 C 97 % 2.07 C
3408 02-02-2019 19:55:00 2.4 C 97 % 1.97 C
3409 02-02-2019 20:00:00 2.4 C 97 % 1.97 C
3410 02-02-2019 20:05:00 2.4 C 97 % 1.97 C
3411 02-02-2019 20:10:00 2.4 C 96 % 1.83 C
3412 02-02-2019 20:15:00 2.3 C 96 % 1.73 C
3413 02-02-2019 20:20:00 2.3 C 96 % 1.73 C
3414 02-02-2019 20:25:00 2.3 C 96 % 1.73 C
3415 02-02-2019 20:30:00 2.3 C 96 % 1.73 C
3416 02-02-2019 20:35:00 2.3 C 96 % 1.73 C
3417 02-02-2019 20:40:00 2.3 C 96 % 1.73 C
3418 02-02-2019 20:45:00 2.3 C 96 % 1.73 C
3419 02-02-2019 20:50:00 2.2 C 96 % 1.63 C
3420 02-02-2019 20:55:00 2.2 C 96 % 1.63 C
3421 02-02-2019 21:00:00 2.2 C 96 % 1.63 C
3422 02-02-2019 21:05:00 2.2 C 96 % 1.63 C
3423 02-02-2019 21:10:00 2.2 C 96 % 1.63 C
3424 02-02-2019 21:15:00 2.1 C 96 % 1.53 C
3425 02-02-2019 21:20:00 2.1 C 96 % 1.53 C
Sensor: Nr:Datum:Temp:Feuchte:Taupunkt:
Aussen-T/F 3426 02-02-2019 21:25:00 2.1 C 96 % 1.53 C
3427 02-02-2019 21:30:00 2.1 C 96 % 1.53 C
3428 02-02-2019 21:35:00 2.1 C 96 % 1.53 C
3429 02-02-2019 21:40:00 2.1 C 96 % 1.53 C
3430 02-02-2019 21:45:00 2 C 96 % 1.43 C
3431 02-02-2019 21:50:00 2 C 96 % 1.43 C
3432 02-02-2019 21:55:00 2 C 96 % 1.43 C
3433 02-02-2019 22:00:00 1.9 C 96 % 1.33 C
3434 02-02-2019 22:05:00 1.9 C 96 % 1.33 C
3435 02-02-2019 22:10:00 1.9 C 96 % 1.33 C
3436 02-02-2019 22:15:00 1.9 C 96 % 1.33 C
3437 02-02-2019 22:20:00 1.9 C 96 % 1.33 C
3438 02-02-2019 22:25:00 1.9 C 96 % 1.33 C
3439 02-02-2019 22:30:00 1.9 C 96 % 1.33 C
3440 02-02-2019 22:35:00 1.9 C 96 % 1.33 C
3441 02-02-2019 22:40:00 1.9 C 96 % 1.33 C
3442 02-02-2019 22:45:00 1.8 C 96 % 1.23 C
3443 02-02-2019 22:50:00 1.8 C 96 % 1.23 C
3444 02-02-2019 22:55:00 1.8 C 96 % 1.23 C
3445 02-02-2019 23:00:00 1.8 C 96 % 1.23 C
3446 02-02-2019 23:05:00 1.8 C 96 % 1.23 C
3447 02-02-2019 23:10:00 1.8 C 96 % 1.23 C
3448 02-02-2019 23:15:00 1.8 C 96 % 1.23 C
3449 02-02-2019 23:20:00 1.8 C 96 % 1.23 C
3450 02-02-2019 23:25:00 1.8 C 96 % 1.23 C
Sensor: Nr:Datum:Temp:Feuchte:Taupunkt:
Aussen-T/F 3451 02-02-2019 23:30:00 1.8 C 97 % 1.38 C
3452 02-02-2019 23:35:00 1.8 C 97 % 1.38 C
3453 02-02-2019 23:40:00 1.8 C 97 % 1.38 C
3454 02-02-2019 23:45:00 1.8 C 97 % 1.38 C
3455 02-02-2019 23:50:00 1.8 C 96 % 1.23 C
3456 02-02-2019 23:55:00 1.8 C 96 % 1.23 C
3457 03-02-2019 00:00:00 1.8 C 97 % 1.38 C
3458 03-02-2019 00:05:00 1.8 C 96 % 1.23 C
3459 03-02-2019 00:10:00 1.8 C 97 % 1.38 C
3460 03-02-2019 00:15:00 1.8 C 97 % 1.38 C
3461 03-02-2019 00:20:00 1.9 C 97 % 1.48 C
3462 03-02-2019 00:25:00 1.9 C 97 % 1.48 C
3463 03-02-2019 00:30:00 1.9 C 97 % 1.48 C
3464 03-02-2019 00:35:00 1.9 C 96 % 1.33 C
3465 03-02-2019 00:40:00 1.9 C 96 % 1.33 C
3466 03-02-2019 00:45:00 1.9 C 96 % 1.33 C
3467 03-02-2019 00:50:00 1.9 C 96 % 1.33 C
3468 03-02-2019 00:55:00 2 C 96 % 1.43 C
3469 03-02-2019 01:00:00 2 C 96 % 1.43 C
3470 03-02-2019 01:05:00 2 C 96 % 1.43 C
3471 03-02-2019 01:10:00 2 C 96 % 1.43 C
3472 03-02-2019 01:15:00 2 C 96 % 1.43 C
3473 03-02-2019 01:20:00 2.1 C 96 % 1.53 C
3474 03-02-2019 01:25:00 2.1 C 96 % 1.53 C
3475 03-02-2019 01:30:00 2.1 C 96 % 1.53 C
Sensor: Nr:Datum:Temp:Feuchte:Taupunkt:
Aussen-T/F 3476 03-02-2019 01:35:00 2.1 C 96 % 1.53 C
3477 03-02-2019 01:40:00 2.1 C 96 % 1.53 C
3478 03-02-2019 01:45:00 2.1 C 96 % 1.53 C
3479 03-02-2019 01:50:00 2.1 C 96 % 1.53 C
3480 03-02-2019 01:55:00 2.1 C 96 % 1.53 C
3481 03-02-2019 02:00:00 2.1 C 96 % 1.53 C
3482 03-02-2019 02:05:00 2.1 C 95 % 1.38 C
3483 03-02-2019 02:10:00 2.1 C 95 % 1.38 C
3484 03-02-2019 02:15:00 2.1 C 95 % 1.38 C
3485 03-02-2019 02:20:00 2.1 C 95 % 1.38 C
3486 03-02-2019 02:25:00 2.2 C 95 % 1.48 C
3487 03-02-2019 02:30:00 2.2 C 94 % 1.34 C
3488 03-02-2019 02:35:00 2.2 C 94 % 1.34 C
3489 03-02-2019 02:40:00 2.2 C 94 % 1.34 C
3490 03-02-2019 02:45:00 2.2 C 93 % 1.19 C
3491 03-02-2019 02:50:00 2.2 C 93 % 1.19 C
3492 03-02-2019 02:55:00 2.2 C 93 % 1.19 C
3493 03-02-2019 03:00:00 2.2 C 93 % 1.19 C
3494 03-02-2019 03:05:00 2.2 C 93 % 1.19 C
3495 03-02-2019 03:10:00 2.2 C 93 % 1.19 C
3496 03-02-2019 03:15:00 2.2 C 93 % 1.19 C
3497 03-02-2019 03:20:00 2.2 C 93 % 1.19 C
3498 03-02-2019 03:25:00 2.2 C 93 % 1.19 C
3499 03-02-2019 03:30:00 2.2 C 93 % 1.19 C
3500 03-02-2019 03:35:00 2.2 C 93 % 1.19 C
Sensor: Nr:Datum:Temp:Feuchte:Taupunkt:
Aussen-T/F 3501 03-02-2019 03:40:00 2.2 C 93 % 1.19 C
3502 03-02-2019 03:45:00 2.2 C 93 % 1.19 C
3503 03-02-2019 03:50:00 2.1 C 93 % 1.09 C
3504 03-02-2019 03:55:00 2.1 C 93 % 1.09 C
3505 03-02-2019 04:00:00 2.1 C 93 % 1.09 C
3506 03-02-2019 04:05:00 2.1 C 93 % 1.09 C
3507 03-02-2019 04:10:00 2.1 C 93 % 1.09 C
3508 03-02-2019 04:15:00 2.1 C 93 % 1.09 C
3509 03-02-2019 04:20:00 2.1 C 93 % 1.09 C
3510 03-02-2019 04:25:00 2.1 C 93 % 1.09 C
3511 03-02-2019 04:30:00 2.1 C 94 % 1.24 C
3512 03-02-2019 04:35:00 2.1 C 94 % 1.24 C
3513 03-02-2019 04:40:00 2.1 C 94 % 1.24 C
3514 03-02-2019 04:45:00 2.1 C 94 % 1.24 C
3515 03-02-2019 04:50:00 2.1 C 94 % 1.24 C
3516 03-02-2019 04:55:00 2.1 C 94 % 1.24 C
3517 03-02-2019 05:00:00 2.1 C 94 % 1.24 C
3518 03-02-2019 05:05:00 2.1 C 93 % 1.09 C
3519 03-02-2019 05:10:00 2.2 C 93 % 1.19 C
3520 03-02-2019 05:15:00 2.2 C 93 % 1.19 C
3521 03-02-2019 05:20:00 2.2 C 93 % 1.19 C
3522 03-02-2019 05:25:00 2.2 C 93 % 1.19 C
3523 03-02-2019 05:30:00 2.2 C 93 % 1.19 C
3524 03-02-2019 05:35:00 2.2 C 93 % 1.19 C
3525 03-02-2019 05:40:00 2.2 C 93 % 1.19 C
Sensor: Nr:Datum:Temp:Feuchte:Taupunkt:
Aussen-T/F 3526 03-02-2019 05:45:00 2.2 C 93 % 1.19 C
3527 03-02-2019 05:50:00 2.2 C 93 % 1.19 C
3528 03-02-2019 05:55:00 2.2 C 93 % 1.19 C
3529 03-02-2019 06:00:00 2.2 C 93 % 1.19 C
3530 03-02-2019 06:05:00 2.2 C 93 % 1.19 C
3531 03-02-2019 06:10:00 2.2 C 93 % 1.19 C
3532 03-02-2019 06:15:00 2.3 C 92 % 1.14 C
3533 03-02-2019 06:20:00 2.3 C 92 % 1.14 C
3534 03-02-2019 06:25:00 2.3 C 93 % 1.29 C
3535 03-02-2019 06:30:00 2.2 C 92 % 1.04 C
3536 03-02-2019 06:35:00 2.2 C 92 % 1.04 C
3537 03-02-2019 06:40:00 2.2 C 92 % 1.04 C
3538 03-02-2019 06:45:00 2.1 C 92 % 0.94 C
3539 03-02-2019 06:50:00 2.1 C 93 % 1.09 C
3540 03-02-2019 06:55:00 2 C 93 % 0.99 C
3541 03-02-2019 07:00:00 1.9 C 93 % 0.89 C
3542 03-02-2019 07:05:00 1.9 C 93 % 0.89 C
3543 03-02-2019 07:10:00 1.9 C 93 % 0.89 C
3544 03-02-2019 07:15:00 1.9 C 93 % 0.89 C
3545 03-02-2019 07:20:00 1.9 C 93 % 0.89 C
3546 03-02-2019 07:25:00 1.9 C 93 % 0.89 C
3547 03-02-2019 07:30:00 1.9 C 93 % 0.89 C
3548 03-02-2019 07:35:00 1.9 C 93 % 0.89 C
3549 03-02-2019 07:40:00 1.9 C 93 % 0.89 C
3550 03-02-2019 07:45:00 1.9 C 93 % 0.89 C
Sensor: Nr:Datum:Temp:Feuchte:Taupunkt:
Aussen-T/F 3551 03-02-2019 07:50:00 1.9 C 93 % 0.89 C
3552 03-02-2019 07:55:00 1.9 C 93 % 0.89 C
3553 03-02-2019 08:00:00 1.9 C 93 % 0.89 C
3554 03-02-2019 08:05:00 1.9 C 93 % 0.89 C
3555 03-02-2019 08:10:00 1.8 C 93 % 0.79 C
3556 03-02-2019 08:15:00 1.8 C 93 % 0.79 C
3557 03-02-2019 08:20:00 1.8 C 93 % 0.79 C
3558 03-02-2019 08:25:00 1.9 C 93 % 0.89 C
3559 03-02-2019 08:30:00 1.9 C 93 % 0.89 C
3560 03-02-2019 08:35:00 1.9 C 93 % 0.89 C
3561 03-02-2019 08:40:00 1.9 C 93 % 0.89 C
3562 03-02-2019 08:45:00 1.9 C 93 % 0.89 C
3563 03-02-2019 08:50:00 1.9 C 93 % 0.89 C
3564 03-02-2019 08:55:00 1.9 C 93 % 0.89 C
3565 03-02-2019 09:00:00 1.9 C 93 % 0.89 C
3566 03-02-2019 09:05:00 1.9 C 93 % 0.89 C
3567 03-02-2019 09:10:00 2 C 93 % 0.99 C
3568 03-02-2019 09:15:00 2 C 94 % 1.14 C
3569 03-02-2019 09:20:00 2 C 94 % 1.14 C
3570 03-02-2019 09:25:00 2 C 94 % 1.14 C
3571 03-02-2019 09:30:00 2 C 93 % 0.99 C
3572 03-02-2019 09:35:00 2 C 93 % 0.99 C
3573 03-02-2019 09:40:00 2 C 93 % 0.99 C
3574 03-02-2019 09:45:00 2 C 93 % 0.99 C
3575 03-02-2019 09:50:00 2.1 C 93 % 1.09 C
Sensor: Nr:Datum:Temp:Feuchte:Taupunkt:
Aussen-T/F 3576 03-02-2019 09:55:00 2.2 C 92 % 1.04 C
3577 03-02-2019 10:00:00 2.2 C 92 % 1.04 C
3578 03-02-2019 10:05:00 2.3 C 92 % 1.14 C
3579 03-02-2019 10:10:00 2.3 C 92 % 1.14 C
3580 03-02-2019 10:15:00 2.4 C 92 % 1.24 C
3581 03-02-2019 10:20:00 2.4 C 92 % 1.24 C
3582 03-02-2019 10:25:00 2.4 C 92 % 1.24 C
3583 03-02-2019 10:30:00 2.5 C 91 % 1.18 C
3584 03-02-2019 10:35:00 2.5 C 91 % 1.18 C
3585 03-02-2019 10:40:00 2.6 C 91 % 1.28 C
3586 03-02-2019 10:45:00 2.6 C 91 % 1.28 C
3587 03-02-2019 10:50:00 2.7 C 90 % 1.23 C
3588 03-02-2019 10:55:00 2.7 C 90 % 1.23 C
3589 03-02-2019 11:00:00 2.7 C 90 % 1.23 C
3590 03-02-2019 11:05:00 2.8 C 90 % 1.33 C
3591 03-02-2019 11:10:00 2.9 C 90 % 1.43 C
3592 03-02-2019 11:15:00 2.9 C 89 % 1.27 C
3593 03-02-2019 11:20:00 3.1 C 89 % 1.47 C
3594 03-02-2019 11:25:00 3.2 C 89 % 1.57 C
3595 03-02-2019 11:30:00 3.2 C 88 % 1.41 C
3596 03-02-2019 11:35:00 3.3 C 88 % 1.51 C
3597 03-02-2019 11:40:00 3.3 C 88 % 1.51 C
3598 03-02-2019 11:45:00 3.3 C 88 % 1.51 C
3599 03-02-2019 11:50:00 3.3 C 88 % 1.51 C
3600 03-02-2019 11:55:00 3.3 C 88 % 1.51 C
Sensor: Nr:Datum:Temp:Feuchte:Taupunkt:
Aussen-T/F 3601 03-02-2019 12:00:00 3.3 C 88 % 1.51 C
3602 03-02-2019 12:05:00 3.3 C 87 % 1.35 C
3603 03-02-2019 12:10:00 3.3 C 87 % 1.35 C
3604 03-02-2019 12:15:00 3.4 C 86 % 1.29 C
3605 03-02-2019 12:20:00 3.4 C 86 % 1.29 C
3606 03-02-2019 12:25:00 3.6 C 85 % 1.32 C
3607 03-02-2019 12:30:00 3.7 C 85 % 1.42 C
3608 03-02-2019 12:35:00 3.7 C 85 % 1.42 C
3609 03-02-2019 12:40:00 3.8 C 84 % 1.35 C
3610 03-02-2019 12:45:00 3.8 C 85 % 1.52 C
3611 03-02-2019 12:50:00 3.9 C 85 % 1.61 C
3612 03-02-2019 12:55:00 3.8 C 85 % 1.52 C
3613 03-02-2019 13:00:00 3.8 C 84 % 1.35 C
3614 03-02-2019 13:05:00 3.8 C 85 % 1.52 C
3615 03-02-2019 13:10:00 3.8 C 85 % 1.52 C
3616 03-02-2019 13:15:00 3.8 C 84 % 1.35 C
3617 03-02-2019 13:20:00 3.9 C 85 % 1.61 C
3618 03-02-2019 13:25:00 3.9 C 83 % 1.28 C
3619 03-02-2019 13:30:00 3.9 C 83 % 1.28 C
3620 03-02-2019 13:35:00 4 C 83 % 1.38 C
3621 03-02-2019 13:40:00 4.1 C 83 % 1.48 C
3622 03-02-2019 13:45:00 4.2 C 82 % 1.41 C
3623 03-02-2019 13:50:00 4.2 C 81 % 1.24 C
3624 03-02-2019 13:55:00 4.2 C 82 % 1.41 C
3625 03-02-2019 14:00:00 4.2 C 82 % 1.41 C
Sensor: Nr:Datum:Temp:Feuchte:Taupunkt:
Aussen-T/F 3626 03-02-2019 14:05:00 4.2 C 83 % 1.58 C
3627 03-02-2019 14:10:00 4.1 C 83 % 1.48 C
3628 03-02-2019 14:15:00 4.1 C 84 % 1.65 C
3629 03-02-2019 14:20:00 3.9 C 84 % 1.45 C
3630 03-02-2019 14:25:00 3.9 C 84 % 1.45 C
3631 03-02-2019 14:30:00 3.9 C 84 % 1.45 C
3632 03-02-2019 14:35:00 4 C 84 % 1.55 C
3633 03-02-2019 14:40:00 4.1 C 83 % 1.48 C
3634 03-02-2019 14:45:00 4.2 C 83 % 1.58 C
3635 03-02-2019 14:50:00 4.2 C 82 % 1.41 C
3636 03-02-2019 14:55:00 4.4 C 81 % 1.43 C
3637 03-02-2019 15:00:00 4.4 C 79 % 1.09 C
3638 03-02-2019 15:05:00 4.4 C 78 % 0.91 C
3639 03-02-2019 15:10:00 4.4 C 78 % 0.91 C
3640 03-02-2019 15:15:00 4.5 C 78 % 1.01 C
3641 03-02-2019 15:20:00 4.5 C 77 % 0.83 C
3642 03-02-2019 15:25:00 4.6 C 76 % 0.74 C
3643 03-02-2019 15:30:00 4.6 C 78 % 1.1 C
3644 03-02-2019 15:35:00 4.5 C 77 % 0.83 C
3645 03-02-2019 15:40:00 4.6 C 76 % 0.74 C
3646 03-02-2019 15:45:00 4.6 C 75 % 0.56 C
3647 03-02-2019 15:50:00 4.5 C 75 % 0.46 C
3648 03-02-2019 15:55:00 4.5 C 75 % 0.46 C
3649 03-02-2019 16:00:00 4.4 C 75 % 0.37 C
3650 03-02-2019 16:05:00 4.4 C 75 % 0.37 C
Sensor: Nr:Datum:Temp:Feuchte:Taupunkt:
Aussen-T/F 3651 03-02-2019 16:10:00 4.4 C 76 % 0.55 C
3652 03-02-2019 16:15:00 4.4 C 76 % 0.55 C
3653 03-02-2019 16:20:00 4.4 C 76 % 0.55 C
3654 03-02-2019 16:25:00 4.4 C 76 % 0.55 C
3655 03-02-2019 16:30:00 4.4 C 76 % 0.55 C
3656 03-02-2019 16:35:00 4.5 C 76 % 0.65 C
3657 03-02-2019 16:40:00 4.5 C 77 % 0.83 C
3658 03-02-2019 16:45:00 4.5 C 76 % 0.65 C
3659 03-02-2019 16:50:00 4.5 C 77 % 0.83 C
3660 03-02-2019 16:55:00 4.4 C 77 % 0.73 C
3661 03-02-2019 17:00:00 4.4 C 77 % 0.73 C
3662 03-02-2019 17:05:00 4.4 C 77 % 0.73 C
3663 03-02-2019 17:10:00 4.3 C 77 % 0.63 C
3664 03-02-2019 17:15:00 4.3 C 77 % 0.63 C
3665 03-02-2019 17:20:00 4.3 C 77 % 0.63 C
3666 03-02-2019 17:25:00 4.3 C 77 % 0.63 C
3667 03-02-2019 17:30:00 4.3 C 78 % 0.81 C
3668 03-02-2019 17:35:00 4.3 C 79 % 0.99 C
3669 03-02-2019 17:40:00 4.2 C 79 % 0.89 C
3670 03-02-2019 17:45:00 4.2 C 79 % 0.89 C
3671 03-02-2019 17:50:00 4.1 C 79 % 0.79 C
3672 03-02-2019 17:55:00 4.1 C 80 % 0.97 C
3673 03-02-2019 18:00:00 4.1 C 80 % 0.97 C
3674 03-02-2019 18:05:00 4 C 81 % 1.04 C
3675 03-02-2019 18:10:00 3.9 C 81 % 0.95 C
Sensor: Nr:Datum:Temp:Feuchte:Taupunkt:
Aussen-T/F 3676 03-02-2019 18:15:00 3.9 C 82 % 1.12 C
3677 03-02-2019 18:20:00 3.9 C 82 % 1.12 C
3678 03-02-2019 18:25:00 3.9 C 83 % 1.28 C
3679 03-02-2019 18:30:00 3.8 C 83 % 1.19 C
3680 03-02-2019 18:35:00 3.8 C 83 % 1.19 C
3681 03-02-2019 18:40:00 3.8 C 83 % 1.19 C
3682 03-02-2019 18:45:00 3.8 C 83 % 1.19 C
3683 03-02-2019 18:50:00 3.8 C 83 % 1.19 C
3684 03-02-2019 18:55:00 3.8 C 83 % 1.19 C
3685 03-02-2019 19:00:00 3.8 C 84 % 1.35 C
3686 03-02-2019 19:05:00 3.7 C 84 % 1.25 C
3687 03-02-2019 19:10:00 3.7 C 84 % 1.25 C
3688 03-02-2019 19:15:00 3.7 C 84 % 1.25 C
3689 03-02-2019 19:20:00 3.6 C 84 % 1.16 C
3690 03-02-2019 19:25:00 3.6 C 85 % 1.32 C
3691 03-02-2019 19:30:00 3.6 C 85 % 1.32 C
3692 03-02-2019 19:35:00 3.6 C 85 % 1.32 C
3693 03-02-2019 19:40:00 3.5 C 85 % 1.22 C
3694 03-02-2019 19:45:00 3.4 C 86 % 1.29 C
3695 03-02-2019 19:50:00 3.4 C 86 % 1.29 C
3696 03-02-2019 19:55:00 3.4 C 86 % 1.29 C
3697 03-02-2019 20:00:00 3.3 C 86 % 1.19 C
3698 03-02-2019 20:05:00 3.3 C 87 % 1.35 C
3699 03-02-2019 20:10:00 3.3 C 87 % 1.35 C
3700 03-02-2019 20:15:00 3.3 C 87 % 1.35 C
Sensor: Nr:Datum:Temp:Feuchte:Taupunkt:
Aussen-T/F 3701 03-02-2019 20:20:00 3.3 C 87 % 1.35 C
3702 03-02-2019 20:25:00 3.2 C 88 % 1.41 C
3703 03-02-2019 20:30:00 3.2 C 88 % 1.41 C
3704 03-02-2019 20:35:00 3.2 C 88 % 1.41 C
3705 03-02-2019 20:40:00 3.1 C 87 % 1.15 C
3706 03-02-2019 20:45:00 3.1 C 87 % 1.15 C
3707 03-02-2019 20:50:00 3.1 C 87 % 1.15 C
3708 03-02-2019 20:55:00 2.9 C 87 % 0.96 C
3709 03-02-2019 21:00:00 2.7 C 87 % 0.76 C
3710 03-02-2019 21:05:00 2.4 C 87 % 0.46 C
3711 03-02-2019 21:10:00 2.3 C 88 % 0.52 C
3712 03-02-2019 21:15:00 2.1 C 88 % 0.33 C
3713 03-02-2019 21:20:00 2 C 89 % 0.38 C
3714 03-02-2019 21:25:00 1.9 C 89 % 0.28 C
3715 03-02-2019 21:30:00 1.8 C 89 % 0.19 C
3716 03-02-2019 21:35:00 1.7 C 90 % 0.24 C
3717 03-02-2019 21:40:00 1.6 C 90 % 0.14 C
3718 03-02-2019 21:45:00 1.6 C 90 % 0.14 C
3719 03-02-2019 21:50:00 1.5 C 91 % 0.19 C
3720 03-02-2019 21:55:00 1.5 C 91 % 0.19 C
3721 03-02-2019 22:00:00 1.4 C 91 % 0.1 C
3722 03-02-2019 22:05:00 1.4 C 91 % 0.1 C
3723 03-02-2019 22:10:00 1.3 C 91 % 0 C
3724 03-02-2019 22:15:00 1.2 C 91 % -0.1 C
3725 03-02-2019 22:20:00 1.1 C 91 % -0.2 C
Sensor: Nr:Datum:Temp:Feuchte:Taupunkt:
Aussen-T/F 3726 03-02-2019 22:25:00 1.1 C 91 % -0.2 C
3727 03-02-2019 22:30:00 0.9 C 91 % -0.4 C
3728 03-02-2019 22:35:00 0.8 C 91 % -0.5 C
3729 03-02-2019 22:40:00 0.8 C 91 % -0.5 C
3730 03-02-2019 22:45:00 0.7 C 92 % -0.45 C
3731 03-02-2019 22:50:00 0.6 C 92 % -0.55 C
3732 03-02-2019 22:55:00 0.6 C 92 % -0.55 C
3733 03-02-2019 23:00:00 0.6 C 92 % -0.55 C
3734 03-02-2019 23:05:00 0.5 C 93 % -0.5 C
3735 03-02-2019 23:10:00 0.5 C 93 % -0.5 C
3736 03-02-2019 23:15:00 0.4 C 93 % -0.6 C
3737 03-02-2019 23:20:00 0.4 C 92 % -0.74 C
3738 03-02-2019 23:25:00 0.3 C 93 % -0.7 C
3739 03-02-2019 23:30:00 0.3 C 93 % -0.7 C
3740 03-02-2019 23:35:00 0.2 C 93 % -0.79 C
3741 03-02-2019 23:40:00 0.1 C 93 % -0.89 C
3742 03-02-2019 23:45:00 0 C 93 % -0.99 C
3743 03-02-2019 23:50:00 -0.1 C 93 % -1.09 C
3744 03-02-2019 23:55:00 -0.1 C 93 % -1.09 C
3745 04-02-2019 00:00:00 -0.1 C 93 % -1.09 C
3746 04-02-2019 00:05:00 -0.2 C 93 % -1.19 C
3747 04-02-2019 00:10:00 -0.2 C 93 % -1.19 C
3748 04-02-2019 00:15:00 -0.2 C 93 % -1.19 C
3749 04-02-2019 00:20:00 -0.3 C 94 % -1.15 C
3750 04-02-2019 00:25:00 -0.3 C 94 % -1.15 C
Sensor: Nr:Datum:Temp:Feuchte:Taupunkt:
Aussen-T/F 3751 04-02-2019 00:30:00 -0.3 C 94 % -1.15 C
3752 04-02-2019 00:35:00 -0.4 C 94 % -1.25 C
3753 04-02-2019 00:40:00 -0.4 C 94 % -1.25 C
3754 04-02-2019 00:45:00 -0.4 C 94 % -1.25 C
3755 04-02-2019 00:50:00 -0.5 C 94 % -1.34 C
3756 04-02-2019 00:55:00 -0.5 C 94 % -1.34 C
3757 04-02-2019 01:00:00 -0.5 C 94 % -1.34 C
3758 04-02-2019 01:05:00 -0.4 C 95 % -1.1 C
3759 04-02-2019 01:10:00 -0.3 C 95 % -1 C
3760 04-02-2019 01:15:00 -0.2 C 95 % -0.9 C
3761 04-02-2019 01:20:00 0 C 95 % -0.7 C
3762 04-02-2019 01:25:00 0.1 C 95 % -0.6 C
3763 04-02-2019 01:30:00 0.1 C 95 % -0.6 C
3764 04-02-2019 01:35:00 0.1 C 95 % -0.6 C
3765 04-02-2019 01:40:00 0.1 C 95 % -0.6 C
3766 04-02-2019 01:45:00 0.1 C 95 % -0.6 C
3767 04-02-2019 01:50:00 0.1 C 95 % -0.6 C
3768 04-02-2019 01:55:00 0.1 C 95 % -0.6 C
3769 04-02-2019 02:00:00 0.1 C 95 % -0.6 C
3770 04-02-2019 02:05:00 0.1 C 95 % -0.6 C
3771 04-02-2019 02:10:00 0.1 C 95 % -0.6 C
3772 04-02-2019 02:15:00 0.1 C 94 % -0.75 C
3773 04-02-2019 02:20:00 0.1 C 94 % -0.75 C
3774 04-02-2019 02:25:00 0.1 C 95 % -0.6 C
3775 04-02-2019 02:30:00 0.1 C 94 % -0.75 C
Sensor: Nr:Datum:Temp:Feuchte:Taupunkt:
Aussen-T/F 3776 04-02-2019 02:35:00 0 C 94 % -0.85 C
3777 04-02-2019 02:40:00 -0.1 C 94 % -0.95 C
3778 04-02-2019 02:45:00 -0.2 C 94 % -1.05 C
3779 04-02-2019 02:50:00 -0.2 C 94 % -1.05 C
3780 04-02-2019 02:55:00 -0.2 C 94 % -1.05 C
3781 04-02-2019 03:00:00 -0.3 C 94 % -1.15 C
3782 04-02-2019 03:05:00 -0.2 C 94 % -1.05 C
3783 04-02-2019 03:10:00 -0.2 C 94 % -1.05 C
3784 04-02-2019 03:15:00 -0.2 C 94 % -1.05 C
3785 04-02-2019 03:20:00 -0.2 C 94 % -1.05 C
3786 04-02-2019 03:25:00 -0.2 C 94 % -1.05 C
3787 04-02-2019 03:30:00 -0.2 C 94 % -1.05 C
3788 04-02-2019 03:35:00 -0.2 C 94 % -1.05 C
3789 04-02-2019 03:40:00 -0.2 C 94 % -1.05 C
3790 04-02-2019 03:45:00 -0.1 C 94 % -0.95 C
3791 04-02-2019 03:50:00 -0.2 C 94 % -1.05 C
3792 04-02-2019 03:55:00 -0.2 C 94 % -1.05 C
3793 04-02-2019 04:00:00 -0.3 C 94 % -1.15 C
3794 04-02-2019 04:05:00 -0.3 C 94 % -1.15 C
3795 04-02-2019 04:10:00 -0.3 C 94 % -1.15 C
3796 04-02-2019 04:15:00 -0.4 C 94 % -1.25 C
3797 04-02-2019 04:20:00 -0.5 C 94 % -1.34 C
3798 04-02-2019 04:25:00 -0.6 C 94 % -1.44 C
3799 04-02-2019 04:30:00 -0.6 C 94 % -1.44 C
3800 04-02-2019 04:35:00 -0.6 C 94 % -1.44 C
Sensor: Nr:Datum:Temp:Feuchte:Taupunkt:
Aussen-T/F 3801 04-02-2019 04:40:00 -0.6 C 94 % -1.44 C
3802 04-02-2019 04:45:00 -0.5 C 94 % -1.34 C
3803 04-02-2019 04:50:00 -0.5 C 94 % -1.34 C
3804 04-02-2019 04:55:00 -0.5 C 95 % -1.2 C
3805 04-02-2019 05:00:00 -0.4 C 94 % -1.25 C
3806 04-02-2019 05:05:00 -0.4 C 95 % -1.1 C
3807 04-02-2019 05:10:00 -0.3 C 95 % -1 C
3808 04-02-2019 05:15:00 -0.2 C 95 % -0.9 C
3809 04-02-2019 05:20:00 -0.2 C 95 % -0.9 C
3810 04-02-2019 05:25:00 -0.1 C 95 % -0.8 C
3811 04-02-2019 05:30:00 0.1 C 95 % -0.6 C
3812 04-02-2019 05:35:00 0.1 C 95 % -0.6 C
3813 04-02-2019 05:40:00 0.2 C 95 % -0.5 C
3814 04-02-2019 05:45:00 0.2 C 95 % -0.5 C
3815 04-02-2019 05:50:00 0.3 C 95 % -0.4 C
3816 04-02-2019 05:55:00 0.3 C 95 % -0.4 C
3817 04-02-2019 06:00:00 0.3 C 95 % -0.4 C
3818 04-02-2019 06:05:00 0.3 C 95 % -0.4 C
3819 04-02-2019 06:10:00 0.3 C 95 % -0.4 C
3820 04-02-2019 06:15:00 0.3 C 95 % -0.4 C
3821 04-02-2019 06:20:00 0.4 C 95 % -0.31 C
3822 04-02-2019 06:25:00 0.4 C 95 % -0.31 C
3823 04-02-2019 06:30:00 0.4 C 95 % -0.31 C
3824 04-02-2019 06:35:00 0.4 C 95 % -0.31 C
3825 04-02-2019 06:40:00 0.4 C 95 % -0.31 C
Sensor: Nr:Datum:Temp:Feuchte:Taupunkt:
Aussen-T/F 3826 04-02-2019 06:45:00 0.4 C 95 % -0.31 C
3827 04-02-2019 06:50:00 0.4 C 95 % -0.31 C
3828 04-02-2019 06:55:00 0.4 C 95 % -0.31 C
3829 04-02-2019 07:00:00 0.4 C 95 % -0.31 C
3830 04-02-2019 07:05:00 0.4 C 95 % -0.31 C
3831 04-02-2019 07:10:00 0.5 C 95 % -0.21 C
3832 04-02-2019 07:15:00 0.5 C 95 % -0.21 C
3833 04-02-2019 07:20:00 0.5 C 95 % -0.21 C
3834 04-02-2019 07:25:00 0.6 C 95 % -0.11 C
3835 04-02-2019 07:30:00 0.5 C 95 % -0.21 C
3836 04-02-2019 07:35:00 0.5 C 95 % -0.21 C
3837 04-02-2019 07:40:00 0.5 C 95 % -0.21 C
3838 04-02-2019 07:45:00 0.6 C 95 % -0.11 C
3839 04-02-2019 07:50:00 0.6 C 94 % -0.25 C
3840 04-02-2019 07:55:00 0.6 C 95 % -0.11 C
3841 04-02-2019 08:00:00 0.6 C 95 % -0.11 C
3842 04-02-2019 08:05:00 0.6 C 95 % -0.11 C
3843 04-02-2019 08:10:00 0.6 C 95 % -0.11 C
3844 04-02-2019 08:15:00 0.6 C 95 % -0.11 C
3845 04-02-2019 08:20:00 0.7 C 95 % -0.01 C
3846 04-02-2019 08:25:00 0.7 C 94 % -0.15 C
3847 04-02-2019 08:30:00 0.7 C 94 % -0.15 C
3848 04-02-2019 08:35:00 0.7 C 94 % -0.15 C
3849 04-02-2019 08:40:00 0.8 C 94 % -0.05 C
3850 04-02-2019 08:45:00 0.8 C 94 % -0.05 C
Sensor: Nr:Datum:Temp:Feuchte:Taupunkt:
Aussen-T/F 3851 04-02-2019 08:50:00 0.8 C 94 % -0.05 C
3852 04-02-2019 08:55:00 0.8 C 94 % -0.05 C
3853 04-02-2019 09:00:00 0.8 C 94 % -0.05 C
3854 04-02-2019 09:05:00 0.8 C 94 % -0.05 C
3855 04-02-2019 09:10:00 0.7 C 94 % -0.15 C
3856 04-02-2019 09:15:00 0.7 C 94 % -0.15 C
3857 04-02-2019 09:20:00 0.6 C 93 % -0.4 C
3858 04-02-2019 09:25:00 0.6 C 94 % -0.25 C
3859 04-02-2019 09:30:00 0.5 C 94 % -0.35 C
3860 04-02-2019 09:35:00 0.5 C 94 % -0.35 C
3861 04-02-2019 09:40:00 0.5 C 94 % -0.35 C
3862 04-02-2019 09:45:00 0.6 C 94 % -0.25 C
3863 04-02-2019 09:50:00 0.5 C 94 % -0.35 C
3864 04-02-2019 09:55:00 0.5 C 94 % -0.35 C
3865 04-02-2019 10:00:00 0.6 C 94 % -0.25 C
3866 04-02-2019 10:05:00 0.6 C 94 % -0.25 C
3867 04-02-2019 10:10:00 0.6 C 94 % -0.25 C
3868 04-02-2019 10:15:00 0.7 C 94 % -0.15 C
3869 04-02-2019 10:20:00 0.8 C 94 % -0.05 C
3870 04-02-2019 10:25:00 0.8 C 95 % 0.09 C
3871 04-02-2019 10:30:00 0.9 C 94 % 0.05 C
3872 04-02-2019 10:35:00 1 C 94 % 0.15 C
3873 04-02-2019 10:40:00 1.1 C 94 % 0.24 C
3874 04-02-2019 10:45:00 1.2 C 94 % 0.34 C
3875 04-02-2019 10:50:00 1.2 C 94 % 0.34 C
Sensor: Nr:Datum:Temp:Feuchte:Taupunkt:
Aussen-T/F 3876 04-02-2019 10:55:00 1.3 C 94 % 0.44 C
3877 04-02-2019 11:00:00 1.4 C 94 % 0.54 C
3878 04-02-2019 11:05:00 1.6 C 93 % 0.59 C
3879 04-02-2019 11:10:00 1.7 C 93 % 0.69 C
3880 04-02-2019 11:15:00 1.8 C 93 % 0.79 C
3881 04-02-2019 11:20:00 1.9 C 92 % 0.74 C
3882 04-02-2019 11:25:00 2 C 91 % 0.69 C
3883 04-02-2019 11:30:00 2.1 C 91 % 0.79 C
3884 04-02-2019 11:35:00 2.2 C 90 % 0.73 C
3885 04-02-2019 11:40:00 2.3 C 90 % 0.83 C